<?xml version="1.0" encoding="UTF-8" standalone="no" ?>
<gpx xmlns="http://www.topografix.com/GPX/1/1" xmlns:xsi="http://www.w3.org/2001/XMLSchema-instance" xsi:schemaLocation="http://www.topografix.com/GPX/1/1 http://www.topografix.com/GPX/1/1/gpx.xsd" version="1.1" creator="VisuGPX - https://www.visugpx.com">
  <metadata>
    <name>16 févr. 2020 à 09:51:57</name>
    <desc><![CDATA[Rando des étangs de la Bièvre - 18 km faciles .
Bel itinéraire au départ de la Gare de Versailles-Chantier. Retour gare de Jouy-en Josas. 
Récit à lire sur [url]http://trekkingzone.wordpress.com[/url]]]></desc>
  </metadata>
  <trk>
    <name><![CDATA[16 févr. 2020 à 09:51:57]]></name>
    <cmt><![CDATA[16 févr. 2020 à 09:51:57]]></cmt>
    <trkseg>
      <trkpt lat="48.79565" lon="2.13441">
        <ele>131</ele>
        <time>2020-02-16T08:51:58Z</time>
      </trkpt>
      <trkpt lat="48.79576" lon="2.13447">
        <ele>131</ele>
        <time>2020-02-16T08:51:59Z</time>
      </trkpt>
      <trkpt lat="48.79562" lon="2.1343">
        <ele>131</ele>
        <time>2020-02-16T08:52:08Z</time>
      </trkpt>
      <trkpt lat="48.79558" lon="2.13422">
        <ele>130</ele>
        <time>2020-02-16T08:52:15Z</time>
      </trkpt>
      <trkpt lat="48.79553" lon="2.13414">
        <ele>130</ele>
        <time>2020-02-16T08:52:21Z</time>
      </trkpt>
      <trkpt lat="48.79541" lon="2.13397">
        <ele>131</ele>
        <time>2020-02-16T08:52:37Z</time>
      </trkpt>
      <trkpt lat="48.79544" lon="2.13403">
        <ele>131</ele>
        <time>2020-02-16T08:53:01Z</time>
      </trkpt>
      <trkpt lat="48.79537" lon="2.13407">
        <ele>129</ele>
        <time>2020-02-16T08:53:19Z</time>
      </trkpt>
      <trkpt lat="48.79538" lon="2.13403">
        <ele>135</ele>
        <time>2020-02-16T08:57:44Z</time>
      </trkpt>
      <trkpt lat="48.79532" lon="2.13391">
        <ele>134</ele>
        <time>2020-02-16T08:57:50Z</time>
      </trkpt>
      <trkpt lat="48.79529" lon="2.13382">
        <ele>135</ele>
        <time>2020-02-16T08:57:55Z</time>
      </trkpt>
      <trkpt lat="48.79525" lon="2.13374">
        <ele>136</ele>
        <time>2020-02-16T08:58:02Z</time>
      </trkpt>
      <trkpt lat="48.79527" lon="2.13364">
        <ele>137</ele>
        <time>2020-02-16T08:58:06Z</time>
      </trkpt>
      <trkpt lat="48.79531" lon="2.13359">
        <ele>137</ele>
        <time>2020-02-16T08:58:10Z</time>
      </trkpt>
      <trkpt lat="48.79539" lon="2.1335">
        <ele>136</ele>
        <time>2020-02-16T08:58:17Z</time>
      </trkpt>
      <trkpt lat="48.79543" lon="2.13346">
        <ele>136</ele>
        <time>2020-02-16T08:58:22Z</time>
      </trkpt>
      <trkpt lat="48.79547" lon="2.13333">
        <ele>137</ele>
        <time>2020-02-16T08:58:32Z</time>
      </trkpt>
      <trkpt lat="48.79545" lon="2.13326">
        <ele>137</ele>
        <time>2020-02-16T08:58:36Z</time>
      </trkpt>
      <trkpt lat="48.79544" lon="2.13319">
        <ele>137</ele>
        <time>2020-02-16T08:58:40Z</time>
      </trkpt>
      <trkpt lat="48.79536" lon="2.13303">
        <ele>137</ele>
        <time>2020-02-16T08:58:54Z</time>
      </trkpt>
      <trkpt lat="48.79536" lon="2.13295">
        <ele>137</ele>
        <time>2020-02-16T08:58:59Z</time>
      </trkpt>
      <trkpt lat="48.79547" lon="2.13279">
        <ele>136</ele>
        <time>2020-02-16T08:59:11Z</time>
      </trkpt>
      <trkpt lat="48.79552" lon="2.13266">
        <ele>135</ele>
        <time>2020-02-16T08:59:20Z</time>
      </trkpt>
      <trkpt lat="48.79559" lon="2.13257">
        <ele>136</ele>
        <time>2020-02-16T08:59:26Z</time>
      </trkpt>
      <trkpt lat="48.7957" lon="2.13242">
        <ele>137</ele>
        <time>2020-02-16T08:59:44Z</time>
      </trkpt>
      <trkpt lat="48.79577" lon="2.1323">
        <ele>137</ele>
        <time>2020-02-16T08:59:50Z</time>
      </trkpt>
      <trkpt lat="48.79585" lon="2.13224">
        <ele>137</ele>
        <time>2020-02-16T08:59:56Z</time>
      </trkpt>
      <trkpt lat="48.79592" lon="2.13213">
        <ele>137</ele>
        <time>2020-02-16T09:00:03Z</time>
      </trkpt>
      <trkpt lat="48.79623" lon="2.13169">
        <ele>139</ele>
        <time>2020-02-16T09:00:34Z</time>
      </trkpt>
      <trkpt lat="48.79627" lon="2.13163">
        <ele>139</ele>
        <time>2020-02-16T09:00:38Z</time>
      </trkpt>
      <trkpt lat="48.79637" lon="2.13154">
        <ele>138</ele>
        <time>2020-02-16T09:00:46Z</time>
      </trkpt>
      <trkpt lat="48.79641" lon="2.1315">
        <ele>138</ele>
        <time>2020-02-16T09:00:49Z</time>
      </trkpt>
      <trkpt lat="48.79646" lon="2.13147">
        <ele>138</ele>
        <time>2020-02-16T09:00:52Z</time>
      </trkpt>
      <trkpt lat="48.79651" lon="2.13144">
        <ele>138</ele>
        <time>2020-02-16T09:00:56Z</time>
      </trkpt>
      <trkpt lat="48.79655" lon="2.1314">
        <ele>138</ele>
        <time>2020-02-16T09:01:00Z</time>
      </trkpt>
      <trkpt lat="48.79658" lon="2.13135">
        <ele>137</ele>
        <time>2020-02-16T09:01:05Z</time>
      </trkpt>
      <trkpt lat="48.79662" lon="2.1313">
        <ele>137</ele>
        <time>2020-02-16T09:01:13Z</time>
      </trkpt>
      <trkpt lat="48.79659" lon="2.13122">
        <ele>138</ele>
        <time>2020-02-16T09:01:26Z</time>
      </trkpt>
      <trkpt lat="48.79655" lon="2.13117">
        <ele>138</ele>
        <time>2020-02-16T09:01:30Z</time>
      </trkpt>
      <trkpt lat="48.79648" lon="2.1311">
        <ele>137</ele>
        <time>2020-02-16T09:01:38Z</time>
      </trkpt>
      <trkpt lat="48.79637" lon="2.13117">
        <ele>138</ele>
        <time>2020-02-16T09:01:47Z</time>
      </trkpt>
      <trkpt lat="48.79629" lon="2.13112">
        <ele>139</ele>
        <time>2020-02-16T09:02:00Z</time>
      </trkpt>
      <trkpt lat="48.79621" lon="2.13101">
        <ele>140</ele>
        <time>2020-02-16T09:02:08Z</time>
      </trkpt>
      <trkpt lat="48.79607" lon="2.13081">
        <ele>139</ele>
        <time>2020-02-16T09:02:21Z</time>
      </trkpt>
      <trkpt lat="48.79583" lon="2.13075">
        <ele>138</ele>
        <time>2020-02-16T09:02:43Z</time>
      </trkpt>
      <trkpt lat="48.79575" lon="2.13069">
        <ele>137</ele>
        <time>2020-02-16T09:02:50Z</time>
      </trkpt>
      <trkpt lat="48.79567" lon="2.13061">
        <ele>138</ele>
        <time>2020-02-16T09:03:00Z</time>
      </trkpt>
      <trkpt lat="48.7956" lon="2.13051">
        <ele>139</ele>
        <time>2020-02-16T09:03:07Z</time>
      </trkpt>
      <trkpt lat="48.79552" lon="2.13046">
        <ele>138</ele>
        <time>2020-02-16T09:03:14Z</time>
      </trkpt>
      <trkpt lat="48.79544" lon="2.13036">
        <ele>138</ele>
        <time>2020-02-16T09:03:21Z</time>
      </trkpt>
      <trkpt lat="48.79535" lon="2.13029">
        <ele>140</ele>
        <time>2020-02-16T09:03:28Z</time>
      </trkpt>
      <trkpt lat="48.79526" lon="2.13026">
        <ele>139</ele>
        <time>2020-02-16T09:03:35Z</time>
      </trkpt>
      <trkpt lat="48.79519" lon="2.13022">
        <ele>140</ele>
        <time>2020-02-16T09:03:41Z</time>
      </trkpt>
      <trkpt lat="48.79515" lon="2.1302">
        <ele>140</ele>
        <time>2020-02-16T09:03:44Z</time>
      </trkpt>
      <trkpt lat="48.7951" lon="2.13019">
        <ele>140</ele>
        <time>2020-02-16T09:03:48Z</time>
      </trkpt>
      <trkpt lat="48.79505" lon="2.13016">
        <ele>139</ele>
        <time>2020-02-16T09:03:52Z</time>
      </trkpt>
      <trkpt lat="48.795" lon="2.13013">
        <ele>139</ele>
        <time>2020-02-16T09:03:56Z</time>
      </trkpt>
      <trkpt lat="48.79495" lon="2.13011">
        <ele>140</ele>
        <time>2020-02-16T09:04:00Z</time>
      </trkpt>
      <trkpt lat="48.79481" lon="2.13004">
        <ele>139</ele>
        <time>2020-02-16T09:04:32Z</time>
      </trkpt>
      <trkpt lat="48.79476" lon="2.13">
        <ele>138</ele>
        <time>2020-02-16T09:04:36Z</time>
      </trkpt>
      <trkpt lat="48.79472" lon="2.12996">
        <ele>139</ele>
        <time>2020-02-16T09:04:40Z</time>
      </trkpt>
      <trkpt lat="48.79468" lon="2.12992">
        <ele>139</ele>
        <time>2020-02-16T09:04:44Z</time>
      </trkpt>
      <trkpt lat="48.79433" lon="2.1298">
        <ele>139</ele>
        <time>2020-02-16T09:05:12Z</time>
      </trkpt>
      <trkpt lat="48.79425" lon="2.12974">
        <ele>137</ele>
        <time>2020-02-16T09:05:20Z</time>
      </trkpt>
      <trkpt lat="48.79416" lon="2.12969">
        <ele>140</ele>
        <time>2020-02-16T09:05:28Z</time>
      </trkpt>
      <trkpt lat="48.79407" lon="2.12964">
        <ele>139</ele>
        <time>2020-02-16T09:05:35Z</time>
      </trkpt>
      <trkpt lat="48.79398" lon="2.12959">
        <ele>141</ele>
        <time>2020-02-16T09:05:43Z</time>
      </trkpt>
      <trkpt lat="48.7939" lon="2.12952">
        <ele>140</ele>
        <time>2020-02-16T09:05:50Z</time>
      </trkpt>
      <trkpt lat="48.79372" lon="2.12941">
        <ele>142</ele>
        <time>2020-02-16T09:06:06Z</time>
      </trkpt>
      <trkpt lat="48.79354" lon="2.12928">
        <ele>142</ele>
        <time>2020-02-16T09:06:21Z</time>
      </trkpt>
      <trkpt lat="48.79346" lon="2.12918">
        <ele>140</ele>
        <time>2020-02-16T09:06:30Z</time>
      </trkpt>
      <trkpt lat="48.79323" lon="2.12907">
        <ele>143</ele>
        <time>2020-02-16T09:06:49Z</time>
      </trkpt>
      <trkpt lat="48.79314" lon="2.129">
        <ele>142</ele>
        <time>2020-02-16T09:06:57Z</time>
      </trkpt>
      <trkpt lat="48.79306" lon="2.12894">
        <ele>144</ele>
        <time>2020-02-16T09:07:05Z</time>
      </trkpt>
      <trkpt lat="48.79292" lon="2.12887">
        <ele>144</ele>
        <time>2020-02-16T09:07:17Z</time>
      </trkpt>
      <trkpt lat="48.79287" lon="2.12884">
        <ele>145</ele>
        <time>2020-02-16T09:07:21Z</time>
      </trkpt>
      <trkpt lat="48.79278" lon="2.12875">
        <ele>147</ele>
        <time>2020-02-16T09:07:30Z</time>
      </trkpt>
      <trkpt lat="48.79273" lon="2.12874">
        <ele>148</ele>
        <time>2020-02-16T09:07:35Z</time>
      </trkpt>
      <trkpt lat="48.79268" lon="2.12873">
        <ele>148</ele>
        <time>2020-02-16T09:07:39Z</time>
      </trkpt>
      <trkpt lat="48.79263" lon="2.12871">
        <ele>148</ele>
        <time>2020-02-16T09:07:43Z</time>
      </trkpt>
      <trkpt lat="48.79259" lon="2.1287">
        <ele>148</ele>
        <time>2020-02-16T09:07:47Z</time>
      </trkpt>
      <trkpt lat="48.79244" lon="2.12865">
        <ele>152</ele>
        <time>2020-02-16T09:08:01Z</time>
      </trkpt>
      <trkpt lat="48.79241" lon="2.12872">
        <ele>151</ele>
        <time>2020-02-16T09:08:15Z</time>
      </trkpt>
      <trkpt lat="48.79239" lon="2.12887">
        <ele>150</ele>
        <time>2020-02-16T09:08:26Z</time>
      </trkpt>
      <trkpt lat="48.79238" lon="2.12894">
        <ele>151</ele>
        <time>2020-02-16T09:08:31Z</time>
      </trkpt>
      <trkpt lat="48.79231" lon="2.12904">
        <ele>153</ele>
        <time>2020-02-16T09:08:40Z</time>
      </trkpt>
      <trkpt lat="48.79228" lon="2.12915">
        <ele>154</ele>
        <time>2020-02-16T09:08:48Z</time>
      </trkpt>
      <trkpt lat="48.79222" lon="2.12926">
        <ele>155</ele>
        <time>2020-02-16T09:08:56Z</time>
      </trkpt>
      <trkpt lat="48.79217" lon="2.12949">
        <ele>156</ele>
        <time>2020-02-16T09:09:10Z</time>
      </trkpt>
      <trkpt lat="48.79212" lon="2.12962">
        <ele>157</ele>
        <time>2020-02-16T09:09:18Z</time>
      </trkpt>
      <trkpt lat="48.79209" lon="2.1297">
        <ele>158</ele>
        <time>2020-02-16T09:09:23Z</time>
      </trkpt>
      <trkpt lat="48.79202" lon="2.12985">
        <ele>159</ele>
        <time>2020-02-16T09:09:46Z</time>
      </trkpt>
      <trkpt lat="48.79188" lon="2.13006">
        <ele>166</ele>
        <time>2020-02-16T09:10:28Z</time>
      </trkpt>
      <trkpt lat="48.79177" lon="2.13013">
        <ele>170</ele>
        <time>2020-02-16T09:10:50Z</time>
      </trkpt>
      <trkpt lat="48.79169" lon="2.13026">
        <ele>175</ele>
        <time>2020-02-16T09:11:08Z</time>
      </trkpt>
      <trkpt lat="48.79166" lon="2.13021">
        <ele>176</ele>
        <time>2020-02-16T09:13:52Z</time>
      </trkpt>
      <trkpt lat="48.79168" lon="2.13014">
        <ele>176</ele>
        <time>2020-02-16T09:14:20Z</time>
      </trkpt>
      <trkpt lat="48.7917" lon="2.13023">
        <ele>176</ele>
        <time>2020-02-16T09:14:38Z</time>
      </trkpt>
      <trkpt lat="48.79166" lon="2.13034">
        <ele>177</ele>
        <time>2020-02-16T09:16:26Z</time>
      </trkpt>
      <trkpt lat="48.79163" lon="2.1304">
        <ele>176</ele>
        <time>2020-02-16T09:16:50Z</time>
      </trkpt>
      <trkpt lat="48.79169" lon="2.13046">
        <ele>177</ele>
        <time>2020-02-16T09:19:05Z</time>
      </trkpt>
      <trkpt lat="48.79185" lon="2.13059">
        <ele>175</ele>
        <time>2020-02-16T09:19:20Z</time>
      </trkpt>
      <trkpt lat="48.7919" lon="2.13064">
        <ele>175</ele>
        <time>2020-02-16T09:19:24Z</time>
      </trkpt>
      <trkpt lat="48.79199" lon="2.1307">
        <ele>177</ele>
        <time>2020-02-16T09:19:31Z</time>
      </trkpt>
      <trkpt lat="48.79208" lon="2.13079">
        <ele>176</ele>
        <time>2020-02-16T09:19:39Z</time>
      </trkpt>
      <trkpt lat="48.79212" lon="2.13084">
        <ele>176</ele>
        <time>2020-02-16T09:19:43Z</time>
      </trkpt>
      <trkpt lat="48.79221" lon="2.1309">
        <ele>176</ele>
        <time>2020-02-16T09:19:50Z</time>
      </trkpt>
      <trkpt lat="48.79236" lon="2.13109">
        <ele>175</ele>
        <time>2020-02-16T09:20:04Z</time>
      </trkpt>
      <trkpt lat="48.79241" lon="2.1312">
        <ele>174</ele>
        <time>2020-02-16T09:20:11Z</time>
      </trkpt>
      <trkpt lat="48.79255" lon="2.13142">
        <ele>175</ele>
        <time>2020-02-16T09:20:27Z</time>
      </trkpt>
      <trkpt lat="48.79258" lon="2.13157">
        <ele>175</ele>
        <time>2020-02-16T09:20:35Z</time>
      </trkpt>
      <trkpt lat="48.7926" lon="2.13171">
        <ele>175</ele>
        <time>2020-02-16T09:20:42Z</time>
      </trkpt>
      <trkpt lat="48.7926" lon="2.13184">
        <ele>176</ele>
        <time>2020-02-16T09:20:49Z</time>
      </trkpt>
      <trkpt lat="48.79257" lon="2.13197">
        <ele>176</ele>
        <time>2020-02-16T09:20:56Z</time>
      </trkpt>
      <trkpt lat="48.79255" lon="2.13205">
        <ele>177</ele>
        <time>2020-02-16T09:21:00Z</time>
      </trkpt>
      <trkpt lat="48.79251" lon="2.1322">
        <ele>178</ele>
        <time>2020-02-16T09:21:08Z</time>
      </trkpt>
      <trkpt lat="48.79247" lon="2.13236">
        <ele>177</ele>
        <time>2020-02-16T09:21:16Z</time>
      </trkpt>
      <trkpt lat="48.79244" lon="2.13243">
        <ele>177</ele>
        <time>2020-02-16T09:21:20Z</time>
      </trkpt>
      <trkpt lat="48.79243" lon="2.1325">
        <ele>177</ele>
        <time>2020-02-16T09:21:24Z</time>
      </trkpt>
      <trkpt lat="48.79242" lon="2.13258">
        <ele>177</ele>
        <time>2020-02-16T09:21:28Z</time>
      </trkpt>
      <trkpt lat="48.79241" lon="2.13266">
        <ele>178</ele>
        <time>2020-02-16T09:21:33Z</time>
      </trkpt>
      <trkpt lat="48.79246" lon="2.1328">
        <ele>177</ele>
        <time>2020-02-16T09:21:41Z</time>
      </trkpt>
      <trkpt lat="48.79248" lon="2.13288">
        <ele>177</ele>
        <time>2020-02-16T09:21:45Z</time>
      </trkpt>
      <trkpt lat="48.79249" lon="2.13296">
        <ele>177</ele>
        <time>2020-02-16T09:21:49Z</time>
      </trkpt>
      <trkpt lat="48.79249" lon="2.13303">
        <ele>177</ele>
        <time>2020-02-16T09:21:53Z</time>
      </trkpt>
      <trkpt lat="48.79252" lon="2.13326">
        <ele>177</ele>
        <time>2020-02-16T09:22:06Z</time>
      </trkpt>
      <trkpt lat="48.7925" lon="2.13345">
        <ele>177</ele>
        <time>2020-02-16T09:22:24Z</time>
      </trkpt>
      <trkpt lat="48.79231" lon="2.1334">
        <ele>178</ele>
        <time>2020-02-16T09:22:47Z</time>
      </trkpt>
      <trkpt lat="48.79222" lon="2.13343">
        <ele>178</ele>
        <time>2020-02-16T09:22:55Z</time>
      </trkpt>
      <trkpt lat="48.79212" lon="2.13342">
        <ele>177</ele>
        <time>2020-02-16T09:23:02Z</time>
      </trkpt>
      <trkpt lat="48.79184" lon="2.13342">
        <ele>179</ele>
        <time>2020-02-16T09:23:25Z</time>
      </trkpt>
      <trkpt lat="48.79175" lon="2.13343">
        <ele>178</ele>
        <time>2020-02-16T09:23:33Z</time>
      </trkpt>
      <trkpt lat="48.79137" lon="2.13344">
        <ele>178</ele>
        <time>2020-02-16T09:24:06Z</time>
      </trkpt>
      <trkpt lat="48.79127" lon="2.13345">
        <ele>177</ele>
        <time>2020-02-16T09:24:13Z</time>
      </trkpt>
      <trkpt lat="48.79118" lon="2.13347">
        <ele>177</ele>
        <time>2020-02-16T09:24:20Z</time>
      </trkpt>
      <trkpt lat="48.79105" lon="2.13347">
        <ele>178</ele>
        <time>2020-02-16T09:24:30Z</time>
      </trkpt>
      <trkpt lat="48.79099" lon="2.13347">
        <ele>179</ele>
        <time>2020-02-16T09:24:34Z</time>
      </trkpt>
      <trkpt lat="48.79094" lon="2.13346">
        <ele>180</ele>
        <time>2020-02-16T09:24:38Z</time>
      </trkpt>
      <trkpt lat="48.79088" lon="2.13346">
        <ele>179</ele>
        <time>2020-02-16T09:24:43Z</time>
      </trkpt>
      <trkpt lat="48.79084" lon="2.13346">
        <ele>179</ele>
        <time>2020-02-16T09:24:47Z</time>
      </trkpt>
      <trkpt lat="48.79078" lon="2.13349">
        <ele>179</ele>
        <time>2020-02-16T09:24:52Z</time>
      </trkpt>
      <trkpt lat="48.79073" lon="2.1335">
        <ele>179</ele>
        <time>2020-02-16T09:24:56Z</time>
      </trkpt>
      <trkpt lat="48.79067" lon="2.1335">
        <ele>178</ele>
        <time>2020-02-16T09:25:00Z</time>
      </trkpt>
      <trkpt lat="48.79056" lon="2.1335">
        <ele>178</ele>
        <time>2020-02-16T09:25:08Z</time>
      </trkpt>
      <trkpt lat="48.79046" lon="2.13348">
        <ele>178</ele>
        <time>2020-02-16T09:25:16Z</time>
      </trkpt>
      <trkpt lat="48.79041" lon="2.13348">
        <ele>178</ele>
        <time>2020-02-16T09:25:20Z</time>
      </trkpt>
      <trkpt lat="48.79035" lon="2.13347">
        <ele>178</ele>
        <time>2020-02-16T09:25:24Z</time>
      </trkpt>
      <trkpt lat="48.79025" lon="2.13343">
        <ele>179</ele>
        <time>2020-02-16T09:25:32Z</time>
      </trkpt>
      <trkpt lat="48.79016" lon="2.13339">
        <ele>179</ele>
        <time>2020-02-16T09:25:39Z</time>
      </trkpt>
      <trkpt lat="48.79005" lon="2.13337">
        <ele>179</ele>
        <time>2020-02-16T09:25:47Z</time>
      </trkpt>
      <trkpt lat="48.78997" lon="2.13335">
        <ele>179</ele>
        <time>2020-02-16T09:26:04Z</time>
      </trkpt>
      <trkpt lat="48.78996" lon="2.1333">
        <ele>179</ele>
        <time>2020-02-16T09:26:22Z</time>
      </trkpt>
      <trkpt lat="48.78995" lon="2.13322">
        <ele>179</ele>
        <time>2020-02-16T09:26:46Z</time>
      </trkpt>
      <trkpt lat="48.78991" lon="2.13327">
        <ele>179</ele>
        <time>2020-02-16T09:27:17Z</time>
      </trkpt>
      <trkpt lat="48.78986" lon="2.1333">
        <ele>178</ele>
        <time>2020-02-16T09:27:21Z</time>
      </trkpt>
      <trkpt lat="48.78976" lon="2.13331">
        <ele>178</ele>
        <time>2020-02-16T09:27:29Z</time>
      </trkpt>
      <trkpt lat="48.78962" lon="2.13338">
        <ele>177</ele>
        <time>2020-02-16T09:27:40Z</time>
      </trkpt>
      <trkpt lat="48.78937" lon="2.13339">
        <ele>171</ele>
        <time>2020-02-16T09:28:00Z</time>
      </trkpt>
      <trkpt lat="48.78898" lon="2.1336">
        <ele>165</ele>
        <time>2020-02-16T09:28:30Z</time>
      </trkpt>
      <trkpt lat="48.7889" lon="2.1337">
        <ele>164</ele>
        <time>2020-02-16T09:28:38Z</time>
      </trkpt>
      <trkpt lat="48.78885" lon="2.13381">
        <ele>164</ele>
        <time>2020-02-16T09:28:45Z</time>
      </trkpt>
      <trkpt lat="48.78883" lon="2.13394">
        <ele>163</ele>
        <time>2020-02-16T09:28:53Z</time>
      </trkpt>
      <trkpt lat="48.78864" lon="2.13383">
        <ele>162</ele>
        <time>2020-02-16T09:29:22Z</time>
      </trkpt>
      <trkpt lat="48.78852" lon="2.13369">
        <ele>162</ele>
        <time>2020-02-16T09:29:28Z</time>
      </trkpt>
      <trkpt lat="48.78847" lon="2.13365">
        <ele>159</ele>
        <time>2020-02-16T09:29:38Z</time>
      </trkpt>
      <trkpt lat="48.78847" lon="2.1335">
        <ele>160</ele>
        <time>2020-02-16T09:29:57Z</time>
      </trkpt>
      <trkpt lat="48.78844" lon="2.13343">
        <ele>159</ele>
        <time>2020-02-16T09:30:01Z</time>
      </trkpt>
      <trkpt lat="48.78836" lon="2.13332">
        <ele>160</ele>
        <time>2020-02-16T09:30:08Z</time>
      </trkpt>
      <trkpt lat="48.78834" lon="2.13326">
        <ele>159</ele>
        <time>2020-02-16T09:30:11Z</time>
      </trkpt>
      <trkpt lat="48.78831" lon="2.13311">
        <ele>161</ele>
        <time>2020-02-16T09:30:18Z</time>
      </trkpt>
      <trkpt lat="48.78829" lon="2.13305">
        <ele>160</ele>
        <time>2020-02-16T09:30:22Z</time>
      </trkpt>
      <trkpt lat="48.78825" lon="2.13298">
        <ele>160</ele>
        <time>2020-02-16T09:30:26Z</time>
      </trkpt>
      <trkpt lat="48.78815" lon="2.1328">
        <ele>161</ele>
        <time>2020-02-16T09:30:39Z</time>
      </trkpt>
      <trkpt lat="48.78811" lon="2.13274">
        <ele>161</ele>
        <time>2020-02-16T09:30:44Z</time>
      </trkpt>
      <trkpt lat="48.78807" lon="2.1327">
        <ele>161</ele>
        <time>2020-02-16T09:30:48Z</time>
      </trkpt>
      <trkpt lat="48.78802" lon="2.13267">
        <ele>161</ele>
        <time>2020-02-16T09:30:52Z</time>
      </trkpt>
      <trkpt lat="48.78798" lon="2.13265">
        <ele>160</ele>
        <time>2020-02-16T09:30:55Z</time>
      </trkpt>
      <trkpt lat="48.78793" lon="2.13263">
        <ele>159</ele>
        <time>2020-02-16T09:31:00Z</time>
      </trkpt>
      <trkpt lat="48.78788" lon="2.13261">
        <ele>160</ele>
        <time>2020-02-16T09:31:04Z</time>
      </trkpt>
      <trkpt lat="48.7878" lon="2.13253">
        <ele>160</ele>
        <time>2020-02-16T09:31:12Z</time>
      </trkpt>
      <trkpt lat="48.78777" lon="2.13247">
        <ele>159</ele>
        <time>2020-02-16T09:31:16Z</time>
      </trkpt>
      <trkpt lat="48.78773" lon="2.13229">
        <ele>160</ele>
        <time>2020-02-16T09:31:26Z</time>
      </trkpt>
      <trkpt lat="48.78767" lon="2.13187">
        <ele>160</ele>
        <time>2020-02-16T09:31:49Z</time>
      </trkpt>
      <trkpt lat="48.78765" lon="2.13174">
        <ele>161</ele>
        <time>2020-02-16T09:31:56Z</time>
      </trkpt>
      <trkpt lat="48.78765" lon="2.13158">
        <ele>161</ele>
        <time>2020-02-16T09:32:05Z</time>
      </trkpt>
      <trkpt lat="48.78763" lon="2.13129">
        <ele>163</ele>
        <time>2020-02-16T09:32:21Z</time>
      </trkpt>
      <trkpt lat="48.78762" lon="2.13115">
        <ele>163</ele>
        <time>2020-02-16T09:32:28Z</time>
      </trkpt>
      <trkpt lat="48.7876" lon="2.13086">
        <ele>161</ele>
        <time>2020-02-16T09:32:41Z</time>
      </trkpt>
      <trkpt lat="48.78759" lon="2.13071">
        <ele>161</ele>
        <time>2020-02-16T09:32:49Z</time>
      </trkpt>
      <trkpt lat="48.78756" lon="2.13058">
        <ele>161</ele>
        <time>2020-02-16T09:32:56Z</time>
      </trkpt>
      <trkpt lat="48.78756" lon="2.13014">
        <ele>160</ele>
        <time>2020-02-16T09:33:17Z</time>
      </trkpt>
      <trkpt lat="48.78747" lon="2.12943">
        <ele>157</ele>
        <time>2020-02-16T09:34:02Z</time>
      </trkpt>
      <trkpt lat="48.78743" lon="2.12938">
        <ele>157</ele>
        <time>2020-02-16T09:34:08Z</time>
      </trkpt>
      <trkpt lat="48.78738" lon="2.12936">
        <ele>157</ele>
        <time>2020-02-16T09:34:13Z</time>
      </trkpt>
      <trkpt lat="48.78733" lon="2.12937">
        <ele>157</ele>
        <time>2020-02-16T09:34:17Z</time>
      </trkpt>
      <trkpt lat="48.78723" lon="2.12928">
        <ele>157</ele>
        <time>2020-02-16T09:34:24Z</time>
      </trkpt>
      <trkpt lat="48.78713" lon="2.12928">
        <ele>156</ele>
        <time>2020-02-16T09:34:28Z</time>
      </trkpt>
      <trkpt lat="48.78704" lon="2.12921">
        <ele>156</ele>
        <time>2020-02-16T09:34:36Z</time>
      </trkpt>
      <trkpt lat="48.78699" lon="2.12922">
        <ele>155</ele>
        <time>2020-02-16T09:34:40Z</time>
      </trkpt>
      <trkpt lat="48.78694" lon="2.12921">
        <ele>155</ele>
        <time>2020-02-16T09:34:44Z</time>
      </trkpt>
      <trkpt lat="48.7869" lon="2.12918">
        <ele>156</ele>
        <time>2020-02-16T09:34:49Z</time>
      </trkpt>
      <trkpt lat="48.7868" lon="2.12913">
        <ele>158</ele>
        <time>2020-02-16T09:34:58Z</time>
      </trkpt>
      <trkpt lat="48.78658" lon="2.12901">
        <ele>160</ele>
        <time>2020-02-16T09:35:19Z</time>
      </trkpt>
      <trkpt lat="48.78653" lon="2.12898">
        <ele>162</ele>
        <time>2020-02-16T09:35:24Z</time>
      </trkpt>
      <trkpt lat="48.78643" lon="2.12895">
        <ele>163</ele>
        <time>2020-02-16T09:35:34Z</time>
      </trkpt>
      <trkpt lat="48.78638" lon="2.12894">
        <ele>163</ele>
        <time>2020-02-16T09:35:38Z</time>
      </trkpt>
      <trkpt lat="48.78606" lon="2.12872">
        <ele>168</ele>
        <time>2020-02-16T09:36:08Z</time>
      </trkpt>
      <trkpt lat="48.78579" lon="2.12864">
        <ele>173</ele>
        <time>2020-02-16T09:36:32Z</time>
      </trkpt>
      <trkpt lat="48.7857" lon="2.12857">
        <ele>174</ele>
        <time>2020-02-16T09:36:41Z</time>
      </trkpt>
      <trkpt lat="48.78551" lon="2.12848">
        <ele>175</ele>
        <time>2020-02-16T09:36:59Z</time>
      </trkpt>
      <trkpt lat="48.78546" lon="2.12846">
        <ele>176</ele>
        <time>2020-02-16T09:37:03Z</time>
      </trkpt>
      <trkpt lat="48.78541" lon="2.12844">
        <ele>177</ele>
        <time>2020-02-16T09:37:07Z</time>
      </trkpt>
      <trkpt lat="48.78536" lon="2.1284">
        <ele>177</ele>
        <time>2020-02-16T09:37:12Z</time>
      </trkpt>
      <trkpt lat="48.7853" lon="2.12838">
        <ele>177</ele>
        <time>2020-02-16T09:37:17Z</time>
      </trkpt>
      <trkpt lat="48.78526" lon="2.12837">
        <ele>178</ele>
        <time>2020-02-16T09:37:21Z</time>
      </trkpt>
      <trkpt lat="48.78521" lon="2.12836">
        <ele>178</ele>
        <time>2020-02-16T09:37:25Z</time>
      </trkpt>
      <trkpt lat="48.78516" lon="2.12834">
        <ele>177</ele>
        <time>2020-02-16T09:37:29Z</time>
      </trkpt>
      <trkpt lat="48.78502" lon="2.12828">
        <ele>177</ele>
        <time>2020-02-16T09:37:40Z</time>
      </trkpt>
      <trkpt lat="48.78498" lon="2.12825">
        <ele>177</ele>
        <time>2020-02-16T09:37:44Z</time>
      </trkpt>
      <trkpt lat="48.78493" lon="2.12822">
        <ele>178</ele>
        <time>2020-02-16T09:37:48Z</time>
      </trkpt>
      <trkpt lat="48.78496" lon="2.12808">
        <ele>177</ele>
        <time>2020-02-16T09:38:55Z</time>
      </trkpt>
      <trkpt lat="48.78491" lon="2.12805">
        <ele>178</ele>
        <time>2020-02-16T09:39:06Z</time>
      </trkpt>
      <trkpt lat="48.78474" lon="2.12805">
        <ele>178</ele>
        <time>2020-02-16T09:39:18Z</time>
      </trkpt>
      <trkpt lat="48.78463" lon="2.12803">
        <ele>178</ele>
        <time>2020-02-16T09:39:26Z</time>
      </trkpt>
      <trkpt lat="48.78458" lon="2.128">
        <ele>178</ele>
        <time>2020-02-16T09:39:30Z</time>
      </trkpt>
      <trkpt lat="48.78454" lon="2.12794">
        <ele>178</ele>
        <time>2020-02-16T09:39:34Z</time>
      </trkpt>
      <trkpt lat="48.78449" lon="2.1279">
        <ele>178</ele>
        <time>2020-02-16T09:39:37Z</time>
      </trkpt>
      <trkpt lat="48.78445" lon="2.12789">
        <ele>179</ele>
        <time>2020-02-16T09:39:40Z</time>
      </trkpt>
      <trkpt lat="48.78439" lon="2.12789">
        <ele>179</ele>
        <time>2020-02-16T09:39:44Z</time>
      </trkpt>
      <trkpt lat="48.78434" lon="2.12788">
        <ele>178</ele>
        <time>2020-02-16T09:39:48Z</time>
      </trkpt>
      <trkpt lat="48.78429" lon="2.12787">
        <ele>178</ele>
        <time>2020-02-16T09:39:52Z</time>
      </trkpt>
      <trkpt lat="48.78419" lon="2.12783">
        <ele>178</ele>
        <time>2020-02-16T09:40:00Z</time>
      </trkpt>
      <trkpt lat="48.78409" lon="2.12779">
        <ele>178</ele>
        <time>2020-02-16T09:40:08Z</time>
      </trkpt>
      <trkpt lat="48.784" lon="2.12778">
        <ele>178</ele>
        <time>2020-02-16T09:40:15Z</time>
      </trkpt>
      <trkpt lat="48.78391" lon="2.12773">
        <ele>178</ele>
        <time>2020-02-16T09:40:21Z</time>
      </trkpt>
      <trkpt lat="48.78381" lon="2.12772">
        <ele>178</ele>
        <time>2020-02-16T09:40:27Z</time>
      </trkpt>
      <trkpt lat="48.78356" lon="2.12753">
        <ele>178</ele>
        <time>2020-02-16T09:40:47Z</time>
      </trkpt>
      <trkpt lat="48.7834" lon="2.12718">
        <ele>178</ele>
        <time>2020-02-16T09:41:06Z</time>
      </trkpt>
      <trkpt lat="48.78329" lon="2.12692">
        <ele>177</ele>
        <time>2020-02-16T09:41:21Z</time>
      </trkpt>
      <trkpt lat="48.78322" lon="2.12682">
        <ele>176</ele>
        <time>2020-02-16T09:41:28Z</time>
      </trkpt>
      <trkpt lat="48.78316" lon="2.12671">
        <ele>177</ele>
        <time>2020-02-16T09:41:34Z</time>
      </trkpt>
      <trkpt lat="48.78306" lon="2.12646">
        <ele>176</ele>
        <time>2020-02-16T09:41:49Z</time>
      </trkpt>
      <trkpt lat="48.783" lon="2.12634">
        <ele>177</ele>
        <time>2020-02-16T09:41:56Z</time>
      </trkpt>
      <trkpt lat="48.78294" lon="2.12622">
        <ele>176</ele>
        <time>2020-02-16T09:42:04Z</time>
      </trkpt>
      <trkpt lat="48.78288" lon="2.12612">
        <ele>175</ele>
        <time>2020-02-16T09:42:11Z</time>
      </trkpt>
      <trkpt lat="48.78277" lon="2.12591">
        <ele>177</ele>
        <time>2020-02-16T09:42:46Z</time>
      </trkpt>
      <trkpt lat="48.78263" lon="2.12572">
        <ele>174</ele>
        <time>2020-02-16T09:42:57Z</time>
      </trkpt>
      <trkpt lat="48.78258" lon="2.1256">
        <ele>174</ele>
        <time>2020-02-16T09:43:04Z</time>
      </trkpt>
      <trkpt lat="48.78252" lon="2.12548">
        <ele>175</ele>
        <time>2020-02-16T09:43:10Z</time>
      </trkpt>
      <trkpt lat="48.78245" lon="2.12537">
        <ele>174</ele>
        <time>2020-02-16T09:43:17Z</time>
      </trkpt>
      <trkpt lat="48.78238" lon="2.12525">
        <ele>174</ele>
        <time>2020-02-16T09:43:25Z</time>
      </trkpt>
      <trkpt lat="48.78235" lon="2.12512">
        <ele>174</ele>
        <time>2020-02-16T09:43:33Z</time>
      </trkpt>
      <trkpt lat="48.78225" lon="2.12505">
        <ele>174</ele>
        <time>2020-02-16T09:43:40Z</time>
      </trkpt>
      <trkpt lat="48.78219" lon="2.12491">
        <ele>173</ele>
        <time>2020-02-16T09:43:52Z</time>
      </trkpt>
      <trkpt lat="48.7821" lon="2.12491">
        <ele>172</ele>
        <time>2020-02-16T09:44:12Z</time>
      </trkpt>
      <trkpt lat="48.78207" lon="2.12496">
        <ele>172</ele>
        <time>2020-02-16T09:44:15Z</time>
      </trkpt>
      <trkpt lat="48.78205" lon="2.12504">
        <ele>172</ele>
        <time>2020-02-16T09:44:19Z</time>
      </trkpt>
      <trkpt lat="48.78202" lon="2.12527">
        <ele>172</ele>
        <time>2020-02-16T09:44:29Z</time>
      </trkpt>
      <trkpt lat="48.78198" lon="2.12533">
        <ele>172</ele>
        <time>2020-02-16T09:44:33Z</time>
      </trkpt>
      <trkpt lat="48.78195" lon="2.1254">
        <ele>173</ele>
        <time>2020-02-16T09:44:37Z</time>
      </trkpt>
      <trkpt lat="48.78193" lon="2.12546">
        <ele>173</ele>
        <time>2020-02-16T09:44:41Z</time>
      </trkpt>
      <trkpt lat="48.78191" lon="2.12557">
        <ele>172</ele>
        <time>2020-02-16T09:44:49Z</time>
      </trkpt>
      <trkpt lat="48.78183" lon="2.12574">
        <ele>171</ele>
        <time>2020-02-16T09:45:02Z</time>
      </trkpt>
      <trkpt lat="48.78179" lon="2.12579">
        <ele>172</ele>
        <time>2020-02-16T09:45:06Z</time>
      </trkpt>
      <trkpt lat="48.78179" lon="2.12622">
        <ele>172</ele>
        <time>2020-02-16T09:45:31Z</time>
      </trkpt>
      <trkpt lat="48.78181" lon="2.12635">
        <ele>172</ele>
        <time>2020-02-16T09:45:39Z</time>
      </trkpt>
      <trkpt lat="48.7818" lon="2.1265">
        <ele>170</ele>
        <time>2020-02-16T09:45:47Z</time>
      </trkpt>
      <trkpt lat="48.7818" lon="2.12664">
        <ele>174</ele>
        <time>2020-02-16T09:45:55Z</time>
      </trkpt>
      <trkpt lat="48.78167" lon="2.12668">
        <ele>172</ele>
        <time>2020-02-16T09:46:12Z</time>
      </trkpt>
      <trkpt lat="48.78151" lon="2.12653">
        <ele>171</ele>
        <time>2020-02-16T09:46:26Z</time>
      </trkpt>
      <trkpt lat="48.78142" lon="2.12645">
        <ele>172</ele>
        <time>2020-02-16T09:46:34Z</time>
      </trkpt>
      <trkpt lat="48.78134" lon="2.12637">
        <ele>172</ele>
        <time>2020-02-16T09:46:39Z</time>
      </trkpt>
      <trkpt lat="48.78118" lon="2.12622">
        <ele>171</ele>
        <time>2020-02-16T09:46:52Z</time>
      </trkpt>
      <trkpt lat="48.78112" lon="2.12612">
        <ele>170</ele>
        <time>2020-02-16T09:46:59Z</time>
      </trkpt>
      <trkpt lat="48.78106" lon="2.12599">
        <ele>170</ele>
        <time>2020-02-16T09:47:07Z</time>
      </trkpt>
      <trkpt lat="48.7809" lon="2.12581">
        <ele>168</ele>
        <time>2020-02-16T09:47:21Z</time>
      </trkpt>
      <trkpt lat="48.78082" lon="2.12572">
        <ele>168</ele>
        <time>2020-02-16T09:47:27Z</time>
      </trkpt>
      <trkpt lat="48.7806" lon="2.12545">
        <ele>167</ele>
        <time>2020-02-16T09:47:48Z</time>
      </trkpt>
      <trkpt lat="48.78052" lon="2.12534">
        <ele>167</ele>
        <time>2020-02-16T09:47:55Z</time>
      </trkpt>
      <trkpt lat="48.78018" lon="2.12484">
        <ele>164</ele>
        <time>2020-02-16T09:48:33Z</time>
      </trkpt>
      <trkpt lat="48.78011" lon="2.12469">
        <ele>163</ele>
        <time>2020-02-16T09:48:44Z</time>
      </trkpt>
      <trkpt lat="48.78004" lon="2.12462">
        <ele>162</ele>
        <time>2020-02-16T09:48:50Z</time>
      </trkpt>
      <trkpt lat="48.78001" lon="2.12451">
        <ele>162</ele>
        <time>2020-02-16T09:51:37Z</time>
      </trkpt>
      <trkpt lat="48.77996" lon="2.12445">
        <ele>162</ele>
        <time>2020-02-16T09:51:44Z</time>
      </trkpt>
      <trkpt lat="48.77994" lon="2.12439">
        <ele>162</ele>
        <time>2020-02-16T09:51:48Z</time>
      </trkpt>
      <trkpt lat="48.77994" lon="2.12423">
        <ele>162</ele>
        <time>2020-02-16T09:51:57Z</time>
      </trkpt>
      <trkpt lat="48.77997" lon="2.12409">
        <ele>161</ele>
        <time>2020-02-16T09:52:05Z</time>
      </trkpt>
      <trkpt lat="48.77997" lon="2.12395">
        <ele>159</ele>
        <time>2020-02-16T09:52:12Z</time>
      </trkpt>
      <trkpt lat="48.77999" lon="2.12368">
        <ele>157</ele>
        <time>2020-02-16T09:52:28Z</time>
      </trkpt>
      <trkpt lat="48.78001" lon="2.12354">
        <ele>157</ele>
        <time>2020-02-16T09:52:36Z</time>
      </trkpt>
      <trkpt lat="48.78001" lon="2.12326">
        <ele>159</ele>
        <time>2020-02-16T09:52:54Z</time>
      </trkpt>
      <trkpt lat="48.78002" lon="2.12313">
        <ele>158</ele>
        <time>2020-02-16T09:53:02Z</time>
      </trkpt>
      <trkpt lat="48.78" lon="2.12296">
        <ele>160</ele>
        <time>2020-02-16T09:53:17Z</time>
      </trkpt>
      <trkpt lat="48.77994" lon="2.12283">
        <ele>159</ele>
        <time>2020-02-16T09:53:30Z</time>
      </trkpt>
      <trkpt lat="48.77987" lon="2.12266">
        <ele>159</ele>
        <time>2020-02-16T09:53:45Z</time>
      </trkpt>
      <trkpt lat="48.77985" lon="2.1225">
        <ele>159</ele>
        <time>2020-02-16T09:53:56Z</time>
      </trkpt>
      <trkpt lat="48.77983" lon="2.12237">
        <ele>160</ele>
        <time>2020-02-16T09:54:05Z</time>
      </trkpt>
      <trkpt lat="48.77978" lon="2.12215">
        <ele>159</ele>
        <time>2020-02-16T09:54:24Z</time>
      </trkpt>
      <trkpt lat="48.7797" lon="2.12207">
        <ele>159</ele>
        <time>2020-02-16T09:54:33Z</time>
      </trkpt>
      <trkpt lat="48.77952" lon="2.12202">
        <ele>160</ele>
        <time>2020-02-16T09:54:50Z</time>
      </trkpt>
      <trkpt lat="48.77943" lon="2.12201">
        <ele>159</ele>
        <time>2020-02-16T09:54:57Z</time>
      </trkpt>
      <trkpt lat="48.77902" lon="2.12182">
        <ele>156</ele>
        <time>2020-02-16T09:55:33Z</time>
      </trkpt>
      <trkpt lat="48.77896" lon="2.1217">
        <ele>157</ele>
        <time>2020-02-16T09:55:41Z</time>
      </trkpt>
      <trkpt lat="48.77881" lon="2.12134">
        <ele>151</ele>
        <time>2020-02-16T09:56:05Z</time>
      </trkpt>
      <trkpt lat="48.77877" lon="2.12121">
        <ele>150</ele>
        <time>2020-02-16T09:56:13Z</time>
      </trkpt>
      <trkpt lat="48.77871" lon="2.12086">
        <ele>145</ele>
        <time>2020-02-16T09:56:35Z</time>
      </trkpt>
      <trkpt lat="48.77865" lon="2.12076">
        <ele>143</ele>
        <time>2020-02-16T09:56:44Z</time>
      </trkpt>
      <trkpt lat="48.7786" lon="2.12064">
        <ele>143</ele>
        <time>2020-02-16T09:56:53Z</time>
      </trkpt>
      <trkpt lat="48.77854" lon="2.12049">
        <ele>139</ele>
        <time>2020-02-16T09:57:03Z</time>
      </trkpt>
      <trkpt lat="48.77848" lon="2.12038">
        <ele>139</ele>
        <time>2020-02-16T09:57:10Z</time>
      </trkpt>
      <trkpt lat="48.77842" lon="2.12027">
        <ele>136</ele>
        <time>2020-02-16T09:57:19Z</time>
      </trkpt>
      <trkpt lat="48.77829" lon="2.11969">
        <ele>127</ele>
        <time>2020-02-16T09:57:54Z</time>
      </trkpt>
      <trkpt lat="48.77826" lon="2.11956">
        <ele>126</ele>
        <time>2020-02-16T09:58:03Z</time>
      </trkpt>
      <trkpt lat="48.77816" lon="2.11942">
        <ele>122</ele>
        <time>2020-02-16T09:59:24Z</time>
      </trkpt>
      <trkpt lat="48.77805" lon="2.1193">
        <ele>119</ele>
        <time>2020-02-16T09:59:39Z</time>
      </trkpt>
      <trkpt lat="48.77767" lon="2.1192">
        <ele>112</ele>
        <time>2020-02-16T10:00:09Z</time>
      </trkpt>
      <trkpt lat="48.77761" lon="2.1191">
        <ele>111</ele>
        <time>2020-02-16T10:00:17Z</time>
      </trkpt>
      <trkpt lat="48.77762" lon="2.11835">
        <ele>112</ele>
        <time>2020-02-16T10:00:53Z</time>
      </trkpt>
      <trkpt lat="48.77761" lon="2.11822">
        <ele>111</ele>
        <time>2020-02-16T10:01:00Z</time>
      </trkpt>
      <trkpt lat="48.77756" lon="2.11793">
        <ele>108</ele>
        <time>2020-02-16T10:01:16Z</time>
      </trkpt>
      <trkpt lat="48.77753" lon="2.11779">
        <ele>109</ele>
        <time>2020-02-16T10:01:25Z</time>
      </trkpt>
      <trkpt lat="48.77745" lon="2.11765">
        <ele>108</ele>
        <time>2020-02-16T10:01:39Z</time>
      </trkpt>
      <trkpt lat="48.7774" lon="2.11759">
        <ele>111</ele>
        <time>2020-02-16T10:02:51Z</time>
      </trkpt>
      <trkpt lat="48.77742" lon="2.11749">
        <ele>110</ele>
        <time>2020-02-16T10:03:02Z</time>
      </trkpt>
      <trkpt lat="48.77741" lon="2.11741">
        <ele>110</ele>
        <time>2020-02-16T10:03:07Z</time>
      </trkpt>
      <trkpt lat="48.77741" lon="2.11741">
        <ele>111</ele>
        <time>2020-02-16T10:05:07Z</time>
      </trkpt>
      <trkpt lat="48.77739" lon="2.11733">
        <ele>110</ele>
        <time>2020-02-16T10:05:31Z</time>
      </trkpt>
      <trkpt lat="48.77744" lon="2.11732">
        <ele>112</ele>
        <time>2020-02-16T10:07:13Z</time>
      </trkpt>
      <trkpt lat="48.77739" lon="2.11717">
        <ele>113</ele>
        <time>2020-02-16T10:11:01Z</time>
      </trkpt>
      <trkpt lat="48.77738" lon="2.11704">
        <ele>113</ele>
        <time>2020-02-16T10:11:07Z</time>
      </trkpt>
      <trkpt lat="48.77739" lon="2.1169">
        <ele>112</ele>
        <time>2020-02-16T10:11:13Z</time>
      </trkpt>
      <trkpt lat="48.77737" lon="2.11675">
        <ele>112</ele>
        <time>2020-02-16T10:11:21Z</time>
      </trkpt>
      <trkpt lat="48.77734" lon="2.1166">
        <ele>113</ele>
        <time>2020-02-16T10:11:29Z</time>
      </trkpt>
      <trkpt lat="48.7773" lon="2.11633">
        <ele>113</ele>
        <time>2020-02-16T10:11:43Z</time>
      </trkpt>
      <trkpt lat="48.77723" lon="2.11623">
        <ele>113</ele>
        <time>2020-02-16T10:11:52Z</time>
      </trkpt>
      <trkpt lat="48.77719" lon="2.1161">
        <ele>114</ele>
        <time>2020-02-16T10:12:00Z</time>
      </trkpt>
      <trkpt lat="48.77712" lon="2.11601">
        <ele>114</ele>
        <time>2020-02-16T10:12:08Z</time>
      </trkpt>
      <trkpt lat="48.77708" lon="2.11588">
        <ele>114</ele>
        <time>2020-02-16T10:12:14Z</time>
      </trkpt>
      <trkpt lat="48.77697" lon="2.11564">
        <ele>113</ele>
        <time>2020-02-16T10:12:28Z</time>
      </trkpt>
      <trkpt lat="48.77696" lon="2.11547">
        <ele>113</ele>
        <time>2020-02-16T10:12:35Z</time>
      </trkpt>
      <trkpt lat="48.77694" lon="2.11533">
        <ele>113</ele>
        <time>2020-02-16T10:12:41Z</time>
      </trkpt>
      <trkpt lat="48.77692" lon="2.1152">
        <ele>112</ele>
        <time>2020-02-16T10:12:48Z</time>
      </trkpt>
      <trkpt lat="48.77689" lon="2.11506">
        <ele>112</ele>
        <time>2020-02-16T10:12:56Z</time>
      </trkpt>
      <trkpt lat="48.77687" lon="2.11491">
        <ele>113</ele>
        <time>2020-02-16T10:13:04Z</time>
      </trkpt>
      <trkpt lat="48.77686" lon="2.11475">
        <ele>112</ele>
        <time>2020-02-16T10:13:11Z</time>
      </trkpt>
      <trkpt lat="48.77688" lon="2.1146">
        <ele>113</ele>
        <time>2020-02-16T10:13:19Z</time>
      </trkpt>
      <trkpt lat="48.7769" lon="2.11445">
        <ele>112</ele>
        <time>2020-02-16T10:13:27Z</time>
      </trkpt>
      <trkpt lat="48.77694" lon="2.11431">
        <ele>113</ele>
        <time>2020-02-16T10:13:35Z</time>
      </trkpt>
      <trkpt lat="48.77706" lon="2.11406">
        <ele>113</ele>
        <time>2020-02-16T10:13:50Z</time>
      </trkpt>
      <trkpt lat="48.77706" lon="2.11393">
        <ele>114</ele>
        <time>2020-02-16T10:13:57Z</time>
      </trkpt>
      <trkpt lat="48.77702" lon="2.11367">
        <ele>113</ele>
        <time>2020-02-16T10:14:12Z</time>
      </trkpt>
      <trkpt lat="48.777" lon="2.11353">
        <ele>113</ele>
        <time>2020-02-16T10:14:20Z</time>
      </trkpt>
      <trkpt lat="48.77702" lon="2.11338">
        <ele>113</ele>
        <time>2020-02-16T10:14:28Z</time>
      </trkpt>
      <trkpt lat="48.77704" lon="2.11324">
        <ele>113</ele>
        <time>2020-02-16T10:14:35Z</time>
      </trkpt>
      <trkpt lat="48.7771" lon="2.11295">
        <ele>114</ele>
        <time>2020-02-16T10:14:49Z</time>
      </trkpt>
      <trkpt lat="48.77712" lon="2.11282">
        <ele>114</ele>
        <time>2020-02-16T10:14:59Z</time>
      </trkpt>
      <trkpt lat="48.77714" lon="2.11267">
        <ele>112</ele>
        <time>2020-02-16T10:15:08Z</time>
      </trkpt>
      <trkpt lat="48.77711" lon="2.11253">
        <ele>113</ele>
        <time>2020-02-16T10:15:16Z</time>
      </trkpt>
      <trkpt lat="48.77709" lon="2.11239">
        <ele>113</ele>
        <time>2020-02-16T10:15:23Z</time>
      </trkpt>
      <trkpt lat="48.77707" lon="2.11224">
        <ele>112</ele>
        <time>2020-02-16T10:15:30Z</time>
      </trkpt>
      <trkpt lat="48.77707" lon="2.1121">
        <ele>111</ele>
        <time>2020-02-16T10:15:37Z</time>
      </trkpt>
      <trkpt lat="48.77705" lon="2.11195">
        <ele>114</ele>
        <time>2020-02-16T10:15:45Z</time>
      </trkpt>
      <trkpt lat="48.77703" lon="2.11181">
        <ele>115</ele>
        <time>2020-02-16T10:15:54Z</time>
      </trkpt>
      <trkpt lat="48.77698" lon="2.11153">
        <ele>114</ele>
        <time>2020-02-16T10:16:09Z</time>
      </trkpt>
      <trkpt lat="48.77693" lon="2.11126">
        <ele>112</ele>
        <time>2020-02-16T10:16:22Z</time>
      </trkpt>
      <trkpt lat="48.77686" lon="2.11098">
        <ele>115</ele>
        <time>2020-02-16T10:16:36Z</time>
      </trkpt>
      <trkpt lat="48.77682" lon="2.11085">
        <ele>114</ele>
        <time>2020-02-16T10:16:44Z</time>
      </trkpt>
      <trkpt lat="48.77677" lon="2.11073">
        <ele>114</ele>
        <time>2020-02-16T10:16:52Z</time>
      </trkpt>
      <trkpt lat="48.77666" lon="2.11045">
        <ele>115</ele>
        <time>2020-02-16T10:17:11Z</time>
      </trkpt>
      <trkpt lat="48.77659" lon="2.11018">
        <ele>115</ele>
        <time>2020-02-16T10:17:25Z</time>
      </trkpt>
      <trkpt lat="48.77644" lon="2.10981">
        <ele>116</ele>
        <time>2020-02-16T10:17:50Z</time>
      </trkpt>
      <trkpt lat="48.77633" lon="2.10957">
        <ele>116</ele>
        <time>2020-02-16T10:18:05Z</time>
      </trkpt>
      <trkpt lat="48.77627" lon="2.10943">
        <ele>116</ele>
        <time>2020-02-16T10:18:14Z</time>
      </trkpt>
      <trkpt lat="48.77618" lon="2.10919">
        <ele>116</ele>
        <time>2020-02-16T10:18:28Z</time>
      </trkpt>
      <trkpt lat="48.77613" lon="2.10905">
        <ele>116</ele>
        <time>2020-02-16T10:18:35Z</time>
      </trkpt>
      <trkpt lat="48.77608" lon="2.10893">
        <ele>115</ele>
        <time>2020-02-16T10:18:42Z</time>
      </trkpt>
      <trkpt lat="48.77603" lon="2.10881">
        <ele>116</ele>
        <time>2020-02-16T10:18:49Z</time>
      </trkpt>
      <trkpt lat="48.77598" lon="2.10869">
        <ele>117</ele>
        <time>2020-02-16T10:18:56Z</time>
      </trkpt>
      <trkpt lat="48.77587" lon="2.10845">
        <ele>116</ele>
        <time>2020-02-16T10:19:12Z</time>
      </trkpt>
      <trkpt lat="48.77581" lon="2.10833">
        <ele>117</ele>
        <time>2020-02-16T10:19:21Z</time>
      </trkpt>
      <trkpt lat="48.77576" lon="2.1082">
        <ele>117</ele>
        <time>2020-02-16T10:19:28Z</time>
      </trkpt>
      <trkpt lat="48.77566" lon="2.10815">
        <ele>118</ele>
        <time>2020-02-16T10:19:43Z</time>
      </trkpt>
      <trkpt lat="48.77567" lon="2.10798">
        <ele>118</ele>
        <time>2020-02-16T10:20:25Z</time>
      </trkpt>
      <trkpt lat="48.77571" lon="2.10789">
        <ele>116</ele>
        <time>2020-02-16T10:21:26Z</time>
      </trkpt>
      <trkpt lat="48.77568" lon="2.10782">
        <ele>118</ele>
        <time>2020-02-16T10:21:29Z</time>
      </trkpt>
      <trkpt lat="48.77563" lon="2.10777">
        <ele>118</ele>
        <time>2020-02-16T10:21:37Z</time>
      </trkpt>
      <trkpt lat="48.77559" lon="2.10767">
        <ele>119</ele>
        <time>2020-02-16T10:21:49Z</time>
      </trkpt>
      <trkpt lat="48.77559" lon="2.1076">
        <ele>120</ele>
        <time>2020-02-16T10:21:53Z</time>
      </trkpt>
      <trkpt lat="48.77558" lon="2.10753">
        <ele>120</ele>
        <time>2020-02-16T10:21:57Z</time>
      </trkpt>
      <trkpt lat="48.77553" lon="2.10737">
        <ele>120</ele>
        <time>2020-02-16T10:22:06Z</time>
      </trkpt>
      <trkpt lat="48.77551" lon="2.10728">
        <ele>120</ele>
        <time>2020-02-16T10:22:15Z</time>
      </trkpt>
      <trkpt lat="48.77546" lon="2.10724">
        <ele>119</ele>
        <time>2020-02-16T10:22:19Z</time>
      </trkpt>
      <trkpt lat="48.77537" lon="2.10702">
        <ele>119</ele>
        <time>2020-02-16T10:22:35Z</time>
      </trkpt>
      <trkpt lat="48.77536" lon="2.10686">
        <ele>118</ele>
        <time>2020-02-16T10:22:41Z</time>
      </trkpt>
      <trkpt lat="48.7754" lon="2.10642">
        <ele>117</ele>
        <time>2020-02-16T10:23:00Z</time>
      </trkpt>
      <trkpt lat="48.77548" lon="2.10633">
        <ele>117</ele>
        <time>2020-02-16T10:23:07Z</time>
      </trkpt>
      <trkpt lat="48.77551" lon="2.10618">
        <ele>116</ele>
        <time>2020-02-16T10:23:12Z</time>
      </trkpt>
      <trkpt lat="48.77565" lon="2.10599">
        <ele>118</ele>
        <time>2020-02-16T10:23:27Z</time>
      </trkpt>
      <trkpt lat="48.77574" lon="2.10591">
        <ele>119</ele>
        <time>2020-02-16T10:23:35Z</time>
      </trkpt>
      <trkpt lat="48.77591" lon="2.10554">
        <ele>117</ele>
        <time>2020-02-16T10:23:56Z</time>
      </trkpt>
      <trkpt lat="48.77598" lon="2.10543">
        <ele>118</ele>
        <time>2020-02-16T10:24:04Z</time>
      </trkpt>
      <trkpt lat="48.77603" lon="2.10529">
        <ele>117</ele>
        <time>2020-02-16T10:24:12Z</time>
      </trkpt>
      <trkpt lat="48.77604" lon="2.10508">
        <ele>119</ele>
        <time>2020-02-16T10:24:24Z</time>
      </trkpt>
      <trkpt lat="48.77609" lon="2.10496">
        <ele>119</ele>
        <time>2020-02-16T10:24:30Z</time>
      </trkpt>
      <trkpt lat="48.77612" lon="2.10482">
        <ele>118</ele>
        <time>2020-02-16T10:24:36Z</time>
      </trkpt>
      <trkpt lat="48.77613" lon="2.10468">
        <ele>117</ele>
        <time>2020-02-16T10:24:42Z</time>
      </trkpt>
      <trkpt lat="48.77614" lon="2.10454">
        <ele>118</ele>
        <time>2020-02-16T10:24:49Z</time>
      </trkpt>
      <trkpt lat="48.77614" lon="2.10439">
        <ele>118</ele>
        <time>2020-02-16T10:24:56Z</time>
      </trkpt>
      <trkpt lat="48.77617" lon="2.10424">
        <ele>118</ele>
        <time>2020-02-16T10:25:04Z</time>
      </trkpt>
      <trkpt lat="48.7762" lon="2.10411">
        <ele>117</ele>
        <time>2020-02-16T10:25:11Z</time>
      </trkpt>
      <trkpt lat="48.7762" lon="2.1038">
        <ele>117</ele>
        <time>2020-02-16T10:25:25Z</time>
      </trkpt>
      <trkpt lat="48.77621" lon="2.10365">
        <ele>118</ele>
        <time>2020-02-16T10:25:32Z</time>
      </trkpt>
      <trkpt lat="48.77622" lon="2.10351">
        <ele>118</ele>
        <time>2020-02-16T10:25:39Z</time>
      </trkpt>
      <trkpt lat="48.77623" lon="2.10337">
        <ele>119</ele>
        <time>2020-02-16T10:25:46Z</time>
      </trkpt>
      <trkpt lat="48.77625" lon="2.10323">
        <ele>118</ele>
        <time>2020-02-16T10:25:52Z</time>
      </trkpt>
      <trkpt lat="48.77623" lon="2.10309">
        <ele>117</ele>
        <time>2020-02-16T10:25:59Z</time>
      </trkpt>
      <trkpt lat="48.7762" lon="2.10294">
        <ele>117</ele>
        <time>2020-02-16T10:26:06Z</time>
      </trkpt>
      <trkpt lat="48.7762" lon="2.10287">
        <ele>118</ele>
        <time>2020-02-16T10:27:03Z</time>
      </trkpt>
      <trkpt lat="48.7762" lon="2.10279">
        <ele>119</ele>
        <time>2020-02-16T10:27:07Z</time>
      </trkpt>
      <trkpt lat="48.77619" lon="2.10271">
        <ele>119</ele>
        <time>2020-02-16T10:27:11Z</time>
      </trkpt>
      <trkpt lat="48.77616" lon="2.10257">
        <ele>118</ele>
        <time>2020-02-16T10:27:19Z</time>
      </trkpt>
      <trkpt lat="48.77613" lon="2.10202">
        <ele>119</ele>
        <time>2020-02-16T10:27:45Z</time>
      </trkpt>
      <trkpt lat="48.77614" lon="2.10187">
        <ele>118</ele>
        <time>2020-02-16T10:27:52Z</time>
      </trkpt>
      <trkpt lat="48.77617" lon="2.10173">
        <ele>117</ele>
        <time>2020-02-16T10:27:59Z</time>
      </trkpt>
      <trkpt lat="48.77621" lon="2.1016">
        <ele>118</ele>
        <time>2020-02-16T10:28:07Z</time>
      </trkpt>
      <trkpt lat="48.77623" lon="2.10131">
        <ele>118</ele>
        <time>2020-02-16T10:28:21Z</time>
      </trkpt>
      <trkpt lat="48.77624" lon="2.10116">
        <ele>119</ele>
        <time>2020-02-16T10:28:28Z</time>
      </trkpt>
      <trkpt lat="48.77622" lon="2.10089">
        <ele>118</ele>
        <time>2020-02-16T10:28:41Z</time>
      </trkpt>
      <trkpt lat="48.77628" lon="2.10074">
        <ele>117</ele>
        <time>2020-02-16T10:29:11Z</time>
      </trkpt>
      <trkpt lat="48.77627" lon="2.10059">
        <ele>118</ele>
        <time>2020-02-16T10:29:16Z</time>
      </trkpt>
      <trkpt lat="48.77631" lon="2.10045">
        <ele>119</ele>
        <time>2020-02-16T10:29:22Z</time>
      </trkpt>
      <trkpt lat="48.77647" lon="2.10027">
        <ele>118</ele>
        <time>2020-02-16T10:29:35Z</time>
      </trkpt>
      <trkpt lat="48.77653" lon="2.1002">
        <ele>118</ele>
        <time>2020-02-16T10:29:41Z</time>
      </trkpt>
      <trkpt lat="48.77663" lon="2.10017">
        <ele>117</ele>
        <time>2020-02-16T10:29:48Z</time>
      </trkpt>
      <trkpt lat="48.77673" lon="2.10013">
        <ele>117</ele>
        <time>2020-02-16T10:29:56Z</time>
      </trkpt>
      <trkpt lat="48.77683" lon="2.10012">
        <ele>118</ele>
        <time>2020-02-16T10:30:04Z</time>
      </trkpt>
      <trkpt lat="48.77693" lon="2.10019">
        <ele>118</ele>
        <time>2020-02-16T10:30:10Z</time>
      </trkpt>
      <trkpt lat="48.77702" lon="2.10017">
        <ele>118</ele>
        <time>2020-02-16T10:30:18Z</time>
      </trkpt>
      <trkpt lat="48.77712" lon="2.10016">
        <ele>119</ele>
        <time>2020-02-16T10:30:25Z</time>
      </trkpt>
      <trkpt lat="48.77722" lon="2.10015">
        <ele>120</ele>
        <time>2020-02-16T10:30:32Z</time>
      </trkpt>
      <trkpt lat="48.77741" lon="2.10015">
        <ele>119</ele>
        <time>2020-02-16T10:30:48Z</time>
      </trkpt>
      <trkpt lat="48.7778" lon="2.10024">
        <ele>119</ele>
        <time>2020-02-16T10:31:14Z</time>
      </trkpt>
      <trkpt lat="48.77797" lon="2.1001">
        <ele>120</ele>
        <time>2020-02-16T10:31:31Z</time>
      </trkpt>
      <trkpt lat="48.77803" lon="2.10001">
        <ele>119</ele>
        <time>2020-02-16T10:31:39Z</time>
      </trkpt>
      <trkpt lat="48.77804" lon="2.09987">
        <ele>119</ele>
        <time>2020-02-16T10:31:47Z</time>
      </trkpt>
      <trkpt lat="48.77807" lon="2.09973">
        <ele>120</ele>
        <time>2020-02-16T10:31:54Z</time>
      </trkpt>
      <trkpt lat="48.77808" lon="2.09958">
        <ele>119</ele>
        <time>2020-02-16T10:32:02Z</time>
      </trkpt>
      <trkpt lat="48.77811" lon="2.09945">
        <ele>119</ele>
        <time>2020-02-16T10:32:09Z</time>
      </trkpt>
      <trkpt lat="48.77818" lon="2.09932">
        <ele>119</ele>
        <time>2020-02-16T10:32:16Z</time>
      </trkpt>
      <trkpt lat="48.77823" lon="2.09919">
        <ele>120</ele>
        <time>2020-02-16T10:32:23Z</time>
      </trkpt>
      <trkpt lat="48.77827" lon="2.09904">
        <ele>118</ele>
        <time>2020-02-16T10:32:31Z</time>
      </trkpt>
      <trkpt lat="48.77832" lon="2.09892">
        <ele>118</ele>
        <time>2020-02-16T10:32:39Z</time>
      </trkpt>
      <trkpt lat="48.77838" lon="2.09882">
        <ele>118</ele>
        <time>2020-02-16T10:32:47Z</time>
      </trkpt>
      <trkpt lat="48.77847" lon="2.09874">
        <ele>118</ele>
        <time>2020-02-16T10:32:54Z</time>
      </trkpt>
      <trkpt lat="48.77866" lon="2.09863">
        <ele>119</ele>
        <time>2020-02-16T10:33:07Z</time>
      </trkpt>
      <trkpt lat="48.77876" lon="2.09863">
        <ele>120</ele>
        <time>2020-02-16T10:33:14Z</time>
      </trkpt>
      <trkpt lat="48.77884" lon="2.09867">
        <ele>121</ele>
        <time>2020-02-16T10:33:20Z</time>
      </trkpt>
      <trkpt lat="48.77893" lon="2.09871">
        <ele>120</ele>
        <time>2020-02-16T10:33:27Z</time>
      </trkpt>
      <trkpt lat="48.77903" lon="2.09876">
        <ele>121</ele>
        <time>2020-02-16T10:33:36Z</time>
      </trkpt>
      <trkpt lat="48.7792" lon="2.09889">
        <ele>121</ele>
        <time>2020-02-16T10:33:50Z</time>
      </trkpt>
      <trkpt lat="48.77928" lon="2.09898">
        <ele>121</ele>
        <time>2020-02-16T10:33:57Z</time>
      </trkpt>
      <trkpt lat="48.77938" lon="2.09907">
        <ele>122</ele>
        <time>2020-02-16T10:34:06Z</time>
      </trkpt>
      <trkpt lat="48.77957" lon="2.09913">
        <ele>122</ele>
        <time>2020-02-16T10:34:18Z</time>
      </trkpt>
      <trkpt lat="48.77977" lon="2.09909">
        <ele>122</ele>
        <time>2020-02-16T10:34:32Z</time>
      </trkpt>
      <trkpt lat="48.77985" lon="2.09903">
        <ele>122</ele>
        <time>2020-02-16T10:34:40Z</time>
      </trkpt>
      <trkpt lat="48.77995" lon="2.09907">
        <ele>122</ele>
        <time>2020-02-16T10:34:48Z</time>
      </trkpt>
      <trkpt lat="48.78005" lon="2.09909">
        <ele>122</ele>
        <time>2020-02-16T10:34:55Z</time>
      </trkpt>
      <trkpt lat="48.78012" lon="2.09901">
        <ele>123</ele>
        <time>2020-02-16T10:35:02Z</time>
      </trkpt>
      <trkpt lat="48.78024" lon="2.09899">
        <ele>124</ele>
        <time>2020-02-16T10:35:12Z</time>
      </trkpt>
      <trkpt lat="48.78032" lon="2.09891">
        <ele>124</ele>
        <time>2020-02-16T10:35:19Z</time>
      </trkpt>
      <trkpt lat="48.78038" lon="2.09883">
        <ele>125</ele>
        <time>2020-02-16T10:35:27Z</time>
      </trkpt>
      <trkpt lat="48.78047" lon="2.09876">
        <ele>126</ele>
        <time>2020-02-16T10:35:35Z</time>
      </trkpt>
      <trkpt lat="48.78054" lon="2.09864">
        <ele>127</ele>
        <time>2020-02-16T10:35:44Z</time>
      </trkpt>
      <trkpt lat="48.78059" lon="2.09851">
        <ele>127</ele>
        <time>2020-02-16T10:35:51Z</time>
      </trkpt>
      <trkpt lat="48.78062" lon="2.0984">
        <ele>127</ele>
        <time>2020-02-16T10:35:58Z</time>
      </trkpt>
      <trkpt lat="48.78065" lon="2.09823">
        <ele>126</ele>
        <time>2020-02-16T10:36:07Z</time>
      </trkpt>
      <trkpt lat="48.7806" lon="2.09794">
        <ele>125</ele>
        <time>2020-02-16T10:36:18Z</time>
      </trkpt>
      <trkpt lat="48.7806" lon="2.09779">
        <ele>126</ele>
        <time>2020-02-16T10:36:25Z</time>
      </trkpt>
      <trkpt lat="48.78059" lon="2.09765">
        <ele>125</ele>
        <time>2020-02-16T10:36:31Z</time>
      </trkpt>
      <trkpt lat="48.78056" lon="2.09722">
        <ele>126</ele>
        <time>2020-02-16T10:36:55Z</time>
      </trkpt>
      <trkpt lat="48.78052" lon="2.09708">
        <ele>126</ele>
        <time>2020-02-16T10:37:02Z</time>
      </trkpt>
      <trkpt lat="48.78037" lon="2.0966">
        <ele>125</ele>
        <time>2020-02-16T10:37:32Z</time>
      </trkpt>
      <trkpt lat="48.78034" lon="2.09652">
        <ele>125</ele>
        <time>2020-02-16T10:37:40Z</time>
      </trkpt>
      <trkpt lat="48.78033" lon="2.09645">
        <ele>126</ele>
        <time>2020-02-16T10:37:46Z</time>
      </trkpt>
      <trkpt lat="48.78034" lon="2.09585">
        <ele>128</ele>
        <time>2020-02-16T10:38:05Z</time>
      </trkpt>
      <trkpt lat="48.78032" lon="2.09578">
        <ele>130</ele>
        <time>2020-02-16T10:38:17Z</time>
      </trkpt>
      <trkpt lat="48.78031" lon="2.09571">
        <ele>131</ele>
        <time>2020-02-16T10:38:22Z</time>
      </trkpt>
      <trkpt lat="48.78032" lon="2.09563">
        <ele>131</ele>
        <time>2020-02-16T10:38:35Z</time>
      </trkpt>
      <trkpt lat="48.78041" lon="2.09552">
        <ele>131</ele>
        <time>2020-02-16T10:40:43Z</time>
      </trkpt>
      <trkpt lat="48.78045" lon="2.09539">
        <ele>132</ele>
        <time>2020-02-16T10:40:52Z</time>
      </trkpt>
      <trkpt lat="48.78038" lon="2.09513">
        <ele>130</ele>
        <time>2020-02-16T10:41:04Z</time>
      </trkpt>
      <trkpt lat="48.78032" lon="2.09501">
        <ele>130</ele>
        <time>2020-02-16T10:41:11Z</time>
      </trkpt>
      <trkpt lat="48.78028" lon="2.09487">
        <ele>131</ele>
        <time>2020-02-16T10:41:19Z</time>
      </trkpt>
      <trkpt lat="48.78028" lon="2.09473">
        <ele>128</ele>
        <time>2020-02-16T10:41:25Z</time>
      </trkpt>
      <trkpt lat="48.78026" lon="2.09444">
        <ele>126</ele>
        <time>2020-02-16T10:41:37Z</time>
      </trkpt>
      <trkpt lat="48.78025" lon="2.09429">
        <ele>127</ele>
        <time>2020-02-16T10:41:45Z</time>
      </trkpt>
      <trkpt lat="48.78022" lon="2.09415">
        <ele>127</ele>
        <time>2020-02-16T10:41:52Z</time>
      </trkpt>
      <trkpt lat="48.78023" lon="2.094">
        <ele>127</ele>
        <time>2020-02-16T10:42:00Z</time>
      </trkpt>
      <trkpt lat="48.78024" lon="2.09386">
        <ele>127</ele>
        <time>2020-02-16T10:42:08Z</time>
      </trkpt>
      <trkpt lat="48.78026" lon="2.09371">
        <ele>127</ele>
        <time>2020-02-16T10:42:16Z</time>
      </trkpt>
      <trkpt lat="48.78028" lon="2.09357">
        <ele>126</ele>
        <time>2020-02-16T10:42:24Z</time>
      </trkpt>
      <trkpt lat="48.7803" lon="2.09344">
        <ele>126</ele>
        <time>2020-02-16T10:42:32Z</time>
      </trkpt>
      <trkpt lat="48.78032" lon="2.0933">
        <ele>128</ele>
        <time>2020-02-16T10:42:39Z</time>
      </trkpt>
      <trkpt lat="48.78033" lon="2.09302">
        <ele>129</ele>
        <time>2020-02-16T10:42:54Z</time>
      </trkpt>
      <trkpt lat="48.78034" lon="2.09286">
        <ele>128</ele>
        <time>2020-02-16T10:43:02Z</time>
      </trkpt>
      <trkpt lat="48.78037" lon="2.09257">
        <ele>128</ele>
        <time>2020-02-16T10:43:17Z</time>
      </trkpt>
      <trkpt lat="48.7804" lon="2.09244">
        <ele>129</ele>
        <time>2020-02-16T10:43:24Z</time>
      </trkpt>
      <trkpt lat="48.78045" lon="2.09231">
        <ele>128</ele>
        <time>2020-02-16T10:43:31Z</time>
      </trkpt>
      <trkpt lat="48.78047" lon="2.09219">
        <ele>128</ele>
        <time>2020-02-16T10:43:38Z</time>
      </trkpt>
      <trkpt lat="48.78051" lon="2.09203">
        <ele>128</ele>
        <time>2020-02-16T10:43:45Z</time>
      </trkpt>
      <trkpt lat="48.78052" lon="2.0919">
        <ele>129</ele>
        <time>2020-02-16T10:43:53Z</time>
      </trkpt>
      <trkpt lat="48.7807" lon="2.09156">
        <ele>128</ele>
        <time>2020-02-16T10:44:16Z</time>
      </trkpt>
      <trkpt lat="48.78075" lon="2.0915">
        <ele>128</ele>
        <time>2020-02-16T10:44:22Z</time>
      </trkpt>
      <trkpt lat="48.78084" lon="2.09141">
        <ele>129</ele>
        <time>2020-02-16T10:44:30Z</time>
      </trkpt>
      <trkpt lat="48.78089" lon="2.09137">
        <ele>128</ele>
        <time>2020-02-16T10:44:34Z</time>
      </trkpt>
      <trkpt lat="48.78093" lon="2.09133">
        <ele>128</ele>
        <time>2020-02-16T10:44:38Z</time>
      </trkpt>
      <trkpt lat="48.78097" lon="2.09129">
        <ele>128</ele>
        <time>2020-02-16T10:44:42Z</time>
      </trkpt>
      <trkpt lat="48.781" lon="2.09122">
        <ele>128</ele>
        <time>2020-02-16T10:44:46Z</time>
      </trkpt>
      <trkpt lat="48.78104" lon="2.09117">
        <ele>128</ele>
        <time>2020-02-16T10:44:50Z</time>
      </trkpt>
      <trkpt lat="48.78109" lon="2.09113">
        <ele>128</ele>
        <time>2020-02-16T10:44:54Z</time>
      </trkpt>
      <trkpt lat="48.78112" lon="2.09108">
        <ele>129</ele>
        <time>2020-02-16T10:44:58Z</time>
      </trkpt>
      <trkpt lat="48.78117" lon="2.09104">
        <ele>128</ele>
        <time>2020-02-16T10:45:03Z</time>
      </trkpt>
      <trkpt lat="48.78129" lon="2.09091">
        <ele>129</ele>
        <time>2020-02-16T10:45:15Z</time>
      </trkpt>
      <trkpt lat="48.78146" lon="2.09077">
        <ele>129</ele>
        <time>2020-02-16T10:45:32Z</time>
      </trkpt>
      <trkpt lat="48.7815" lon="2.09071">
        <ele>129</ele>
        <time>2020-02-16T10:45:36Z</time>
      </trkpt>
      <trkpt lat="48.7816" lon="2.09066">
        <ele>129</ele>
        <time>2020-02-16T10:45:45Z</time>
      </trkpt>
      <trkpt lat="48.78181" lon="2.09044">
        <ele>130</ele>
        <time>2020-02-16T10:46:04Z</time>
      </trkpt>
      <trkpt lat="48.7819" lon="2.09026">
        <ele>129</ele>
        <time>2020-02-16T10:46:15Z</time>
      </trkpt>
      <trkpt lat="48.78193" lon="2.09019">
        <ele>129</ele>
        <time>2020-02-16T10:46:19Z</time>
      </trkpt>
      <trkpt lat="48.78196" lon="2.09012">
        <ele>129</ele>
        <time>2020-02-16T10:46:23Z</time>
      </trkpt>
      <trkpt lat="48.782" lon="2.08999">
        <ele>128</ele>
        <time>2020-02-16T10:46:31Z</time>
      </trkpt>
      <trkpt lat="48.78205" lon="2.08988">
        <ele>128</ele>
        <time>2020-02-16T10:46:47Z</time>
      </trkpt>
      <trkpt lat="48.78215" lon="2.08985">
        <ele>131</ele>
        <time>2020-02-16T10:47:39Z</time>
      </trkpt>
      <trkpt lat="48.78226" lon="2.08991">
        <ele>134</ele>
        <time>2020-02-16T10:47:53Z</time>
      </trkpt>
      <trkpt lat="48.78231" lon="2.08977">
        <ele>134</ele>
        <time>2020-02-16T10:48:02Z</time>
      </trkpt>
      <trkpt lat="48.78233" lon="2.08962">
        <ele>135</ele>
        <time>2020-02-16T10:48:11Z</time>
      </trkpt>
      <trkpt lat="48.78232" lon="2.08948">
        <ele>133</ele>
        <time>2020-02-16T10:48:18Z</time>
      </trkpt>
      <trkpt lat="48.7823" lon="2.08919">
        <ele>134</ele>
        <time>2020-02-16T10:48:32Z</time>
      </trkpt>
      <trkpt lat="48.78231" lon="2.08905">
        <ele>135</ele>
        <time>2020-02-16T10:48:40Z</time>
      </trkpt>
      <trkpt lat="48.78233" lon="2.08891">
        <ele>136</ele>
        <time>2020-02-16T10:48:48Z</time>
      </trkpt>
      <trkpt lat="48.78234" lon="2.08877">
        <ele>135</ele>
        <time>2020-02-16T10:48:55Z</time>
      </trkpt>
      <trkpt lat="48.78238" lon="2.08864">
        <ele>134</ele>
        <time>2020-02-16T10:49:03Z</time>
      </trkpt>
      <trkpt lat="48.7824" lon="2.08834">
        <ele>133</ele>
        <time>2020-02-16T10:49:16Z</time>
      </trkpt>
      <trkpt lat="48.78238" lon="2.0882">
        <ele>133</ele>
        <time>2020-02-16T10:49:24Z</time>
      </trkpt>
      <trkpt lat="48.7824" lon="2.08777">
        <ele>133</ele>
        <time>2020-02-16T10:49:48Z</time>
      </trkpt>
      <trkpt lat="48.78239" lon="2.08763">
        <ele>133</ele>
        <time>2020-02-16T10:49:54Z</time>
      </trkpt>
      <trkpt lat="48.78243" lon="2.08733">
        <ele>135</ele>
        <time>2020-02-16T10:50:09Z</time>
      </trkpt>
      <trkpt lat="48.78251" lon="2.08706">
        <ele>133</ele>
        <time>2020-02-16T10:50:24Z</time>
      </trkpt>
      <trkpt lat="48.78255" lon="2.08678">
        <ele>135</ele>
        <time>2020-02-16T10:50:38Z</time>
      </trkpt>
      <trkpt lat="48.78259" lon="2.08648">
        <ele>134</ele>
        <time>2020-02-16T10:50:52Z</time>
      </trkpt>
      <trkpt lat="48.7826" lon="2.08633">
        <ele>134</ele>
        <time>2020-02-16T10:50:59Z</time>
      </trkpt>
      <trkpt lat="48.78265" lon="2.08621">
        <ele>134</ele>
        <time>2020-02-16T10:51:05Z</time>
      </trkpt>
      <trkpt lat="48.78271" lon="2.08612">
        <ele>133</ele>
        <time>2020-02-16T10:51:11Z</time>
      </trkpt>
      <trkpt lat="48.78279" lon="2.08604">
        <ele>134</ele>
        <time>2020-02-16T10:51:17Z</time>
      </trkpt>
      <trkpt lat="48.78298" lon="2.08597">
        <ele>134</ele>
        <time>2020-02-16T10:51:28Z</time>
      </trkpt>
      <trkpt lat="48.78321" lon="2.08568">
        <ele>134</ele>
        <time>2020-02-16T10:51:50Z</time>
      </trkpt>
      <trkpt lat="48.78329" lon="2.0856">
        <ele>135</ele>
        <time>2020-02-16T10:51:57Z</time>
      </trkpt>
      <trkpt lat="48.78342" lon="2.08538">
        <ele>134</ele>
        <time>2020-02-16T10:52:13Z</time>
      </trkpt>
      <trkpt lat="48.78349" lon="2.08527">
        <ele>135</ele>
        <time>2020-02-16T10:52:21Z</time>
      </trkpt>
      <trkpt lat="48.78363" lon="2.08506">
        <ele>135</ele>
        <time>2020-02-16T10:52:37Z</time>
      </trkpt>
      <trkpt lat="48.78363" lon="2.08491">
        <ele>136</ele>
        <time>2020-02-16T10:52:52Z</time>
      </trkpt>
      <trkpt lat="48.7836" lon="2.08484">
        <ele>136</ele>
        <time>2020-02-16T10:53:22Z</time>
      </trkpt>
      <trkpt lat="48.78365" lon="2.08472">
        <ele>134</ele>
        <time>2020-02-16T10:53:39Z</time>
      </trkpt>
      <trkpt lat="48.78368" lon="2.08465">
        <ele>134</ele>
        <time>2020-02-16T10:53:43Z</time>
      </trkpt>
      <trkpt lat="48.78378" lon="2.08446">
        <ele>136</ele>
        <time>2020-02-16T10:53:55Z</time>
      </trkpt>
      <trkpt lat="48.78384" lon="2.08434">
        <ele>136</ele>
        <time>2020-02-16T10:54:03Z</time>
      </trkpt>
      <trkpt lat="48.78388" lon="2.08429">
        <ele>135</ele>
        <time>2020-02-16T10:54:08Z</time>
      </trkpt>
      <trkpt lat="48.78392" lon="2.08414">
        <ele>134</ele>
        <time>2020-02-16T10:54:16Z</time>
      </trkpt>
      <trkpt lat="48.78395" lon="2.08406">
        <ele>134</ele>
        <time>2020-02-16T10:54:20Z</time>
      </trkpt>
      <trkpt lat="48.78408" lon="2.08382">
        <ele>135</ele>
        <time>2020-02-16T10:54:34Z</time>
      </trkpt>
      <trkpt lat="48.78417" lon="2.08374">
        <ele>134</ele>
        <time>2020-02-16T10:54:43Z</time>
      </trkpt>
      <trkpt lat="48.78437" lon="2.08356">
        <ele>135</ele>
        <time>2020-02-16T10:55:00Z</time>
      </trkpt>
      <trkpt lat="48.7845" lon="2.08344">
        <ele>135</ele>
        <time>2020-02-16T10:55:12Z</time>
      </trkpt>
      <trkpt lat="48.7846" lon="2.08339">
        <ele>136</ele>
        <time>2020-02-16T10:55:20Z</time>
      </trkpt>
      <trkpt lat="48.78469" lon="2.08335">
        <ele>136</ele>
        <time>2020-02-16T10:55:28Z</time>
      </trkpt>
      <trkpt lat="48.78479" lon="2.08329">
        <ele>135</ele>
        <time>2020-02-16T10:55:36Z</time>
      </trkpt>
      <trkpt lat="48.78489" lon="2.08326">
        <ele>135</ele>
        <time>2020-02-16T10:55:44Z</time>
      </trkpt>
      <trkpt lat="48.78493" lon="2.08325">
        <ele>135</ele>
        <time>2020-02-16T10:55:47Z</time>
      </trkpt>
      <trkpt lat="48.78504" lon="2.08324">
        <ele>135</ele>
        <time>2020-02-16T10:55:55Z</time>
      </trkpt>
      <trkpt lat="48.78509" lon="2.08322">
        <ele>135</ele>
        <time>2020-02-16T10:55:59Z</time>
      </trkpt>
      <trkpt lat="48.78518" lon="2.08318">
        <ele>136</ele>
        <time>2020-02-16T10:56:07Z</time>
      </trkpt>
      <trkpt lat="48.78529" lon="2.08315">
        <ele>135</ele>
        <time>2020-02-16T10:56:22Z</time>
      </trkpt>
      <trkpt lat="48.78539" lon="2.08309">
        <ele>135</ele>
        <time>2020-02-16T10:56:28Z</time>
      </trkpt>
      <trkpt lat="48.78547" lon="2.08305">
        <ele>134</ele>
        <time>2020-02-16T10:56:35Z</time>
      </trkpt>
      <trkpt lat="48.78556" lon="2.083">
        <ele>133</ele>
        <time>2020-02-16T10:56:42Z</time>
      </trkpt>
      <trkpt lat="48.78565" lon="2.08291">
        <ele>134</ele>
        <time>2020-02-16T10:56:49Z</time>
      </trkpt>
      <trkpt lat="48.78574" lon="2.08286">
        <ele>134</ele>
        <time>2020-02-16T10:56:56Z</time>
      </trkpt>
      <trkpt lat="48.78592" lon="2.08282">
        <ele>135</ele>
        <time>2020-02-16T10:57:09Z</time>
      </trkpt>
      <trkpt lat="48.78639" lon="2.08262">
        <ele>135</ele>
        <time>2020-02-16T10:57:45Z</time>
      </trkpt>
      <trkpt lat="48.78655" lon="2.0825">
        <ele>135</ele>
        <time>2020-02-16T10:58:00Z</time>
      </trkpt>
      <trkpt lat="48.78664" lon="2.08243">
        <ele>134</ele>
        <time>2020-02-16T10:58:08Z</time>
      </trkpt>
      <trkpt lat="48.78672" lon="2.08236">
        <ele>135</ele>
        <time>2020-02-16T10:58:15Z</time>
      </trkpt>
      <trkpt lat="48.7868" lon="2.08231">
        <ele>136</ele>
        <time>2020-02-16T10:58:22Z</time>
      </trkpt>
      <trkpt lat="48.78706" lon="2.08215">
        <ele>134</ele>
        <time>2020-02-16T10:58:43Z</time>
      </trkpt>
      <trkpt lat="48.78724" lon="2.0821">
        <ele>135</ele>
        <time>2020-02-16T10:58:55Z</time>
      </trkpt>
      <trkpt lat="48.78747" lon="2.08215">
        <ele>135</ele>
        <time>2020-02-16T10:59:12Z</time>
      </trkpt>
      <trkpt lat="48.78756" lon="2.0822">
        <ele>136</ele>
        <time>2020-02-16T10:59:21Z</time>
      </trkpt>
      <trkpt lat="48.78765" lon="2.08226">
        <ele>136</ele>
        <time>2020-02-16T10:59:29Z</time>
      </trkpt>
      <trkpt lat="48.78774" lon="2.08228">
        <ele>136</ele>
        <time>2020-02-16T10:59:36Z</time>
      </trkpt>
      <trkpt lat="48.78782" lon="2.08239">
        <ele>137</ele>
        <time>2020-02-16T10:59:51Z</time>
      </trkpt>
      <trkpt lat="48.78796" lon="2.08226">
        <ele>135</ele>
        <time>2020-02-16T11:01:24Z</time>
      </trkpt>
      <trkpt lat="48.78799" lon="2.0822">
        <ele>136</ele>
        <time>2020-02-16T11:01:39Z</time>
      </trkpt>
      <trkpt lat="48.78801" lon="2.0821">
        <ele>136</ele>
        <time>2020-02-16T11:01:49Z</time>
      </trkpt>
      <trkpt lat="48.788" lon="2.08204">
        <ele>135</ele>
        <time>2020-02-16T11:02:20Z</time>
      </trkpt>
      <trkpt lat="48.78798" lon="2.08194">
        <ele>135</ele>
        <time>2020-02-16T11:02:31Z</time>
      </trkpt>
      <trkpt lat="48.78792" lon="2.0818">
        <ele>137</ele>
        <time>2020-02-16T11:05:21Z</time>
      </trkpt>
      <trkpt lat="48.7879" lon="2.08166">
        <ele>137</ele>
        <time>2020-02-16T11:05:27Z</time>
      </trkpt>
      <trkpt lat="48.78789" lon="2.08151">
        <ele>137</ele>
        <time>2020-02-16T11:05:35Z</time>
      </trkpt>
      <trkpt lat="48.78774" lon="2.08098">
        <ele>145</ele>
        <time>2020-02-16T11:06:10Z</time>
      </trkpt>
      <trkpt lat="48.7877" lon="2.08084">
        <ele>147</ele>
        <time>2020-02-16T11:06:22Z</time>
      </trkpt>
      <trkpt lat="48.78744" lon="2.0804">
        <ele>152</ele>
        <time>2020-02-16T11:06:56Z</time>
      </trkpt>
      <trkpt lat="48.78738" lon="2.08029">
        <ele>154</ele>
        <time>2020-02-16T11:07:04Z</time>
      </trkpt>
      <trkpt lat="48.78729" lon="2.08023">
        <ele>156</ele>
        <time>2020-02-16T11:07:13Z</time>
      </trkpt>
      <trkpt lat="48.78721" lon="2.08011">
        <ele>156</ele>
        <time>2020-02-16T11:07:23Z</time>
      </trkpt>
      <trkpt lat="48.78713" lon="2.08003">
        <ele>157</ele>
        <time>2020-02-16T11:07:31Z</time>
      </trkpt>
      <trkpt lat="48.78706" lon="2.07992">
        <ele>157</ele>
        <time>2020-02-16T11:07:38Z</time>
      </trkpt>
      <trkpt lat="48.78699" lon="2.07983">
        <ele>158</ele>
        <time>2020-02-16T11:07:46Z</time>
      </trkpt>
      <trkpt lat="48.78695" lon="2.07986">
        <ele>158</ele>
        <time>2020-02-16T11:07:50Z</time>
      </trkpt>
      <trkpt lat="48.78684" lon="2.08005">
        <ele>156</ele>
        <time>2020-02-16T11:08:05Z</time>
      </trkpt>
      <trkpt lat="48.78675" lon="2.08025">
        <ele>157</ele>
        <time>2020-02-16T11:08:18Z</time>
      </trkpt>
      <trkpt lat="48.78671" lon="2.0803">
        <ele>157</ele>
        <time>2020-02-16T11:08:22Z</time>
      </trkpt>
      <trkpt lat="48.78652" lon="2.08043">
        <ele>156</ele>
        <time>2020-02-16T11:08:37Z</time>
      </trkpt>
      <trkpt lat="48.78648" lon="2.08046">
        <ele>155</ele>
        <time>2020-02-16T11:08:41Z</time>
      </trkpt>
      <trkpt lat="48.78644" lon="2.08048">
        <ele>155</ele>
        <time>2020-02-16T11:08:45Z</time>
      </trkpt>
      <trkpt lat="48.78638" lon="2.08049">
        <ele>155</ele>
        <time>2020-02-16T11:08:50Z</time>
      </trkpt>
      <trkpt lat="48.78627" lon="2.08049">
        <ele>157</ele>
        <time>2020-02-16T11:08:58Z</time>
      </trkpt>
      <trkpt lat="48.78623" lon="2.0805">
        <ele>157</ele>
        <time>2020-02-16T11:09:01Z</time>
      </trkpt>
      <trkpt lat="48.78618" lon="2.0805">
        <ele>157</ele>
        <time>2020-02-16T11:09:05Z</time>
      </trkpt>
      <trkpt lat="48.78613" lon="2.08047">
        <ele>157</ele>
        <time>2020-02-16T11:09:09Z</time>
      </trkpt>
      <trkpt lat="48.78608" lon="2.08043">
        <ele>157</ele>
        <time>2020-02-16T11:09:13Z</time>
      </trkpt>
      <trkpt lat="48.78595" lon="2.08037">
        <ele>156</ele>
        <time>2020-02-16T11:09:22Z</time>
      </trkpt>
      <trkpt lat="48.78589" lon="2.08037">
        <ele>154</ele>
        <time>2020-02-16T11:09:26Z</time>
      </trkpt>
      <trkpt lat="48.78578" lon="2.08036">
        <ele>155</ele>
        <time>2020-02-16T11:09:34Z</time>
      </trkpt>
      <trkpt lat="48.78573" lon="2.08035">
        <ele>155</ele>
        <time>2020-02-16T11:09:37Z</time>
      </trkpt>
      <trkpt lat="48.78563" lon="2.08028">
        <ele>154</ele>
        <time>2020-02-16T11:09:46Z</time>
      </trkpt>
      <trkpt lat="48.78553" lon="2.08017">
        <ele>153</ele>
        <time>2020-02-16T11:09:57Z</time>
      </trkpt>
      <trkpt lat="48.78546" lon="2.08006">
        <ele>153</ele>
        <time>2020-02-16T11:10:04Z</time>
      </trkpt>
      <trkpt lat="48.78541" lon="2.07995">
        <ele>155</ele>
        <time>2020-02-16T11:10:11Z</time>
      </trkpt>
      <trkpt lat="48.78539" lon="2.0798">
        <ele>156</ele>
        <time>2020-02-16T11:10:20Z</time>
      </trkpt>
      <trkpt lat="48.78535" lon="2.07966">
        <ele>155</ele>
        <time>2020-02-16T11:10:28Z</time>
      </trkpt>
      <trkpt lat="48.78535" lon="2.07951">
        <ele>156</ele>
        <time>2020-02-16T11:10:35Z</time>
      </trkpt>
      <trkpt lat="48.78537" lon="2.07931">
        <ele>156</ele>
        <time>2020-02-16T11:10:50Z</time>
      </trkpt>
      <trkpt lat="48.78535" lon="2.07925">
        <ele>156</ele>
        <time>2020-02-16T11:10:54Z</time>
      </trkpt>
      <trkpt lat="48.78532" lon="2.07919">
        <ele>157</ele>
        <time>2020-02-16T11:10:58Z</time>
      </trkpt>
      <trkpt lat="48.78528" lon="2.07912">
        <ele>156</ele>
        <time>2020-02-16T11:11:02Z</time>
      </trkpt>
      <trkpt lat="48.78525" lon="2.07905">
        <ele>155</ele>
        <time>2020-02-16T11:11:07Z</time>
      </trkpt>
      <trkpt lat="48.78521" lon="2.07891">
        <ele>157</ele>
        <time>2020-02-16T11:11:15Z</time>
      </trkpt>
      <trkpt lat="48.78517" lon="2.07884">
        <ele>157</ele>
        <time>2020-02-16T11:11:19Z</time>
      </trkpt>
      <trkpt lat="48.78509" lon="2.07875">
        <ele>157</ele>
        <time>2020-02-16T11:11:26Z</time>
      </trkpt>
      <trkpt lat="48.78505" lon="2.07872">
        <ele>157</ele>
        <time>2020-02-16T11:11:29Z</time>
      </trkpt>
      <trkpt lat="48.785" lon="2.07867">
        <ele>158</ele>
        <time>2020-02-16T11:11:32Z</time>
      </trkpt>
      <trkpt lat="48.78496" lon="2.07861">
        <ele>158</ele>
        <time>2020-02-16T11:11:36Z</time>
      </trkpt>
      <trkpt lat="48.78492" lon="2.07848">
        <ele>158</ele>
        <time>2020-02-16T11:11:43Z</time>
      </trkpt>
      <trkpt lat="48.7849" lon="2.07836">
        <ele>158</ele>
        <time>2020-02-16T11:12:32Z</time>
      </trkpt>
      <trkpt lat="48.78487" lon="2.07829">
        <ele>159</ele>
        <time>2020-02-16T11:12:36Z</time>
      </trkpt>
      <trkpt lat="48.78483" lon="2.07825">
        <ele>159</ele>
        <time>2020-02-16T11:12:39Z</time>
      </trkpt>
      <trkpt lat="48.78478" lon="2.0782">
        <ele>158</ele>
        <time>2020-02-16T11:12:43Z</time>
      </trkpt>
      <trkpt lat="48.78473" lon="2.0781">
        <ele>156</ele>
        <time>2020-02-16T11:12:48Z</time>
      </trkpt>
      <trkpt lat="48.7847" lon="2.07805">
        <ele>156</ele>
        <time>2020-02-16T11:12:52Z</time>
      </trkpt>
      <trkpt lat="48.78466" lon="2.078">
        <ele>157</ele>
        <time>2020-02-16T11:12:56Z</time>
      </trkpt>
      <trkpt lat="48.78464" lon="2.07792">
        <ele>157</ele>
        <time>2020-02-16T11:13:00Z</time>
      </trkpt>
      <trkpt lat="48.78456" lon="2.0778">
        <ele>155</ele>
        <time>2020-02-16T11:13:08Z</time>
      </trkpt>
      <trkpt lat="48.7845" lon="2.07771">
        <ele>155</ele>
        <time>2020-02-16T11:13:13Z</time>
      </trkpt>
      <trkpt lat="48.78448" lon="2.07763">
        <ele>154</ele>
        <time>2020-02-16T11:13:18Z</time>
      </trkpt>
      <trkpt lat="48.78447" lon="2.07754">
        <ele>155</ele>
        <time>2020-02-16T11:13:23Z</time>
      </trkpt>
      <trkpt lat="48.78443" lon="2.0774">
        <ele>155</ele>
        <time>2020-02-16T11:13:29Z</time>
      </trkpt>
      <trkpt lat="48.78433" lon="2.07698">
        <ele>153</ele>
        <time>2020-02-16T11:13:50Z</time>
      </trkpt>
      <trkpt lat="48.78425" lon="2.0769">
        <ele>153</ele>
        <time>2020-02-16T11:13:57Z</time>
      </trkpt>
      <trkpt lat="48.78418" lon="2.07679">
        <ele>154</ele>
        <time>2020-02-16T11:14:04Z</time>
      </trkpt>
      <trkpt lat="48.78413" lon="2.07667">
        <ele>155</ele>
        <time>2020-02-16T11:14:14Z</time>
      </trkpt>
      <trkpt lat="48.7841" lon="2.07646">
        <ele>156</ele>
        <time>2020-02-16T11:14:26Z</time>
      </trkpt>
      <trkpt lat="48.78407" lon="2.07633">
        <ele>155</ele>
        <time>2020-02-16T11:14:32Z</time>
      </trkpt>
      <trkpt lat="48.78401" lon="2.07622">
        <ele>156</ele>
        <time>2020-02-16T11:14:39Z</time>
      </trkpt>
      <trkpt lat="48.78394" lon="2.07611">
        <ele>153</ele>
        <time>2020-02-16T11:14:48Z</time>
      </trkpt>
      <trkpt lat="48.78386" lon="2.07605">
        <ele>151</ele>
        <time>2020-02-16T11:14:55Z</time>
      </trkpt>
      <trkpt lat="48.78384" lon="2.0759">
        <ele>153</ele>
        <time>2020-02-16T11:15:03Z</time>
      </trkpt>
      <trkpt lat="48.78375" lon="2.07584">
        <ele>153</ele>
        <time>2020-02-16T11:15:11Z</time>
      </trkpt>
      <trkpt lat="48.78368" lon="2.07574">
        <ele>153</ele>
        <time>2020-02-16T11:15:21Z</time>
      </trkpt>
      <trkpt lat="48.7835" lon="2.07548">
        <ele>157</ele>
        <time>2020-02-16T11:15:45Z</time>
      </trkpt>
      <trkpt lat="48.78346" lon="2.07545">
        <ele>157</ele>
        <time>2020-02-16T11:15:49Z</time>
      </trkpt>
      <trkpt lat="48.78343" lon="2.0754">
        <ele>157</ele>
        <time>2020-02-16T11:15:56Z</time>
      </trkpt>
      <trkpt lat="48.78342" lon="2.07533">
        <ele>157</ele>
        <time>2020-02-16T11:16:00Z</time>
      </trkpt>
      <trkpt lat="48.78325" lon="2.07516">
        <ele>158</ele>
        <time>2020-02-16T11:16:16Z</time>
      </trkpt>
      <trkpt lat="48.78319" lon="2.07516">
        <ele>158</ele>
        <time>2020-02-16T11:16:21Z</time>
      </trkpt>
      <trkpt lat="48.78315" lon="2.0751">
        <ele>158</ele>
        <time>2020-02-16T11:16:26Z</time>
      </trkpt>
      <trkpt lat="48.78315" lon="2.07502">
        <ele>157</ele>
        <time>2020-02-16T11:16:30Z</time>
      </trkpt>
      <trkpt lat="48.78317" lon="2.07495">
        <ele>156</ele>
        <time>2020-02-16T11:16:33Z</time>
      </trkpt>
      <trkpt lat="48.78318" lon="2.07487">
        <ele>156</ele>
        <time>2020-02-16T11:16:37Z</time>
      </trkpt>
      <trkpt lat="48.78317" lon="2.0748">
        <ele>156</ele>
        <time>2020-02-16T11:16:41Z</time>
      </trkpt>
      <trkpt lat="48.78314" lon="2.07474">
        <ele>157</ele>
        <time>2020-02-16T11:16:44Z</time>
      </trkpt>
      <trkpt lat="48.78314" lon="2.07467">
        <ele>158</ele>
        <time>2020-02-16T11:16:48Z</time>
      </trkpt>
      <trkpt lat="48.78305" lon="2.07458">
        <ele>159</ele>
        <time>2020-02-16T11:16:56Z</time>
      </trkpt>
      <trkpt lat="48.78302" lon="2.07453">
        <ele>158</ele>
        <time>2020-02-16T11:17:00Z</time>
      </trkpt>
      <trkpt lat="48.78297" lon="2.07451">
        <ele>157</ele>
        <time>2020-02-16T11:17:04Z</time>
      </trkpt>
      <trkpt lat="48.78293" lon="2.07446">
        <ele>156</ele>
        <time>2020-02-16T11:17:09Z</time>
      </trkpt>
      <trkpt lat="48.7829" lon="2.07441">
        <ele>157</ele>
        <time>2020-02-16T11:17:12Z</time>
      </trkpt>
      <trkpt lat="48.78277" lon="2.07409">
        <ele>157</ele>
        <time>2020-02-16T11:17:33Z</time>
      </trkpt>
      <trkpt lat="48.78273" lon="2.07405">
        <ele>158</ele>
        <time>2020-02-16T11:17:37Z</time>
      </trkpt>
      <trkpt lat="48.78267" lon="2.07403">
        <ele>157</ele>
        <time>2020-02-16T11:17:41Z</time>
      </trkpt>
      <trkpt lat="48.78259" lon="2.07396">
        <ele>156</ele>
        <time>2020-02-16T11:17:50Z</time>
      </trkpt>
      <trkpt lat="48.78254" lon="2.07395">
        <ele>155</ele>
        <time>2020-02-16T11:17:54Z</time>
      </trkpt>
      <trkpt lat="48.78249" lon="2.07393">
        <ele>155</ele>
        <time>2020-02-16T11:17:58Z</time>
      </trkpt>
      <trkpt lat="48.78245" lon="2.07391">
        <ele>157</ele>
        <time>2020-02-16T11:18:01Z</time>
      </trkpt>
      <trkpt lat="48.78243" lon="2.07383">
        <ele>156</ele>
        <time>2020-02-16T11:18:06Z</time>
      </trkpt>
      <trkpt lat="48.78244" lon="2.07374">
        <ele>155</ele>
        <time>2020-02-16T11:18:10Z</time>
      </trkpt>
      <trkpt lat="48.78244" lon="2.07367">
        <ele>156</ele>
        <time>2020-02-16T11:18:14Z</time>
      </trkpt>
      <trkpt lat="48.78239" lon="2.07361">
        <ele>157</ele>
        <time>2020-02-16T11:18:33Z</time>
      </trkpt>
      <trkpt lat="48.78231" lon="2.07358">
        <ele>156</ele>
        <time>2020-02-16T11:18:43Z</time>
      </trkpt>
      <trkpt lat="48.78228" lon="2.0735">
        <ele>155</ele>
        <time>2020-02-16T11:19:49Z</time>
      </trkpt>
      <trkpt lat="48.78218" lon="2.07335">
        <ele>154</ele>
        <time>2020-02-16T11:20:02Z</time>
      </trkpt>
      <trkpt lat="48.78213" lon="2.07319">
        <ele>152</ele>
        <time>2020-02-16T11:20:13Z</time>
      </trkpt>
      <trkpt lat="48.7821" lon="2.07307">
        <ele>151</ele>
        <time>2020-02-16T11:20:19Z</time>
      </trkpt>
      <trkpt lat="48.78205" lon="2.07261">
        <ele>150</ele>
        <time>2020-02-16T11:20:40Z</time>
      </trkpt>
      <trkpt lat="48.78206" lon="2.07248">
        <ele>149</ele>
        <time>2020-02-16T11:20:47Z</time>
      </trkpt>
      <trkpt lat="48.78205" lon="2.07233">
        <ele>147</ele>
        <time>2020-02-16T11:20:54Z</time>
      </trkpt>
      <trkpt lat="48.78199" lon="2.07205">
        <ele>145</ele>
        <time>2020-02-16T11:21:09Z</time>
      </trkpt>
      <trkpt lat="48.78198" lon="2.07189">
        <ele>145</ele>
        <time>2020-02-16T11:21:16Z</time>
      </trkpt>
      <trkpt lat="48.782" lon="2.07176">
        <ele>143</ele>
        <time>2020-02-16T11:21:24Z</time>
      </trkpt>
      <trkpt lat="48.78197" lon="2.07163">
        <ele>142</ele>
        <time>2020-02-16T11:21:31Z</time>
      </trkpt>
      <trkpt lat="48.78186" lon="2.07109">
        <ele>139</ele>
        <time>2020-02-16T11:22:01Z</time>
      </trkpt>
      <trkpt lat="48.78183" lon="2.07095">
        <ele>140</ele>
        <time>2020-02-16T11:22:09Z</time>
      </trkpt>
      <trkpt lat="48.78176" lon="2.07068">
        <ele>138</ele>
        <time>2020-02-16T11:22:24Z</time>
      </trkpt>
      <trkpt lat="48.7817" lon="2.07056">
        <ele>137</ele>
        <time>2020-02-16T11:22:31Z</time>
      </trkpt>
      <trkpt lat="48.78149" lon="2.0699">
        <ele>137</ele>
        <time>2020-02-16T11:23:07Z</time>
      </trkpt>
      <trkpt lat="48.7814" lon="2.06973">
        <ele>136</ele>
        <time>2020-02-16T11:23:19Z</time>
      </trkpt>
      <trkpt lat="48.78136" lon="2.06967">
        <ele>137</ele>
        <time>2020-02-16T11:23:23Z</time>
      </trkpt>
      <trkpt lat="48.78134" lon="2.0696">
        <ele>137</ele>
        <time>2020-02-16T11:23:27Z</time>
      </trkpt>
      <trkpt lat="48.78133" lon="2.06952">
        <ele>137</ele>
        <time>2020-02-16T11:23:32Z</time>
      </trkpt>
      <trkpt lat="48.78124" lon="2.06934">
        <ele>136</ele>
        <time>2020-02-16T11:23:44Z</time>
      </trkpt>
      <trkpt lat="48.7812" lon="2.06929">
        <ele>137</ele>
        <time>2020-02-16T11:23:48Z</time>
      </trkpt>
      <trkpt lat="48.78114" lon="2.06917">
        <ele>137</ele>
        <time>2020-02-16T11:23:55Z</time>
      </trkpt>
      <trkpt lat="48.78113" lon="2.06911">
        <ele>138</ele>
        <time>2020-02-16T11:23:59Z</time>
      </trkpt>
      <trkpt lat="48.78108" lon="2.06904">
        <ele>138</ele>
        <time>2020-02-16T11:24:03Z</time>
      </trkpt>
      <trkpt lat="48.78099" lon="2.06895">
        <ele>138</ele>
        <time>2020-02-16T11:24:10Z</time>
      </trkpt>
      <trkpt lat="48.78089" lon="2.06876">
        <ele>139</ele>
        <time>2020-02-16T11:24:22Z</time>
      </trkpt>
      <trkpt lat="48.78081" lon="2.06866">
        <ele>138</ele>
        <time>2020-02-16T11:24:33Z</time>
      </trkpt>
      <trkpt lat="48.78072" lon="2.06871">
        <ele>138</ele>
        <time>2020-02-16T11:24:41Z</time>
      </trkpt>
      <trkpt lat="48.78049" lon="2.06896">
        <ele>140</ele>
        <time>2020-02-16T11:25:05Z</time>
      </trkpt>
      <trkpt lat="48.78049" lon="2.0691">
        <ele>139</ele>
        <time>2020-02-16T11:25:14Z</time>
      </trkpt>
      <trkpt lat="48.78055" lon="2.06921">
        <ele>139</ele>
        <time>2020-02-16T11:25:22Z</time>
      </trkpt>
      <trkpt lat="48.78064" lon="2.06928">
        <ele>139</ele>
        <time>2020-02-16T11:25:31Z</time>
      </trkpt>
      <trkpt lat="48.78072" lon="2.06934">
        <ele>139</ele>
        <time>2020-02-16T11:25:39Z</time>
      </trkpt>
      <trkpt lat="48.7808" lon="2.06941">
        <ele>139</ele>
        <time>2020-02-16T11:25:46Z</time>
      </trkpt>
      <trkpt lat="48.78098" lon="2.06976">
        <ele>137</ele>
        <time>2020-02-16T11:26:10Z</time>
      </trkpt>
      <trkpt lat="48.78103" lon="2.06986">
        <ele>138</ele>
        <time>2020-02-16T11:26:17Z</time>
      </trkpt>
      <trkpt lat="48.7811" lon="2.06997">
        <ele>138</ele>
        <time>2020-02-16T11:26:25Z</time>
      </trkpt>
      <trkpt lat="48.78118" lon="2.07007">
        <ele>141</ele>
        <time>2020-02-16T11:26:34Z</time>
      </trkpt>
      <trkpt lat="48.78121" lon="2.07015">
        <ele>140</ele>
        <time>2020-02-16T11:26:38Z</time>
      </trkpt>
      <trkpt lat="48.78127" lon="2.07036">
        <ele>136</ele>
        <time>2020-02-16T11:26:51Z</time>
      </trkpt>
      <trkpt lat="48.78128" lon="2.07043">
        <ele>136</ele>
        <time>2020-02-16T11:26:55Z</time>
      </trkpt>
      <trkpt lat="48.78129" lon="2.07051">
        <ele>136</ele>
        <time>2020-02-16T11:27:00Z</time>
      </trkpt>
      <trkpt lat="48.78129" lon="2.07058">
        <ele>137</ele>
        <time>2020-02-16T11:27:04Z</time>
      </trkpt>
      <trkpt lat="48.7813" lon="2.07066">
        <ele>138</ele>
        <time>2020-02-16T11:27:08Z</time>
      </trkpt>
      <trkpt lat="48.7813" lon="2.0708">
        <ele>137</ele>
        <time>2020-02-16T11:27:16Z</time>
      </trkpt>
      <trkpt lat="48.78131" lon="2.07104">
        <ele>136</ele>
        <time>2020-02-16T11:27:28Z</time>
      </trkpt>
      <trkpt lat="48.7813" lon="2.07129">
        <ele>140</ele>
        <time>2020-02-16T11:27:40Z</time>
      </trkpt>
      <trkpt lat="48.78125" lon="2.0716">
        <ele>140</ele>
        <time>2020-02-16T11:27:56Z</time>
      </trkpt>
      <trkpt lat="48.78125" lon="2.07167">
        <ele>140</ele>
        <time>2020-02-16T11:28:00Z</time>
      </trkpt>
      <trkpt lat="48.78123" lon="2.07183">
        <ele>139</ele>
        <time>2020-02-16T11:28:09Z</time>
      </trkpt>
      <trkpt lat="48.78122" lon="2.07198">
        <ele>138</ele>
        <time>2020-02-16T11:28:17Z</time>
      </trkpt>
      <trkpt lat="48.78122" lon="2.07206">
        <ele>138</ele>
        <time>2020-02-16T11:28:21Z</time>
      </trkpt>
      <trkpt lat="48.78122" lon="2.07239">
        <ele>139</ele>
        <time>2020-02-16T11:28:37Z</time>
      </trkpt>
      <trkpt lat="48.78122" lon="2.07247">
        <ele>139</ele>
        <time>2020-02-16T11:28:41Z</time>
      </trkpt>
      <trkpt lat="48.78121" lon="2.07262">
        <ele>138</ele>
        <time>2020-02-16T11:28:48Z</time>
      </trkpt>
      <trkpt lat="48.78121" lon="2.07271">
        <ele>138</ele>
        <time>2020-02-16T11:28:52Z</time>
      </trkpt>
      <trkpt lat="48.7812" lon="2.07288">
        <ele>139</ele>
        <time>2020-02-16T11:29:00Z</time>
      </trkpt>
      <trkpt lat="48.7812" lon="2.07304">
        <ele>138</ele>
        <time>2020-02-16T11:29:08Z</time>
      </trkpt>
      <trkpt lat="48.78119" lon="2.07312">
        <ele>139</ele>
        <time>2020-02-16T11:29:12Z</time>
      </trkpt>
      <trkpt lat="48.78118" lon="2.07329">
        <ele>140</ele>
        <time>2020-02-16T11:29:20Z</time>
      </trkpt>
      <trkpt lat="48.78117" lon="2.07337">
        <ele>140</ele>
        <time>2020-02-16T11:29:24Z</time>
      </trkpt>
      <trkpt lat="48.78117" lon="2.07345">
        <ele>140</ele>
        <time>2020-02-16T11:29:28Z</time>
      </trkpt>
      <trkpt lat="48.78117" lon="2.07352">
        <ele>141</ele>
        <time>2020-02-16T11:29:32Z</time>
      </trkpt>
      <trkpt lat="48.78117" lon="2.07359">
        <ele>141</ele>
        <time>2020-02-16T11:29:35Z</time>
      </trkpt>
      <trkpt lat="48.78117" lon="2.07375">
        <ele>139</ele>
        <time>2020-02-16T11:29:43Z</time>
      </trkpt>
      <trkpt lat="48.78118" lon="2.07392">
        <ele>140</ele>
        <time>2020-02-16T11:29:51Z</time>
      </trkpt>
      <trkpt lat="48.78118" lon="2.07399">
        <ele>139</ele>
        <time>2020-02-16T11:29:55Z</time>
      </trkpt>
      <trkpt lat="48.78123" lon="2.07414">
        <ele>139</ele>
        <time>2020-02-16T11:30:03Z</time>
      </trkpt>
      <trkpt lat="48.78125" lon="2.07421">
        <ele>138</ele>
        <time>2020-02-16T11:30:07Z</time>
      </trkpt>
      <trkpt lat="48.78125" lon="2.07428">
        <ele>137</ele>
        <time>2020-02-16T11:30:10Z</time>
      </trkpt>
      <trkpt lat="48.78127" lon="2.07435">
        <ele>137</ele>
        <time>2020-02-16T11:30:14Z</time>
      </trkpt>
      <trkpt lat="48.78128" lon="2.07443">
        <ele>138</ele>
        <time>2020-02-16T11:30:18Z</time>
      </trkpt>
      <trkpt lat="48.78129" lon="2.0745">
        <ele>137</ele>
        <time>2020-02-16T11:30:22Z</time>
      </trkpt>
      <trkpt lat="48.78131" lon="2.07466">
        <ele>141</ele>
        <time>2020-02-16T11:30:30Z</time>
      </trkpt>
      <trkpt lat="48.78132" lon="2.07473">
        <ele>141</ele>
        <time>2020-02-16T11:30:34Z</time>
      </trkpt>
      <trkpt lat="48.78133" lon="2.07481">
        <ele>140</ele>
        <time>2020-02-16T11:30:38Z</time>
      </trkpt>
      <trkpt lat="48.78136" lon="2.07503">
        <ele>139</ele>
        <time>2020-02-16T11:30:50Z</time>
      </trkpt>
      <trkpt lat="48.78148" lon="2.07559">
        <ele>139</ele>
        <time>2020-02-16T11:31:18Z</time>
      </trkpt>
      <trkpt lat="48.78152" lon="2.07573">
        <ele>140</ele>
        <time>2020-02-16T11:31:25Z</time>
      </trkpt>
      <trkpt lat="48.78156" lon="2.07586">
        <ele>140</ele>
        <time>2020-02-16T11:31:33Z</time>
      </trkpt>
      <trkpt lat="48.78162" lon="2.07598">
        <ele>139</ele>
        <time>2020-02-16T11:31:41Z</time>
      </trkpt>
      <trkpt lat="48.7818" lon="2.07632">
        <ele>139</ele>
        <time>2020-02-16T11:32:05Z</time>
      </trkpt>
      <trkpt lat="48.78186" lon="2.07644">
        <ele>139</ele>
        <time>2020-02-16T11:32:13Z</time>
      </trkpt>
      <trkpt lat="48.78193" lon="2.07655">
        <ele>139</ele>
        <time>2020-02-16T11:32:20Z</time>
      </trkpt>
      <trkpt lat="48.78216" lon="2.07678">
        <ele>138</ele>
        <time>2020-02-16T11:32:39Z</time>
      </trkpt>
      <trkpt lat="48.78223" lon="2.07688">
        <ele>141</ele>
        <time>2020-02-16T11:32:48Z</time>
      </trkpt>
      <trkpt lat="48.78231" lon="2.07697">
        <ele>139</ele>
        <time>2020-02-16T11:32:55Z</time>
      </trkpt>
      <trkpt lat="48.78238" lon="2.07706">
        <ele>139</ele>
        <time>2020-02-16T11:33:02Z</time>
      </trkpt>
      <trkpt lat="48.78243" lon="2.07713">
        <ele>140</ele>
        <time>2020-02-16T11:33:08Z</time>
      </trkpt>
      <trkpt lat="48.78247" lon="2.07719">
        <ele>141</ele>
        <time>2020-02-16T11:33:12Z</time>
      </trkpt>
      <trkpt lat="48.78251" lon="2.07725">
        <ele>140</ele>
        <time>2020-02-16T11:33:16Z</time>
      </trkpt>
      <trkpt lat="48.78256" lon="2.07729">
        <ele>140</ele>
        <time>2020-02-16T11:33:20Z</time>
      </trkpt>
      <trkpt lat="48.78261" lon="2.07732">
        <ele>140</ele>
        <time>2020-02-16T11:33:24Z</time>
      </trkpt>
      <trkpt lat="48.78272" lon="2.07736">
        <ele>139</ele>
        <time>2020-02-16T11:33:32Z</time>
      </trkpt>
      <trkpt lat="48.78276" lon="2.0774">
        <ele>138</ele>
        <time>2020-02-16T11:33:36Z</time>
      </trkpt>
      <trkpt lat="48.7828" lon="2.07743">
        <ele>138</ele>
        <time>2020-02-16T11:33:40Z</time>
      </trkpt>
      <trkpt lat="48.78285" lon="2.07747">
        <ele>139</ele>
        <time>2020-02-16T11:33:44Z</time>
      </trkpt>
      <trkpt lat="48.78287" lon="2.07754">
        <ele>140</ele>
        <time>2020-02-16T11:33:48Z</time>
      </trkpt>
      <trkpt lat="48.78288" lon="2.07762">
        <ele>140</ele>
        <time>2020-02-16T11:33:52Z</time>
      </trkpt>
      <trkpt lat="48.78292" lon="2.07769">
        <ele>139</ele>
        <time>2020-02-16T11:33:56Z</time>
      </trkpt>
      <trkpt lat="48.783" lon="2.07778">
        <ele>139</ele>
        <time>2020-02-16T11:34:02Z</time>
      </trkpt>
      <trkpt lat="48.78303" lon="2.07784">
        <ele>139</ele>
        <time>2020-02-16T11:34:07Z</time>
      </trkpt>
      <trkpt lat="48.78308" lon="2.07797">
        <ele>139</ele>
        <time>2020-02-16T11:34:16Z</time>
      </trkpt>
      <trkpt lat="48.78318" lon="2.07826">
        <ele>138</ele>
        <time>2020-02-16T11:34:34Z</time>
      </trkpt>
      <trkpt lat="48.78323" lon="2.07838">
        <ele>139</ele>
        <time>2020-02-16T11:34:41Z</time>
      </trkpt>
      <trkpt lat="48.7833" lon="2.07849">
        <ele>139</ele>
        <time>2020-02-16T11:34:48Z</time>
      </trkpt>
      <trkpt lat="48.78342" lon="2.07872">
        <ele>139</ele>
        <time>2020-02-16T11:35:02Z</time>
      </trkpt>
      <trkpt lat="48.78349" lon="2.07882">
        <ele>138</ele>
        <time>2020-02-16T11:35:09Z</time>
      </trkpt>
      <trkpt lat="48.78365" lon="2.0792">
        <ele>138</ele>
        <time>2020-02-16T11:35:31Z</time>
      </trkpt>
      <trkpt lat="48.78377" lon="2.07976">
        <ele>139</ele>
        <time>2020-02-16T11:36:02Z</time>
      </trkpt>
      <trkpt lat="48.78379" lon="2.07991">
        <ele>139</ele>
        <time>2020-02-16T11:36:10Z</time>
      </trkpt>
      <trkpt lat="48.7838" lon="2.08022">
        <ele>139</ele>
        <time>2020-02-16T11:36:26Z</time>
      </trkpt>
      <trkpt lat="48.78381" lon="2.08037">
        <ele>140</ele>
        <time>2020-02-16T11:36:34Z</time>
      </trkpt>
      <trkpt lat="48.78381" lon="2.08043">
        <ele>140</ele>
        <time>2020-02-16T11:37:01Z</time>
      </trkpt>
      <trkpt lat="48.78375" lon="2.08044">
        <ele>140</ele>
        <time>2020-02-16T11:39:07Z</time>
      </trkpt>
      <trkpt lat="48.78373" lon="2.08053">
        <ele>141</ele>
        <time>2020-02-16T11:42:08Z</time>
      </trkpt>
      <trkpt lat="48.78376" lon="2.0806">
        <ele>141</ele>
        <time>2020-02-16T11:42:12Z</time>
      </trkpt>
      <trkpt lat="48.7838" lon="2.08065">
        <ele>141</ele>
        <time>2020-02-16T11:42:16Z</time>
      </trkpt>
      <trkpt lat="48.78387" lon="2.08078">
        <ele>141</ele>
        <time>2020-02-16T11:42:23Z</time>
      </trkpt>
      <trkpt lat="48.78399" lon="2.08093">
        <ele>140</ele>
        <time>2020-02-16T11:42:34Z</time>
      </trkpt>
      <trkpt lat="48.784" lon="2.081">
        <ele>140</ele>
        <time>2020-02-16T11:42:39Z</time>
      </trkpt>
      <trkpt lat="48.784" lon="2.08109">
        <ele>141</ele>
        <time>2020-02-16T11:42:46Z</time>
      </trkpt>
      <trkpt lat="48.78396" lon="2.08118">
        <ele>142</ele>
        <time>2020-02-16T11:42:53Z</time>
      </trkpt>
      <trkpt lat="48.78393" lon="2.08129">
        <ele>141</ele>
        <time>2020-02-16T11:43:03Z</time>
      </trkpt>
      <trkpt lat="48.78391" lon="2.08134">
        <ele>142</ele>
        <time>2020-02-16T11:43:08Z</time>
      </trkpt>
      <trkpt lat="48.78387" lon="2.08139">
        <ele>144</ele>
        <time>2020-02-16T11:44:17Z</time>
      </trkpt>
      <trkpt lat="48.78378" lon="2.08136">
        <ele>142</ele>
        <time>2020-02-16T11:46:38Z</time>
      </trkpt>
      <trkpt lat="48.77944" lon="2.09466">
        <ele>125</ele>
        <time>2020-02-16T12:53:00Z</time>
      </trkpt>
      <trkpt lat="48.77944" lon="2.09466">
        <ele>125</ele>
        <time>2020-02-16T12:53:00Z</time>
      </trkpt>
      <trkpt lat="48.77942" lon="2.09477">
        <ele>124</ele>
        <time>2020-02-16T12:53:12Z</time>
      </trkpt>
      <trkpt lat="48.77947" lon="2.09493">
        <ele>124</ele>
        <time>2020-02-16T12:53:18Z</time>
      </trkpt>
      <trkpt lat="48.77948" lon="2.09503">
        <ele>124</ele>
        <time>2020-02-16T12:53:24Z</time>
      </trkpt>
      <trkpt lat="48.77949" lon="2.0951">
        <ele>124</ele>
        <time>2020-02-16T12:53:29Z</time>
      </trkpt>
      <trkpt lat="48.77941" lon="2.09514">
        <ele>125</ele>
        <time>2020-02-16T12:53:39Z</time>
      </trkpt>
      <trkpt lat="48.77938" lon="2.09521">
        <ele>126</ele>
        <time>2020-02-16T12:53:43Z</time>
      </trkpt>
      <trkpt lat="48.77935" lon="2.09527">
        <ele>125</ele>
        <time>2020-02-16T12:53:47Z</time>
      </trkpt>
      <trkpt lat="48.77933" lon="2.09534">
        <ele>126</ele>
        <time>2020-02-16T12:53:51Z</time>
      </trkpt>
      <trkpt lat="48.7793" lon="2.0954">
        <ele>125</ele>
        <time>2020-02-16T12:53:55Z</time>
      </trkpt>
      <trkpt lat="48.77928" lon="2.09547">
        <ele>125</ele>
        <time>2020-02-16T12:54:00Z</time>
      </trkpt>
      <trkpt lat="48.77926" lon="2.09553">
        <ele>125</ele>
        <time>2020-02-16T12:54:05Z</time>
      </trkpt>
      <trkpt lat="48.7792" lon="2.09557">
        <ele>125</ele>
        <time>2020-02-16T12:54:26Z</time>
      </trkpt>
      <trkpt lat="48.77914" lon="2.09556">
        <ele>125</ele>
        <time>2020-02-16T12:54:33Z</time>
      </trkpt>
      <trkpt lat="48.77907" lon="2.09553">
        <ele>126</ele>
        <time>2020-02-16T12:54:43Z</time>
      </trkpt>
      <trkpt lat="48.77902" lon="2.09553">
        <ele>126</ele>
        <time>2020-02-16T12:54:49Z</time>
      </trkpt>
      <trkpt lat="48.77897" lon="2.09548">
        <ele>125</ele>
        <time>2020-02-16T12:54:55Z</time>
      </trkpt>
      <trkpt lat="48.77892" lon="2.09549">
        <ele>125</ele>
        <time>2020-02-16T12:54:59Z</time>
      </trkpt>
      <trkpt lat="48.77882" lon="2.09553">
        <ele>124</ele>
        <time>2020-02-16T12:55:07Z</time>
      </trkpt>
      <trkpt lat="48.77876" lon="2.09553">
        <ele>125</ele>
        <time>2020-02-16T12:55:11Z</time>
      </trkpt>
      <trkpt lat="48.77872" lon="2.09552">
        <ele>126</ele>
        <time>2020-02-16T12:55:15Z</time>
      </trkpt>
      <trkpt lat="48.77862" lon="2.0955">
        <ele>126</ele>
        <time>2020-02-16T12:55:23Z</time>
      </trkpt>
      <trkpt lat="48.77857" lon="2.09549">
        <ele>126</ele>
        <time>2020-02-16T12:55:27Z</time>
      </trkpt>
      <trkpt lat="48.77852" lon="2.09548">
        <ele>127</ele>
        <time>2020-02-16T12:55:31Z</time>
      </trkpt>
      <trkpt lat="48.77848" lon="2.09547">
        <ele>127</ele>
        <time>2020-02-16T12:55:35Z</time>
      </trkpt>
      <trkpt lat="48.77838" lon="2.09544">
        <ele>126</ele>
        <time>2020-02-16T12:55:44Z</time>
      </trkpt>
      <trkpt lat="48.77824" lon="2.09543">
        <ele>126</ele>
        <time>2020-02-16T12:55:59Z</time>
      </trkpt>
      <trkpt lat="48.77819" lon="2.09544">
        <ele>126</ele>
        <time>2020-02-16T12:56:03Z</time>
      </trkpt>
      <trkpt lat="48.7781" lon="2.0955">
        <ele>125</ele>
        <time>2020-02-16T12:56:12Z</time>
      </trkpt>
      <trkpt lat="48.77806" lon="2.09555">
        <ele>125</ele>
        <time>2020-02-16T12:56:17Z</time>
      </trkpt>
      <trkpt lat="48.77803" lon="2.09561">
        <ele>124</ele>
        <time>2020-02-16T12:56:22Z</time>
      </trkpt>
      <trkpt lat="48.778" lon="2.09566">
        <ele>124</ele>
        <time>2020-02-16T12:56:26Z</time>
      </trkpt>
      <trkpt lat="48.77789" lon="2.09594">
        <ele>125</ele>
        <time>2020-02-16T12:56:43Z</time>
      </trkpt>
      <trkpt lat="48.77789" lon="2.09601">
        <ele>126</ele>
        <time>2020-02-16T12:56:46Z</time>
      </trkpt>
      <trkpt lat="48.77788" lon="2.09609">
        <ele>126</ele>
        <time>2020-02-16T12:56:50Z</time>
      </trkpt>
      <trkpt lat="48.77785" lon="2.09632">
        <ele>123</ele>
        <time>2020-02-16T12:57:02Z</time>
      </trkpt>
      <trkpt lat="48.77783" lon="2.09645">
        <ele>123</ele>
        <time>2020-02-16T12:57:12Z</time>
      </trkpt>
      <trkpt lat="48.77783" lon="2.09653">
        <ele>125</ele>
        <time>2020-02-16T12:57:17Z</time>
      </trkpt>
      <trkpt lat="48.77781" lon="2.09668">
        <ele>123</ele>
        <time>2020-02-16T12:57:25Z</time>
      </trkpt>
      <trkpt lat="48.7778" lon="2.09677">
        <ele>123</ele>
        <time>2020-02-16T12:57:29Z</time>
      </trkpt>
      <trkpt lat="48.77776" lon="2.09681">
        <ele>122</ele>
        <time>2020-02-16T12:57:34Z</time>
      </trkpt>
      <trkpt lat="48.7777" lon="2.0968">
        <ele>122</ele>
        <time>2020-02-16T12:57:42Z</time>
      </trkpt>
      <trkpt lat="48.77766" lon="2.09681">
        <ele>121</ele>
        <time>2020-02-16T12:57:46Z</time>
      </trkpt>
      <trkpt lat="48.77761" lon="2.09685">
        <ele>121</ele>
        <time>2020-02-16T12:57:50Z</time>
      </trkpt>
      <trkpt lat="48.77753" lon="2.09694">
        <ele>119</ele>
        <time>2020-02-16T12:57:59Z</time>
      </trkpt>
      <trkpt lat="48.77748" lon="2.09696">
        <ele>119</ele>
        <time>2020-02-16T12:58:03Z</time>
      </trkpt>
      <trkpt lat="48.77743" lon="2.09694">
        <ele>121</ele>
        <time>2020-02-16T12:58:08Z</time>
      </trkpt>
      <trkpt lat="48.77738" lon="2.09695">
        <ele>121</ele>
        <time>2020-02-16T12:58:13Z</time>
      </trkpt>
      <trkpt lat="48.77734" lon="2.09699">
        <ele>120</ele>
        <time>2020-02-16T12:58:18Z</time>
      </trkpt>
      <trkpt lat="48.77729" lon="2.09703">
        <ele>121</ele>
        <time>2020-02-16T12:58:23Z</time>
      </trkpt>
      <trkpt lat="48.77726" lon="2.0971">
        <ele>122</ele>
        <time>2020-02-16T12:58:28Z</time>
      </trkpt>
      <trkpt lat="48.77722" lon="2.09713">
        <ele>123</ele>
        <time>2020-02-16T12:58:33Z</time>
      </trkpt>
      <trkpt lat="48.77713" lon="2.0972">
        <ele>122</ele>
        <time>2020-02-16T12:58:42Z</time>
      </trkpt>
      <trkpt lat="48.77693" lon="2.09728">
        <ele>122</ele>
        <time>2020-02-16T12:58:59Z</time>
      </trkpt>
      <trkpt lat="48.77688" lon="2.09727">
        <ele>123</ele>
        <time>2020-02-16T12:59:04Z</time>
      </trkpt>
      <trkpt lat="48.77683" lon="2.09729">
        <ele>123</ele>
        <time>2020-02-16T12:59:09Z</time>
      </trkpt>
      <trkpt lat="48.77678" lon="2.09729">
        <ele>123</ele>
        <time>2020-02-16T12:59:14Z</time>
      </trkpt>
      <trkpt lat="48.77673" lon="2.09732">
        <ele>124</ele>
        <time>2020-02-16T12:59:28Z</time>
      </trkpt>
      <trkpt lat="48.77668" lon="2.09725">
        <ele>124</ele>
        <time>2020-02-16T13:00:09Z</time>
      </trkpt>
      <trkpt lat="48.77661" lon="2.09723">
        <ele>125</ele>
        <time>2020-02-16T13:00:16Z</time>
      </trkpt>
      <trkpt lat="48.77656" lon="2.09722">
        <ele>127</ele>
        <time>2020-02-16T13:00:24Z</time>
      </trkpt>
      <trkpt lat="48.77649" lon="2.09719">
        <ele>127</ele>
        <time>2020-02-16T13:00:36Z</time>
      </trkpt>
      <trkpt lat="48.77638" lon="2.09721">
        <ele>130</ele>
        <time>2020-02-16T13:00:53Z</time>
      </trkpt>
      <trkpt lat="48.77634" lon="2.09726">
        <ele>131</ele>
        <time>2020-02-16T13:00:57Z</time>
      </trkpt>
      <trkpt lat="48.77631" lon="2.09731">
        <ele>132</ele>
        <time>2020-02-16T13:01:01Z</time>
      </trkpt>
      <trkpt lat="48.77625" lon="2.09736">
        <ele>131</ele>
        <time>2020-02-16T13:01:10Z</time>
      </trkpt>
      <trkpt lat="48.77621" lon="2.09741">
        <ele>131</ele>
        <time>2020-02-16T13:01:15Z</time>
      </trkpt>
      <trkpt lat="48.77612" lon="2.09743">
        <ele>131</ele>
        <time>2020-02-16T13:01:25Z</time>
      </trkpt>
      <trkpt lat="48.77606" lon="2.09742">
        <ele>131</ele>
        <time>2020-02-16T13:01:30Z</time>
      </trkpt>
      <trkpt lat="48.77596" lon="2.0974">
        <ele>130</ele>
        <time>2020-02-16T13:01:40Z</time>
      </trkpt>
      <trkpt lat="48.77586" lon="2.09737">
        <ele>132</ele>
        <time>2020-02-16T13:01:50Z</time>
      </trkpt>
      <trkpt lat="48.77581" lon="2.09735">
        <ele>132</ele>
        <time>2020-02-16T13:01:55Z</time>
      </trkpt>
      <trkpt lat="48.77577" lon="2.09733">
        <ele>133</ele>
        <time>2020-02-16T13:02:00Z</time>
      </trkpt>
      <trkpt lat="48.7757" lon="2.0973">
        <ele>133</ele>
        <time>2020-02-16T13:02:07Z</time>
      </trkpt>
      <trkpt lat="48.77562" lon="2.09732">
        <ele>133</ele>
        <time>2020-02-16T13:02:15Z</time>
      </trkpt>
      <trkpt lat="48.77559" lon="2.09737">
        <ele>133</ele>
        <time>2020-02-16T13:02:20Z</time>
      </trkpt>
      <trkpt lat="48.77556" lon="2.0975">
        <ele>133</ele>
        <time>2020-02-16T13:02:30Z</time>
      </trkpt>
      <trkpt lat="48.77556" lon="2.09757">
        <ele>132</ele>
        <time>2020-02-16T13:02:35Z</time>
      </trkpt>
      <trkpt lat="48.77552" lon="2.09771">
        <ele>129</ele>
        <time>2020-02-16T13:02:49Z</time>
      </trkpt>
      <trkpt lat="48.77543" lon="2.0979">
        <ele>128</ele>
        <time>2020-02-16T13:03:05Z</time>
      </trkpt>
      <trkpt lat="48.77539" lon="2.09803">
        <ele>129</ele>
        <time>2020-02-16T13:03:12Z</time>
      </trkpt>
      <trkpt lat="48.77531" lon="2.09828">
        <ele>127</ele>
        <time>2020-02-16T13:03:28Z</time>
      </trkpt>
      <trkpt lat="48.77528" lon="2.09843">
        <ele>126</ele>
        <time>2020-02-16T13:03:37Z</time>
      </trkpt>
      <trkpt lat="48.77516" lon="2.09868">
        <ele>124</ele>
        <time>2020-02-16T13:03:53Z</time>
      </trkpt>
      <trkpt lat="48.77513" lon="2.09882">
        <ele>123</ele>
        <time>2020-02-16T13:04:00Z</time>
      </trkpt>
      <trkpt lat="48.77513" lon="2.09896">
        <ele>122</ele>
        <time>2020-02-16T13:04:07Z</time>
      </trkpt>
      <trkpt lat="48.77519" lon="2.09908">
        <ele>122</ele>
        <time>2020-02-16T13:04:14Z</time>
      </trkpt>
      <trkpt lat="48.77527" lon="2.09916">
        <ele>122</ele>
        <time>2020-02-16T13:04:20Z</time>
      </trkpt>
      <trkpt lat="48.77535" lon="2.09923">
        <ele>121</ele>
        <time>2020-02-16T13:04:28Z</time>
      </trkpt>
      <trkpt lat="48.77541" lon="2.09933">
        <ele>120</ele>
        <time>2020-02-16T13:04:39Z</time>
      </trkpt>
      <trkpt lat="48.77545" lon="2.09951">
        <ele>118</ele>
        <time>2020-02-16T13:04:54Z</time>
      </trkpt>
      <trkpt lat="48.77557" lon="2.09958">
        <ele>119</ele>
        <time>2020-02-16T13:05:10Z</time>
      </trkpt>
      <trkpt lat="48.77572" lon="2.09975">
        <ele>119</ele>
        <time>2020-02-16T13:05:32Z</time>
      </trkpt>
      <trkpt lat="48.77569" lon="2.09988">
        <ele>117</ele>
        <time>2020-02-16T13:05:48Z</time>
      </trkpt>
      <trkpt lat="48.77575" lon="2.09991">
        <ele>116</ele>
        <time>2020-02-16T13:06:31Z</time>
      </trkpt>
      <trkpt lat="48.77578" lon="2.09996">
        <ele>115</ele>
        <time>2020-02-16T13:06:35Z</time>
      </trkpt>
      <trkpt lat="48.77582" lon="2.09999">
        <ele>115</ele>
        <time>2020-02-16T13:06:39Z</time>
      </trkpt>
      <trkpt lat="48.77587" lon="2.10004">
        <ele>115</ele>
        <time>2020-02-16T13:06:43Z</time>
      </trkpt>
      <trkpt lat="48.77591" lon="2.10008">
        <ele>115</ele>
        <time>2020-02-16T13:06:47Z</time>
      </trkpt>
      <trkpt lat="48.77598" lon="2.1002">
        <ele>114</ele>
        <time>2020-02-16T13:06:56Z</time>
      </trkpt>
      <trkpt lat="48.77601" lon="2.10024">
        <ele>115</ele>
        <time>2020-02-16T13:07:01Z</time>
      </trkpt>
      <trkpt lat="48.77604" lon="2.1003">
        <ele>114</ele>
        <time>2020-02-16T13:07:06Z</time>
      </trkpt>
      <trkpt lat="48.776" lon="2.1004">
        <ele>114</ele>
        <time>2020-02-16T13:07:14Z</time>
      </trkpt>
      <trkpt lat="48.77597" lon="2.10046">
        <ele>113</ele>
        <time>2020-02-16T13:07:19Z</time>
      </trkpt>
      <trkpt lat="48.77592" lon="2.10049">
        <ele>111</ele>
        <time>2020-02-16T13:08:20Z</time>
      </trkpt>
      <trkpt lat="48.77589" lon="2.10064">
        <ele>112</ele>
        <time>2020-02-16T13:11:37Z</time>
      </trkpt>
      <trkpt lat="48.77586" lon="2.10077">
        <ele>111</ele>
        <time>2020-02-16T13:11:54Z</time>
      </trkpt>
      <trkpt lat="48.77586" lon="2.10094">
        <ele>111</ele>
        <time>2020-02-16T13:12:07Z</time>
      </trkpt>
      <trkpt lat="48.77589" lon="2.10119">
        <ele>112</ele>
        <time>2020-02-16T13:12:29Z</time>
      </trkpt>
      <trkpt lat="48.77585" lon="2.10134">
        <ele>111</ele>
        <time>2020-02-16T13:12:44Z</time>
      </trkpt>
      <trkpt lat="48.77582" lon="2.10155">
        <ele>110</ele>
        <time>2020-02-16T13:13:28Z</time>
      </trkpt>
      <trkpt lat="48.77581" lon="2.10173">
        <ele>112</ele>
        <time>2020-02-16T13:13:43Z</time>
      </trkpt>
      <trkpt lat="48.77579" lon="2.10202">
        <ele>112</ele>
        <time>2020-02-16T13:14:00Z</time>
      </trkpt>
      <trkpt lat="48.77575" lon="2.10227">
        <ele>110</ele>
        <time>2020-02-16T13:14:21Z</time>
      </trkpt>
      <trkpt lat="48.77569" lon="2.10242">
        <ele>111</ele>
        <time>2020-02-16T13:14:31Z</time>
      </trkpt>
      <trkpt lat="48.77573" lon="2.10256">
        <ele>110</ele>
        <time>2020-02-16T13:14:39Z</time>
      </trkpt>
      <trkpt lat="48.77576" lon="2.10276">
        <ele>109</ele>
        <time>2020-02-16T13:14:56Z</time>
      </trkpt>
      <trkpt lat="48.77578" lon="2.10291">
        <ele>109</ele>
        <time>2020-02-16T13:15:03Z</time>
      </trkpt>
      <trkpt lat="48.7758" lon="2.10303">
        <ele>110</ele>
        <time>2020-02-16T13:15:12Z</time>
      </trkpt>
      <trkpt lat="48.77579" lon="2.10317">
        <ele>109</ele>
        <time>2020-02-16T13:15:44Z</time>
      </trkpt>
      <trkpt lat="48.77574" lon="2.1033">
        <ele>109</ele>
        <time>2020-02-16T13:16:38Z</time>
      </trkpt>
      <trkpt lat="48.77572" lon="2.10347">
        <ele>109</ele>
        <time>2020-02-16T13:16:53Z</time>
      </trkpt>
      <trkpt lat="48.77574" lon="2.1036">
        <ele>109</ele>
        <time>2020-02-16T13:17:01Z</time>
      </trkpt>
      <trkpt lat="48.77575" lon="2.10381">
        <ele>110</ele>
        <time>2020-02-16T13:17:20Z</time>
      </trkpt>
      <trkpt lat="48.77566" lon="2.10397">
        <ele>110</ele>
        <time>2020-02-16T13:17:34Z</time>
      </trkpt>
      <trkpt lat="48.77568" lon="2.1041">
        <ele>110</ele>
        <time>2020-02-16T13:17:41Z</time>
      </trkpt>
      <trkpt lat="48.77569" lon="2.10424">
        <ele>109</ele>
        <time>2020-02-16T13:17:50Z</time>
      </trkpt>
      <trkpt lat="48.77561" lon="2.10436">
        <ele>109</ele>
        <time>2020-02-16T13:17:58Z</time>
      </trkpt>
      <trkpt lat="48.77559" lon="2.10449">
        <ele>110</ele>
        <time>2020-02-16T13:18:07Z</time>
      </trkpt>
      <trkpt lat="48.77556" lon="2.10467">
        <ele>109</ele>
        <time>2020-02-16T13:18:19Z</time>
      </trkpt>
      <trkpt lat="48.77555" lon="2.1048">
        <ele>109</ele>
        <time>2020-02-16T13:18:28Z</time>
      </trkpt>
      <trkpt lat="48.77558" lon="2.10494">
        <ele>110</ele>
        <time>2020-02-16T13:18:38Z</time>
      </trkpt>
      <trkpt lat="48.77561" lon="2.10507">
        <ele>109</ele>
        <time>2020-02-16T13:18:59Z</time>
      </trkpt>
      <trkpt lat="48.77555" lon="2.10535">
        <ele>109</ele>
        <time>2020-02-16T13:19:37Z</time>
      </trkpt>
      <trkpt lat="48.77547" lon="2.10543">
        <ele>110</ele>
        <time>2020-02-16T13:19:45Z</time>
      </trkpt>
      <trkpt lat="48.77538" lon="2.10545">
        <ele>110</ele>
        <time>2020-02-16T13:19:50Z</time>
      </trkpt>
      <trkpt lat="48.7753" lon="2.10551">
        <ele>111</ele>
        <time>2020-02-16T13:19:57Z</time>
      </trkpt>
      <trkpt lat="48.77518" lon="2.10574">
        <ele>108</ele>
        <time>2020-02-16T13:20:18Z</time>
      </trkpt>
      <trkpt lat="48.77501" lon="2.1061">
        <ele>109</ele>
        <time>2020-02-16T13:20:48Z</time>
      </trkpt>
      <trkpt lat="48.77495" lon="2.1063">
        <ele>108</ele>
        <time>2020-02-16T13:21:08Z</time>
      </trkpt>
      <trkpt lat="48.77488" lon="2.10641">
        <ele>111</ele>
        <time>2020-02-16T13:21:21Z</time>
      </trkpt>
      <trkpt lat="48.77482" lon="2.10652">
        <ele>108</ele>
        <time>2020-02-16T13:21:39Z</time>
      </trkpt>
      <trkpt lat="48.77472" lon="2.1066">
        <ele>108</ele>
        <time>2020-02-16T13:21:54Z</time>
      </trkpt>
      <trkpt lat="48.77465" lon="2.1067">
        <ele>108</ele>
        <time>2020-02-16T13:22:05Z</time>
      </trkpt>
      <trkpt lat="48.77462" lon="2.10681">
        <ele>109</ele>
        <time>2020-02-16T13:22:23Z</time>
      </trkpt>
      <trkpt lat="48.77454" lon="2.10695">
        <ele>108</ele>
        <time>2020-02-16T13:22:52Z</time>
      </trkpt>
      <trkpt lat="48.77448" lon="2.10723">
        <ele>109</ele>
        <time>2020-02-16T13:23:11Z</time>
      </trkpt>
      <trkpt lat="48.77446" lon="2.10736">
        <ele>108</ele>
        <time>2020-02-16T13:23:18Z</time>
      </trkpt>
      <trkpt lat="48.77449" lon="2.10769">
        <ele>109</ele>
        <time>2020-02-16T13:23:39Z</time>
      </trkpt>
      <trkpt lat="48.77448" lon="2.10815">
        <ele>107</ele>
        <time>2020-02-16T13:24:04Z</time>
      </trkpt>
      <trkpt lat="48.7745" lon="2.10829">
        <ele>108</ele>
        <time>2020-02-16T13:24:11Z</time>
      </trkpt>
      <trkpt lat="48.77455" lon="2.10859">
        <ele>109</ele>
        <time>2020-02-16T13:24:27Z</time>
      </trkpt>
      <trkpt lat="48.77454" lon="2.10874">
        <ele>110</ele>
        <time>2020-02-16T13:24:35Z</time>
      </trkpt>
      <trkpt lat="48.7745" lon="2.10886">
        <ele>110</ele>
        <time>2020-02-16T13:24:41Z</time>
      </trkpt>
      <trkpt lat="48.77453" lon="2.109">
        <ele>109</ele>
        <time>2020-02-16T13:24:49Z</time>
      </trkpt>
      <trkpt lat="48.77459" lon="2.1091">
        <ele>110</ele>
        <time>2020-02-16T13:24:56Z</time>
      </trkpt>
      <trkpt lat="48.77468" lon="2.10918">
        <ele>109</ele>
        <time>2020-02-16T13:25:04Z</time>
      </trkpt>
      <trkpt lat="48.77477" lon="2.1092">
        <ele>109</ele>
        <time>2020-02-16T13:25:14Z</time>
      </trkpt>
      <trkpt lat="48.77487" lon="2.10916">
        <ele>110</ele>
        <time>2020-02-16T13:25:23Z</time>
      </trkpt>
      <trkpt lat="48.77497" lon="2.10916">
        <ele>110</ele>
        <time>2020-02-16T13:25:33Z</time>
      </trkpt>
      <trkpt lat="48.77512" lon="2.10902">
        <ele>109</ele>
        <time>2020-02-16T13:25:50Z</time>
      </trkpt>
      <trkpt lat="48.77519" lon="2.10911">
        <ele>109</ele>
        <time>2020-02-16T13:25:55Z</time>
      </trkpt>
      <trkpt lat="48.77529" lon="2.10913">
        <ele>111</ele>
        <time>2020-02-16T13:26:05Z</time>
      </trkpt>
      <trkpt lat="48.77539" lon="2.10913">
        <ele>111</ele>
        <time>2020-02-16T13:26:14Z</time>
      </trkpt>
      <trkpt lat="48.77546" lon="2.10933">
        <ele>109</ele>
        <time>2020-02-16T13:26:34Z</time>
      </trkpt>
      <trkpt lat="48.77542" lon="2.10946">
        <ele>108</ele>
        <time>2020-02-16T13:26:43Z</time>
      </trkpt>
      <trkpt lat="48.7754" lon="2.10951">
        <ele>108</ele>
        <time>2020-02-16T13:28:35Z</time>
      </trkpt>
      <trkpt lat="48.77539" lon="2.10961">
        <ele>110</ele>
        <time>2020-02-16T13:31:29Z</time>
      </trkpt>
      <trkpt lat="48.77536" lon="2.10977">
        <ele>109</ele>
        <time>2020-02-16T13:31:36Z</time>
      </trkpt>
      <trkpt lat="48.77533" lon="2.10985">
        <ele>109</ele>
        <time>2020-02-16T13:31:40Z</time>
      </trkpt>
      <trkpt lat="48.77532" lon="2.10992">
        <ele>110</ele>
        <time>2020-02-16T13:31:44Z</time>
      </trkpt>
      <trkpt lat="48.77532" lon="2.10996">
        <ele>109</ele>
        <time>2020-02-16T13:32:44Z</time>
      </trkpt>
      <trkpt lat="48.77526" lon="2.11">
        <ele>110</ele>
        <time>2020-02-16T13:33:08Z</time>
      </trkpt>
      <trkpt lat="48.77523" lon="2.11009">
        <ele>110</ele>
        <time>2020-02-16T13:33:24Z</time>
      </trkpt>
      <trkpt lat="48.7752" lon="2.11015">
        <ele>110</ele>
        <time>2020-02-16T13:33:29Z</time>
      </trkpt>
      <trkpt lat="48.77516" lon="2.11026">
        <ele>109</ele>
        <time>2020-02-16T13:33:37Z</time>
      </trkpt>
      <trkpt lat="48.77514" lon="2.11037">
        <ele>110</ele>
        <time>2020-02-16T13:33:43Z</time>
      </trkpt>
      <trkpt lat="48.77514" lon="2.11053">
        <ele>109</ele>
        <time>2020-02-16T13:33:50Z</time>
      </trkpt>
      <trkpt lat="48.77517" lon="2.11059">
        <ele>109</ele>
        <time>2020-02-16T13:33:55Z</time>
      </trkpt>
      <trkpt lat="48.77527" lon="2.11065">
        <ele>109</ele>
        <time>2020-02-16T13:34:03Z</time>
      </trkpt>
      <trkpt lat="48.77538" lon="2.11069">
        <ele>111</ele>
        <time>2020-02-16T13:34:11Z</time>
      </trkpt>
      <trkpt lat="48.77543" lon="2.11071">
        <ele>111</ele>
        <time>2020-02-16T13:34:15Z</time>
      </trkpt>
      <trkpt lat="48.77557" lon="2.11082">
        <ele>109</ele>
        <time>2020-02-16T13:34:27Z</time>
      </trkpt>
      <trkpt lat="48.77567" lon="2.11093">
        <ele>109</ele>
        <time>2020-02-16T13:34:35Z</time>
      </trkpt>
      <trkpt lat="48.77572" lon="2.11097">
        <ele>109</ele>
        <time>2020-02-16T13:34:39Z</time>
      </trkpt>
      <trkpt lat="48.77576" lon="2.11103">
        <ele>110</ele>
        <time>2020-02-16T13:34:43Z</time>
      </trkpt>
      <trkpt lat="48.77579" lon="2.1111">
        <ele>110</ele>
        <time>2020-02-16T13:34:47Z</time>
      </trkpt>
      <trkpt lat="48.77582" lon="2.11118">
        <ele>110</ele>
        <time>2020-02-16T13:34:51Z</time>
      </trkpt>
      <trkpt lat="48.77583" lon="2.11125">
        <ele>110</ele>
        <time>2020-02-16T13:34:55Z</time>
      </trkpt>
      <trkpt lat="48.77585" lon="2.11132">
        <ele>109</ele>
        <time>2020-02-16T13:34:59Z</time>
      </trkpt>
      <trkpt lat="48.7759" lon="2.11146">
        <ele>110</ele>
        <time>2020-02-16T13:35:07Z</time>
      </trkpt>
      <trkpt lat="48.77591" lon="2.11154">
        <ele>111</ele>
        <time>2020-02-16T13:35:11Z</time>
      </trkpt>
      <trkpt lat="48.77591" lon="2.11161">
        <ele>110</ele>
        <time>2020-02-16T13:35:15Z</time>
      </trkpt>
      <trkpt lat="48.77594" lon="2.11168">
        <ele>110</ele>
        <time>2020-02-16T13:35:19Z</time>
      </trkpt>
      <trkpt lat="48.77597" lon="2.11173">
        <ele>110</ele>
        <time>2020-02-16T13:35:22Z</time>
      </trkpt>
      <trkpt lat="48.776" lon="2.1118">
        <ele>110</ele>
        <time>2020-02-16T13:35:26Z</time>
      </trkpt>
      <trkpt lat="48.77602" lon="2.11197">
        <ele>110</ele>
        <time>2020-02-16T13:35:34Z</time>
      </trkpt>
      <trkpt lat="48.77602" lon="2.11205">
        <ele>110</ele>
        <time>2020-02-16T13:35:38Z</time>
      </trkpt>
      <trkpt lat="48.776" lon="2.11213">
        <ele>110</ele>
        <time>2020-02-16T13:35:42Z</time>
      </trkpt>
      <trkpt lat="48.77599" lon="2.11221">
        <ele>110</ele>
        <time>2020-02-16T13:35:47Z</time>
      </trkpt>
      <trkpt lat="48.776" lon="2.11227">
        <ele>109</ele>
        <time>2020-02-16T13:35:50Z</time>
      </trkpt>
      <trkpt lat="48.776" lon="2.11235">
        <ele>109</ele>
        <time>2020-02-16T13:35:53Z</time>
      </trkpt>
      <trkpt lat="48.77598" lon="2.11243">
        <ele>109</ele>
        <time>2020-02-16T13:35:56Z</time>
      </trkpt>
      <trkpt lat="48.77598" lon="2.1125">
        <ele>109</ele>
        <time>2020-02-16T13:35:59Z</time>
      </trkpt>
      <trkpt lat="48.77602" lon="2.11266">
        <ele>109</ele>
        <time>2020-02-16T13:36:06Z</time>
      </trkpt>
      <trkpt lat="48.77603" lon="2.11272">
        <ele>109</ele>
        <time>2020-02-16T13:36:10Z</time>
      </trkpt>
      <trkpt lat="48.77603" lon="2.11288">
        <ele>109</ele>
        <time>2020-02-16T13:36:17Z</time>
      </trkpt>
      <trkpt lat="48.77605" lon="2.11295">
        <ele>109</ele>
        <time>2020-02-16T13:36:21Z</time>
      </trkpt>
      <trkpt lat="48.77608" lon="2.11309">
        <ele>107</ele>
        <time>2020-02-16T13:36:29Z</time>
      </trkpt>
      <trkpt lat="48.77609" lon="2.11317">
        <ele>107</ele>
        <time>2020-02-16T13:36:33Z</time>
      </trkpt>
      <trkpt lat="48.77609" lon="2.11333">
        <ele>108</ele>
        <time>2020-02-16T13:36:40Z</time>
      </trkpt>
      <trkpt lat="48.77605" lon="2.11347">
        <ele>107</ele>
        <time>2020-02-16T13:36:46Z</time>
      </trkpt>
      <trkpt lat="48.77604" lon="2.11375">
        <ele>109</ele>
        <time>2020-02-16T13:37:02Z</time>
      </trkpt>
      <trkpt lat="48.77606" lon="2.11389">
        <ele>109</ele>
        <time>2020-02-16T13:37:10Z</time>
      </trkpt>
      <trkpt lat="48.77609" lon="2.11402">
        <ele>111</ele>
        <time>2020-02-16T13:37:18Z</time>
      </trkpt>
      <trkpt lat="48.77611" lon="2.11418">
        <ele>110</ele>
        <time>2020-02-16T13:37:26Z</time>
      </trkpt>
      <trkpt lat="48.7761" lon="2.11433">
        <ele>110</ele>
        <time>2020-02-16T13:37:34Z</time>
      </trkpt>
      <trkpt lat="48.77608" lon="2.11448">
        <ele>111</ele>
        <time>2020-02-16T13:37:41Z</time>
      </trkpt>
      <trkpt lat="48.77608" lon="2.11462">
        <ele>112</ele>
        <time>2020-02-16T13:37:48Z</time>
      </trkpt>
      <trkpt lat="48.7761" lon="2.11476">
        <ele>111</ele>
        <time>2020-02-16T13:37:55Z</time>
      </trkpt>
      <trkpt lat="48.77613" lon="2.11483">
        <ele>110</ele>
        <time>2020-02-16T13:37:59Z</time>
      </trkpt>
      <trkpt lat="48.77613" lon="2.11492">
        <ele>109</ele>
        <time>2020-02-16T13:38:03Z</time>
      </trkpt>
      <trkpt lat="48.77611" lon="2.11501">
        <ele>109</ele>
        <time>2020-02-16T13:38:07Z</time>
      </trkpt>
      <trkpt lat="48.7761" lon="2.11508">
        <ele>109</ele>
        <time>2020-02-16T13:38:10Z</time>
      </trkpt>
      <trkpt lat="48.77609" lon="2.11515">
        <ele>109</ele>
        <time>2020-02-16T13:38:14Z</time>
      </trkpt>
      <trkpt lat="48.77608" lon="2.11532">
        <ele>111</ele>
        <time>2020-02-16T13:38:22Z</time>
      </trkpt>
      <trkpt lat="48.77606" lon="2.1154">
        <ele>110</ele>
        <time>2020-02-16T13:38:26Z</time>
      </trkpt>
      <trkpt lat="48.77606" lon="2.11547">
        <ele>110</ele>
        <time>2020-02-16T13:38:30Z</time>
      </trkpt>
      <trkpt lat="48.77604" lon="2.11564">
        <ele>110</ele>
        <time>2020-02-16T13:38:38Z</time>
      </trkpt>
      <trkpt lat="48.77606" lon="2.11579">
        <ele>110</ele>
        <time>2020-02-16T13:38:45Z</time>
      </trkpt>
      <trkpt lat="48.77605" lon="2.11588">
        <ele>109</ele>
        <time>2020-02-16T13:38:49Z</time>
      </trkpt>
      <trkpt lat="48.77605" lon="2.11596">
        <ele>109</ele>
        <time>2020-02-16T13:38:53Z</time>
      </trkpt>
      <trkpt lat="48.77605" lon="2.11604">
        <ele>109</ele>
        <time>2020-02-16T13:38:57Z</time>
      </trkpt>
      <trkpt lat="48.77606" lon="2.11619">
        <ele>109</ele>
        <time>2020-02-16T13:39:05Z</time>
      </trkpt>
      <trkpt lat="48.77608" lon="2.11626">
        <ele>108</ele>
        <time>2020-02-16T13:39:09Z</time>
      </trkpt>
      <trkpt lat="48.77611" lon="2.11633">
        <ele>108</ele>
        <time>2020-02-16T13:39:13Z</time>
      </trkpt>
      <trkpt lat="48.77616" lon="2.11647">
        <ele>110</ele>
        <time>2020-02-16T13:39:21Z</time>
      </trkpt>
      <trkpt lat="48.77616" lon="2.11654">
        <ele>111</ele>
        <time>2020-02-16T13:39:24Z</time>
      </trkpt>
      <trkpt lat="48.77617" lon="2.11661">
        <ele>111</ele>
        <time>2020-02-16T13:39:28Z</time>
      </trkpt>
      <trkpt lat="48.77623" lon="2.11674">
        <ele>110</ele>
        <time>2020-02-16T13:39:36Z</time>
      </trkpt>
      <trkpt lat="48.77625" lon="2.11682">
        <ele>110</ele>
        <time>2020-02-16T13:39:40Z</time>
      </trkpt>
      <trkpt lat="48.77625" lon="2.1169">
        <ele>110</ele>
        <time>2020-02-16T13:39:44Z</time>
      </trkpt>
      <trkpt lat="48.77627" lon="2.11697">
        <ele>109</ele>
        <time>2020-02-16T13:39:48Z</time>
      </trkpt>
      <trkpt lat="48.77629" lon="2.11704">
        <ele>109</ele>
        <time>2020-02-16T13:39:51Z</time>
      </trkpt>
      <trkpt lat="48.77628" lon="2.1173">
        <ele>109</ele>
        <time>2020-02-16T13:40:03Z</time>
      </trkpt>
      <trkpt lat="48.77629" lon="2.11745">
        <ele>109</ele>
        <time>2020-02-16T13:40:11Z</time>
      </trkpt>
      <trkpt lat="48.7763" lon="2.11752">
        <ele>109</ele>
        <time>2020-02-16T13:40:15Z</time>
      </trkpt>
      <trkpt lat="48.77632" lon="2.11759">
        <ele>109</ele>
        <time>2020-02-16T13:40:20Z</time>
      </trkpt>
      <trkpt lat="48.77636" lon="2.11764">
        <ele>110</ele>
        <time>2020-02-16T13:40:24Z</time>
      </trkpt>
      <trkpt lat="48.77639" lon="2.11769">
        <ele>109</ele>
        <time>2020-02-16T13:40:32Z</time>
      </trkpt>
      <trkpt lat="48.77637" lon="2.11777">
        <ele>110</ele>
        <time>2020-02-16T13:41:13Z</time>
      </trkpt>
      <trkpt lat="48.77645" lon="2.11786">
        <ele>110</ele>
        <time>2020-02-16T13:43:33Z</time>
      </trkpt>
      <trkpt lat="48.77655" lon="2.1179">
        <ele>107</ele>
        <time>2020-02-16T13:43:42Z</time>
      </trkpt>
      <trkpt lat="48.77666" lon="2.11786">
        <ele>108</ele>
        <time>2020-02-16T13:43:53Z</time>
      </trkpt>
      <trkpt lat="48.77675" lon="2.11789">
        <ele>107</ele>
        <time>2020-02-16T13:44:00Z</time>
      </trkpt>
      <trkpt lat="48.77679" lon="2.11789">
        <ele>106</ele>
        <time>2020-02-16T13:44:03Z</time>
      </trkpt>
      <trkpt lat="48.77683" lon="2.11791">
        <ele>107</ele>
        <time>2020-02-16T13:44:06Z</time>
      </trkpt>
      <trkpt lat="48.77686" lon="2.11798">
        <ele>106</ele>
        <time>2020-02-16T13:44:10Z</time>
      </trkpt>
      <trkpt lat="48.77688" lon="2.11805">
        <ele>107</ele>
        <time>2020-02-16T13:44:14Z</time>
      </trkpt>
      <trkpt lat="48.77689" lon="2.11812">
        <ele>107</ele>
        <time>2020-02-16T13:44:17Z</time>
      </trkpt>
      <trkpt lat="48.77691" lon="2.11819">
        <ele>106</ele>
        <time>2020-02-16T13:44:20Z</time>
      </trkpt>
      <trkpt lat="48.77693" lon="2.11826">
        <ele>105</ele>
        <time>2020-02-16T13:44:23Z</time>
      </trkpt>
      <trkpt lat="48.77694" lon="2.11835">
        <ele>105</ele>
        <time>2020-02-16T13:44:27Z</time>
      </trkpt>
      <trkpt lat="48.77694" lon="2.11852">
        <ele>105</ele>
        <time>2020-02-16T13:44:35Z</time>
      </trkpt>
      <trkpt lat="48.77695" lon="2.1186">
        <ele>105</ele>
        <time>2020-02-16T13:44:39Z</time>
      </trkpt>
      <trkpt lat="48.77694" lon="2.11868">
        <ele>105</ele>
        <time>2020-02-16T13:44:43Z</time>
      </trkpt>
      <trkpt lat="48.77693" lon="2.11883">
        <ele>105</ele>
        <time>2020-02-16T13:44:50Z</time>
      </trkpt>
      <trkpt lat="48.77694" lon="2.11892">
        <ele>105</ele>
        <time>2020-02-16T13:44:54Z</time>
      </trkpt>
      <trkpt lat="48.7769" lon="2.11923">
        <ele>106</ele>
        <time>2020-02-16T13:45:09Z</time>
      </trkpt>
      <trkpt lat="48.77692" lon="2.11937">
        <ele>106</ele>
        <time>2020-02-16T13:45:16Z</time>
      </trkpt>
      <trkpt lat="48.77691" lon="2.11952">
        <ele>107</ele>
        <time>2020-02-16T13:45:24Z</time>
      </trkpt>
      <trkpt lat="48.77685" lon="2.11981">
        <ele>106</ele>
        <time>2020-02-16T13:45:39Z</time>
      </trkpt>
      <trkpt lat="48.77681" lon="2.11989">
        <ele>105</ele>
        <time>2020-02-16T13:46:25Z</time>
      </trkpt>
      <trkpt lat="48.7768" lon="2.1201">
        <ele>106</ele>
        <time>2020-02-16T13:46:52Z</time>
      </trkpt>
      <trkpt lat="48.77678" lon="2.12024">
        <ele>105</ele>
        <time>2020-02-16T13:47:01Z</time>
      </trkpt>
      <trkpt lat="48.77676" lon="2.12035">
        <ele>106</ele>
        <time>2020-02-16T13:47:08Z</time>
      </trkpt>
      <trkpt lat="48.77677" lon="2.12043">
        <ele>106</ele>
        <time>2020-02-16T13:47:12Z</time>
      </trkpt>
      <trkpt lat="48.77676" lon="2.1205">
        <ele>105</ele>
        <time>2020-02-16T13:47:16Z</time>
      </trkpt>
      <trkpt lat="48.77673" lon="2.12065">
        <ele>105</ele>
        <time>2020-02-16T13:47:25Z</time>
      </trkpt>
      <trkpt lat="48.7767" lon="2.12073">
        <ele>105</ele>
        <time>2020-02-16T13:47:30Z</time>
      </trkpt>
      <trkpt lat="48.77664" lon="2.12086">
        <ele>105</ele>
        <time>2020-02-16T13:47:38Z</time>
      </trkpt>
      <trkpt lat="48.77662" lon="2.12092">
        <ele>105</ele>
        <time>2020-02-16T13:47:41Z</time>
      </trkpt>
      <trkpt lat="48.77656" lon="2.12103">
        <ele>106</ele>
        <time>2020-02-16T13:47:49Z</time>
      </trkpt>
      <trkpt lat="48.77653" lon="2.1211">
        <ele>106</ele>
        <time>2020-02-16T13:47:53Z</time>
      </trkpt>
      <trkpt lat="48.77648" lon="2.12122">
        <ele>107</ele>
        <time>2020-02-16T13:47:59Z</time>
      </trkpt>
      <trkpt lat="48.77645" lon="2.12129">
        <ele>107</ele>
        <time>2020-02-16T13:48:03Z</time>
      </trkpt>
      <trkpt lat="48.77636" lon="2.1216">
        <ele>106</ele>
        <time>2020-02-16T13:48:17Z</time>
      </trkpt>
      <trkpt lat="48.77634" lon="2.12169">
        <ele>107</ele>
        <time>2020-02-16T13:48:21Z</time>
      </trkpt>
      <trkpt lat="48.77633" lon="2.12176">
        <ele>107</ele>
        <time>2020-02-16T13:48:24Z</time>
      </trkpt>
      <trkpt lat="48.77631" lon="2.12183">
        <ele>106</ele>
        <time>2020-02-16T13:48:28Z</time>
      </trkpt>
      <trkpt lat="48.77624" lon="2.12203">
        <ele>106</ele>
        <time>2020-02-16T13:48:42Z</time>
      </trkpt>
      <trkpt lat="48.77622" lon="2.1221">
        <ele>107</ele>
        <time>2020-02-16T13:48:46Z</time>
      </trkpt>
      <trkpt lat="48.77618" lon="2.12218">
        <ele>106</ele>
        <time>2020-02-16T13:48:50Z</time>
      </trkpt>
      <trkpt lat="48.77617" lon="2.12225">
        <ele>106</ele>
        <time>2020-02-16T13:48:54Z</time>
      </trkpt>
      <trkpt lat="48.7761" lon="2.12269">
        <ele>107</ele>
        <time>2020-02-16T13:49:16Z</time>
      </trkpt>
      <trkpt lat="48.77608" lon="2.12275">
        <ele>107</ele>
        <time>2020-02-16T13:49:20Z</time>
      </trkpt>
      <trkpt lat="48.77604" lon="2.1228">
        <ele>106</ele>
        <time>2020-02-16T13:49:23Z</time>
      </trkpt>
      <trkpt lat="48.7759" lon="2.12288">
        <ele>105</ele>
        <time>2020-02-16T13:49:36Z</time>
      </trkpt>
      <trkpt lat="48.77587" lon="2.12294">
        <ele>105</ele>
        <time>2020-02-16T13:49:40Z</time>
      </trkpt>
      <trkpt lat="48.77586" lon="2.12302">
        <ele>105</ele>
        <time>2020-02-16T13:49:45Z</time>
      </trkpt>
      <trkpt lat="48.77582" lon="2.12307">
        <ele>105</ele>
        <time>2020-02-16T13:49:50Z</time>
      </trkpt>
      <trkpt lat="48.77572" lon="2.12312">
        <ele>106</ele>
        <time>2020-02-16T13:49:58Z</time>
      </trkpt>
      <trkpt lat="48.77564" lon="2.12317">
        <ele>108</ele>
        <time>2020-02-16T13:50:07Z</time>
      </trkpt>
      <trkpt lat="48.77557" lon="2.12337">
        <ele>106</ele>
        <time>2020-02-16T13:50:24Z</time>
      </trkpt>
      <trkpt lat="48.77556" lon="2.12346">
        <ele>106</ele>
        <time>2020-02-16T13:50:29Z</time>
      </trkpt>
      <trkpt lat="48.77557" lon="2.12354">
        <ele>107</ele>
        <time>2020-02-16T13:50:33Z</time>
      </trkpt>
      <trkpt lat="48.77557" lon="2.12363">
        <ele>107</ele>
        <time>2020-02-16T13:50:37Z</time>
      </trkpt>
      <trkpt lat="48.77555" lon="2.1237">
        <ele>107</ele>
        <time>2020-02-16T13:50:40Z</time>
      </trkpt>
      <trkpt lat="48.77554" lon="2.12383">
        <ele>106</ele>
        <time>2020-02-16T13:50:46Z</time>
      </trkpt>
      <trkpt lat="48.77552" lon="2.1239">
        <ele>106</ele>
        <time>2020-02-16T13:50:50Z</time>
      </trkpt>
      <trkpt lat="48.77548" lon="2.12397">
        <ele>106</ele>
        <time>2020-02-16T13:50:54Z</time>
      </trkpt>
      <trkpt lat="48.77545" lon="2.12403">
        <ele>107</ele>
        <time>2020-02-16T13:50:58Z</time>
      </trkpt>
      <trkpt lat="48.77541" lon="2.1241">
        <ele>107</ele>
        <time>2020-02-16T13:51:02Z</time>
      </trkpt>
      <trkpt lat="48.77537" lon="2.12416">
        <ele>107</ele>
        <time>2020-02-16T13:51:06Z</time>
      </trkpt>
      <trkpt lat="48.77533" lon="2.12423">
        <ele>107</ele>
        <time>2020-02-16T13:51:10Z</time>
      </trkpt>
      <trkpt lat="48.7753" lon="2.1243">
        <ele>107</ele>
        <time>2020-02-16T13:51:14Z</time>
      </trkpt>
      <trkpt lat="48.77528" lon="2.12438">
        <ele>107</ele>
        <time>2020-02-16T13:51:18Z</time>
      </trkpt>
      <trkpt lat="48.7753" lon="2.12451">
        <ele>107</ele>
        <time>2020-02-16T13:51:26Z</time>
      </trkpt>
      <trkpt lat="48.77528" lon="2.12457">
        <ele>108</ele>
        <time>2020-02-16T13:51:29Z</time>
      </trkpt>
      <trkpt lat="48.77518" lon="2.12474">
        <ele>107</ele>
        <time>2020-02-16T13:51:38Z</time>
      </trkpt>
      <trkpt lat="48.77515" lon="2.1248">
        <ele>106</ele>
        <time>2020-02-16T13:51:42Z</time>
      </trkpt>
      <trkpt lat="48.77509" lon="2.12488">
        <ele>107</ele>
        <time>2020-02-16T13:51:48Z</time>
      </trkpt>
      <trkpt lat="48.77506" lon="2.12496">
        <ele>107</ele>
        <time>2020-02-16T13:51:52Z</time>
      </trkpt>
      <trkpt lat="48.77502" lon="2.12503">
        <ele>107</ele>
        <time>2020-02-16T13:51:56Z</time>
      </trkpt>
      <trkpt lat="48.77498" lon="2.12517">
        <ele>107</ele>
        <time>2020-02-16T13:52:03Z</time>
      </trkpt>
      <trkpt lat="48.77497" lon="2.12525">
        <ele>107</ele>
        <time>2020-02-16T13:52:07Z</time>
      </trkpt>
      <trkpt lat="48.77498" lon="2.12549">
        <ele>107</ele>
        <time>2020-02-16T13:52:19Z</time>
      </trkpt>
      <trkpt lat="48.77497" lon="2.12561">
        <ele>106</ele>
        <time>2020-02-16T13:52:25Z</time>
      </trkpt>
      <trkpt lat="48.77497" lon="2.12576">
        <ele>106</ele>
        <time>2020-02-16T13:52:33Z</time>
      </trkpt>
      <trkpt lat="48.77499" lon="2.1259">
        <ele>107</ele>
        <time>2020-02-16T13:52:41Z</time>
      </trkpt>
      <trkpt lat="48.77498" lon="2.12605">
        <ele>107</ele>
        <time>2020-02-16T13:52:49Z</time>
      </trkpt>
      <trkpt lat="48.77499" lon="2.12633">
        <ele>106</ele>
        <time>2020-02-16T13:53:04Z</time>
      </trkpt>
      <trkpt lat="48.77498" lon="2.1264">
        <ele>106</ele>
        <time>2020-02-16T13:53:09Z</time>
      </trkpt>
      <trkpt lat="48.77494" lon="2.12645">
        <ele>107</ele>
        <time>2020-02-16T13:54:16Z</time>
      </trkpt>
      <trkpt lat="48.77498" lon="2.12653">
        <ele>107</ele>
        <time>2020-02-16T13:54:46Z</time>
      </trkpt>
      <trkpt lat="48.77501" lon="2.12658">
        <ele>107</ele>
        <time>2020-02-16T13:54:50Z</time>
      </trkpt>
      <trkpt lat="48.77498" lon="2.12666">
        <ele>107</ele>
        <time>2020-02-16T13:54:54Z</time>
      </trkpt>
      <trkpt lat="48.77498" lon="2.12673">
        <ele>107</ele>
        <time>2020-02-16T13:54:58Z</time>
      </trkpt>
      <trkpt lat="48.77498" lon="2.1268">
        <ele>106</ele>
        <time>2020-02-16T13:55:03Z</time>
      </trkpt>
      <trkpt lat="48.77497" lon="2.12688">
        <ele>106</ele>
        <time>2020-02-16T13:55:08Z</time>
      </trkpt>
      <trkpt lat="48.77499" lon="2.12695">
        <ele>106</ele>
        <time>2020-02-16T13:55:12Z</time>
      </trkpt>
      <trkpt lat="48.77497" lon="2.12702">
        <ele>105</ele>
        <time>2020-02-16T13:55:16Z</time>
      </trkpt>
      <trkpt lat="48.77493" lon="2.12708">
        <ele>105</ele>
        <time>2020-02-16T13:55:20Z</time>
      </trkpt>
      <trkpt lat="48.77489" lon="2.1271">
        <ele>105</ele>
        <time>2020-02-16T13:55:27Z</time>
      </trkpt>
      <trkpt lat="48.77487" lon="2.12717">
        <ele>106</ele>
        <time>2020-02-16T13:55:31Z</time>
      </trkpt>
      <trkpt lat="48.77486" lon="2.12724">
        <ele>105</ele>
        <time>2020-02-16T13:55:35Z</time>
      </trkpt>
      <trkpt lat="48.77484" lon="2.12739">
        <ele>106</ele>
        <time>2020-02-16T13:55:43Z</time>
      </trkpt>
      <trkpt lat="48.77486" lon="2.12754">
        <ele>109</ele>
        <time>2020-02-16T13:55:51Z</time>
      </trkpt>
      <trkpt lat="48.77487" lon="2.12775">
        <ele>107</ele>
        <time>2020-02-16T13:56:01Z</time>
      </trkpt>
      <trkpt lat="48.77478" lon="2.12847">
        <ele>106</ele>
        <time>2020-02-16T13:56:36Z</time>
      </trkpt>
      <trkpt lat="48.77489" lon="2.12852">
        <ele>105</ele>
        <time>2020-02-16T13:56:50Z</time>
      </trkpt>
      <trkpt lat="48.77498" lon="2.12862">
        <ele>106</ele>
        <time>2020-02-16T13:57:00Z</time>
      </trkpt>
      <trkpt lat="48.77521" lon="2.12888">
        <ele>102</ele>
        <time>2020-02-16T13:57:17Z</time>
      </trkpt>
      <trkpt lat="48.77519" lon="2.12906">
        <ele>102</ele>
        <time>2020-02-16T13:57:30Z</time>
      </trkpt>
      <trkpt lat="48.77511" lon="2.12918">
        <ele>101</ele>
        <time>2020-02-16T13:57:38Z</time>
      </trkpt>
      <trkpt lat="48.77507" lon="2.1293">
        <ele>103</ele>
        <time>2020-02-16T13:57:46Z</time>
      </trkpt>
      <trkpt lat="48.77506" lon="2.12945">
        <ele>104</ele>
        <time>2020-02-16T13:57:54Z</time>
      </trkpt>
      <trkpt lat="48.77503" lon="2.12974">
        <ele>104</ele>
        <time>2020-02-16T13:58:07Z</time>
      </trkpt>
      <trkpt lat="48.77494" lon="2.12991">
        <ele>103</ele>
        <time>2020-02-16T13:58:16Z</time>
      </trkpt>
      <trkpt lat="48.77488" lon="2.13">
        <ele>103</ele>
        <time>2020-02-16T13:58:23Z</time>
      </trkpt>
      <trkpt lat="48.77483" lon="2.13028">
        <ele>102</ele>
        <time>2020-02-16T13:58:39Z</time>
      </trkpt>
      <trkpt lat="48.77481" lon="2.13056">
        <ele>105</ele>
        <time>2020-02-16T13:58:54Z</time>
      </trkpt>
      <trkpt lat="48.77477" lon="2.13069">
        <ele>104</ele>
        <time>2020-02-16T13:59:01Z</time>
      </trkpt>
      <trkpt lat="48.77466" lon="2.13092">
        <ele>103</ele>
        <time>2020-02-16T13:59:15Z</time>
      </trkpt>
      <trkpt lat="48.77457" lon="2.13096">
        <ele>104</ele>
        <time>2020-02-16T13:59:25Z</time>
      </trkpt>
      <trkpt lat="48.77447" lon="2.13097">
        <ele>104</ele>
        <time>2020-02-16T13:59:32Z</time>
      </trkpt>
      <trkpt lat="48.77437" lon="2.13102">
        <ele>103</ele>
        <time>2020-02-16T13:59:41Z</time>
      </trkpt>
      <trkpt lat="48.77418" lon="2.13109">
        <ele>104</ele>
        <time>2020-02-16T13:59:52Z</time>
      </trkpt>
      <trkpt lat="48.7741" lon="2.13109">
        <ele>103</ele>
        <time>2020-02-16T14:00:01Z</time>
      </trkpt>
      <trkpt lat="48.77399" lon="2.131">
        <ele>104</ele>
        <time>2020-02-16T14:00:17Z</time>
      </trkpt>
      <trkpt lat="48.7737" lon="2.13134">
        <ele>106</ele>
        <time>2020-02-16T14:00:57Z</time>
      </trkpt>
      <trkpt lat="48.77365" lon="2.13145">
        <ele>105</ele>
        <time>2020-02-16T14:01:05Z</time>
      </trkpt>
      <trkpt lat="48.77358" lon="2.13157">
        <ele>106</ele>
        <time>2020-02-16T14:01:13Z</time>
      </trkpt>
      <trkpt lat="48.77352" lon="2.13168">
        <ele>106</ele>
        <time>2020-02-16T14:01:20Z</time>
      </trkpt>
      <trkpt lat="48.77345" lon="2.13177">
        <ele>105</ele>
        <time>2020-02-16T14:01:29Z</time>
      </trkpt>
      <trkpt lat="48.77335" lon="2.13201">
        <ele>104</ele>
        <time>2020-02-16T14:01:45Z</time>
      </trkpt>
      <trkpt lat="48.77327" lon="2.1321">
        <ele>104</ele>
        <time>2020-02-16T14:01:52Z</time>
      </trkpt>
      <trkpt lat="48.77318" lon="2.13216">
        <ele>105</ele>
        <time>2020-02-16T14:01:58Z</time>
      </trkpt>
      <trkpt lat="48.77304" lon="2.13228">
        <ele>106</ele>
        <time>2020-02-16T14:02:16Z</time>
      </trkpt>
      <trkpt lat="48.77294" lon="2.13213">
        <ele>106</ele>
        <time>2020-02-16T14:02:30Z</time>
      </trkpt>
      <trkpt lat="48.77283" lon="2.13209">
        <ele>108</ele>
        <time>2020-02-16T14:02:57Z</time>
      </trkpt>
      <trkpt lat="48.77265" lon="2.13202">
        <ele>109</ele>
        <time>2020-02-16T14:03:10Z</time>
      </trkpt>
      <trkpt lat="48.7725" lon="2.1321">
        <ele>108</ele>
        <time>2020-02-16T14:03:15Z</time>
      </trkpt>
      <trkpt lat="48.77242" lon="2.13212">
        <ele>108</ele>
        <time>2020-02-16T14:03:20Z</time>
      </trkpt>
      <trkpt lat="48.77244" lon="2.13192">
        <ele>109</ele>
        <time>2020-02-16T14:03:36Z</time>
      </trkpt>
      <trkpt lat="48.77235" lon="2.13181">
        <ele>110</ele>
        <time>2020-02-16T14:03:46Z</time>
      </trkpt>
      <trkpt lat="48.77238" lon="2.13166">
        <ele>110</ele>
        <time>2020-02-16T14:03:54Z</time>
      </trkpt>
      <trkpt lat="48.77232" lon="2.13155">
        <ele>112</ele>
        <time>2020-02-16T14:04:08Z</time>
      </trkpt>
      <trkpt lat="48.7722" lon="2.13143">
        <ele>115</ele>
        <time>2020-02-16T14:04:24Z</time>
      </trkpt>
      <trkpt lat="48.77213" lon="2.13134">
        <ele>115</ele>
        <time>2020-02-16T14:04:33Z</time>
      </trkpt>
      <trkpt lat="48.7719" lon="2.13101">
        <ele>119</ele>
        <time>2020-02-16T14:04:58Z</time>
      </trkpt>
      <trkpt lat="48.77182" lon="2.13095">
        <ele>120</ele>
        <time>2020-02-16T14:05:05Z</time>
      </trkpt>
      <trkpt lat="48.77174" lon="2.13082">
        <ele>121</ele>
        <time>2020-02-16T14:05:14Z</time>
      </trkpt>
      <trkpt lat="48.77169" lon="2.1308">
        <ele>121</ele>
        <time>2020-02-16T14:05:19Z</time>
      </trkpt>
      <trkpt lat="48.77144" lon="2.13066">
        <ele>125</ele>
        <time>2020-02-16T14:05:42Z</time>
      </trkpt>
      <trkpt lat="48.77138" lon="2.13072">
        <ele>128</ele>
        <time>2020-02-16T14:05:54Z</time>
      </trkpt>
      <trkpt lat="48.77138" lon="2.13093">
        <ele>129</ele>
        <time>2020-02-16T14:06:11Z</time>
      </trkpt>
      <trkpt lat="48.77136" lon="2.1311">
        <ele>131</ele>
        <time>2020-02-16T14:06:23Z</time>
      </trkpt>
      <trkpt lat="48.77134" lon="2.13125">
        <ele>132</ele>
        <time>2020-02-16T14:06:32Z</time>
      </trkpt>
      <trkpt lat="48.77137" lon="2.1314">
        <ele>131</ele>
        <time>2020-02-16T14:06:39Z</time>
      </trkpt>
      <trkpt lat="48.7715" lon="2.1316">
        <ele>130</ele>
        <time>2020-02-16T14:06:50Z</time>
      </trkpt>
      <trkpt lat="48.77163" lon="2.13182">
        <ele>130</ele>
        <time>2020-02-16T14:07:02Z</time>
      </trkpt>
      <trkpt lat="48.77168" lon="2.13192">
        <ele>130</ele>
        <time>2020-02-16T14:07:08Z</time>
      </trkpt>
      <trkpt lat="48.7717" lon="2.13211">
        <ele>131</ele>
        <time>2020-02-16T14:07:23Z</time>
      </trkpt>
      <trkpt lat="48.77159" lon="2.13229">
        <ele>129</ele>
        <time>2020-02-16T14:07:51Z</time>
      </trkpt>
      <trkpt lat="48.77148" lon="2.13227">
        <ele>129</ele>
        <time>2020-02-16T14:07:56Z</time>
      </trkpt>
      <trkpt lat="48.77138" lon="2.13227">
        <ele>128</ele>
        <time>2020-02-16T14:08:09Z</time>
      </trkpt>
      <trkpt lat="48.77144" lon="2.1324">
        <ele>128</ele>
        <time>2020-02-16T14:08:29Z</time>
      </trkpt>
      <trkpt lat="48.77136" lon="2.13277">
        <ele>125</ele>
        <time>2020-02-16T14:08:53Z</time>
      </trkpt>
      <trkpt lat="48.77131" lon="2.13296">
        <ele>125</ele>
        <time>2020-02-16T14:09:04Z</time>
      </trkpt>
      <trkpt lat="48.77127" lon="2.1331">
        <ele>123</ele>
        <time>2020-02-16T14:09:13Z</time>
      </trkpt>
      <trkpt lat="48.77121" lon="2.13323">
        <ele>123</ele>
        <time>2020-02-16T14:09:18Z</time>
      </trkpt>
      <trkpt lat="48.77116" lon="2.13355">
        <ele>120</ele>
        <time>2020-02-16T14:09:37Z</time>
      </trkpt>
      <trkpt lat="48.77115" lon="2.13371">
        <ele>119</ele>
        <time>2020-02-16T14:09:46Z</time>
      </trkpt>
      <trkpt lat="48.77111" lon="2.13386">
        <ele>120</ele>
        <time>2020-02-16T14:09:53Z</time>
      </trkpt>
      <trkpt lat="48.77111" lon="2.134">
        <ele>119</ele>
        <time>2020-02-16T14:09:59Z</time>
      </trkpt>
      <trkpt lat="48.77105" lon="2.13411">
        <ele>117</ele>
        <time>2020-02-16T14:10:07Z</time>
      </trkpt>
      <trkpt lat="48.77103" lon="2.13425">
        <ele>118</ele>
        <time>2020-02-16T14:10:13Z</time>
      </trkpt>
      <trkpt lat="48.77087" lon="2.13476">
        <ele>117</ele>
        <time>2020-02-16T14:10:41Z</time>
      </trkpt>
      <trkpt lat="48.77083" lon="2.1349">
        <ele>114</ele>
        <time>2020-02-16T14:10:49Z</time>
      </trkpt>
      <trkpt lat="48.77081" lon="2.13504">
        <ele>115</ele>
        <time>2020-02-16T14:10:56Z</time>
      </trkpt>
      <trkpt lat="48.77083" lon="2.1354">
        <ele>117</ele>
        <time>2020-02-16T14:11:19Z</time>
      </trkpt>
      <trkpt lat="48.77079" lon="2.13571">
        <ele>119</ele>
        <time>2020-02-16T14:11:39Z</time>
      </trkpt>
      <trkpt lat="48.77076" lon="2.13592">
        <ele>123</ele>
        <time>2020-02-16T14:11:58Z</time>
      </trkpt>
      <trkpt lat="48.77074" lon="2.136">
        <ele>122</ele>
        <time>2020-02-16T14:12:02Z</time>
      </trkpt>
      <trkpt lat="48.77073" lon="2.13609">
        <ele>121</ele>
        <time>2020-02-16T14:12:06Z</time>
      </trkpt>
      <trkpt lat="48.7707" lon="2.13624">
        <ele>121</ele>
        <time>2020-02-16T14:12:13Z</time>
      </trkpt>
      <trkpt lat="48.7707" lon="2.13631">
        <ele>121</ele>
        <time>2020-02-16T14:12:16Z</time>
      </trkpt>
      <trkpt lat="48.77069" lon="2.13638">
        <ele>120</ele>
        <time>2020-02-16T14:12:19Z</time>
      </trkpt>
      <trkpt lat="48.77065" lon="2.13653">
        <ele>120</ele>
        <time>2020-02-16T14:12:27Z</time>
      </trkpt>
      <trkpt lat="48.77063" lon="2.1366">
        <ele>119</ele>
        <time>2020-02-16T14:12:30Z</time>
      </trkpt>
      <trkpt lat="48.77061" lon="2.13682">
        <ele>120</ele>
        <time>2020-02-16T14:12:40Z</time>
      </trkpt>
      <trkpt lat="48.7706" lon="2.13688">
        <ele>119</ele>
        <time>2020-02-16T14:12:45Z</time>
      </trkpt>
      <trkpt lat="48.77056" lon="2.13695">
        <ele>119</ele>
        <time>2020-02-16T14:12:50Z</time>
      </trkpt>
      <trkpt lat="48.77052" lon="2.13701">
        <ele>119</ele>
        <time>2020-02-16T14:12:54Z</time>
      </trkpt>
      <trkpt lat="48.77045" lon="2.13713">
        <ele>115</ele>
        <time>2020-02-16T14:13:03Z</time>
      </trkpt>
      <trkpt lat="48.77036" lon="2.1372">
        <ele>117</ele>
        <time>2020-02-16T14:13:12Z</time>
      </trkpt>
      <trkpt lat="48.77031" lon="2.13722">
        <ele>117</ele>
        <time>2020-02-16T14:13:15Z</time>
      </trkpt>
      <trkpt lat="48.7702" lon="2.13722">
        <ele>117</ele>
        <time>2020-02-16T14:13:24Z</time>
      </trkpt>
      <trkpt lat="48.77012" lon="2.13726">
        <ele>118</ele>
        <time>2020-02-16T14:13:34Z</time>
      </trkpt>
      <trkpt lat="48.77003" lon="2.13736">
        <ele>119</ele>
        <time>2020-02-16T14:13:46Z</time>
      </trkpt>
      <trkpt lat="48.76997" lon="2.13749">
        <ele>120</ele>
        <time>2020-02-16T14:13:54Z</time>
      </trkpt>
      <trkpt lat="48.7699" lon="2.1376">
        <ele>119</ele>
        <time>2020-02-16T14:14:01Z</time>
      </trkpt>
      <trkpt lat="48.76985" lon="2.13774">
        <ele>120</ele>
        <time>2020-02-16T14:14:09Z</time>
      </trkpt>
      <trkpt lat="48.76984" lon="2.13781">
        <ele>120</ele>
        <time>2020-02-16T14:14:13Z</time>
      </trkpt>
      <trkpt lat="48.76976" lon="2.138">
        <ele>123</ele>
        <time>2020-02-16T14:14:25Z</time>
      </trkpt>
      <trkpt lat="48.76974" lon="2.13807">
        <ele>123</ele>
        <time>2020-02-16T14:14:29Z</time>
      </trkpt>
      <trkpt lat="48.76971" lon="2.13813">
        <ele>123</ele>
        <time>2020-02-16T14:14:33Z</time>
      </trkpt>
      <trkpt lat="48.76967" lon="2.13818">
        <ele>123</ele>
        <time>2020-02-16T14:14:37Z</time>
      </trkpt>
      <trkpt lat="48.7696" lon="2.13837">
        <ele>120</ele>
        <time>2020-02-16T14:14:46Z</time>
      </trkpt>
      <trkpt lat="48.76957" lon="2.13842">
        <ele>119</ele>
        <time>2020-02-16T14:14:50Z</time>
      </trkpt>
      <trkpt lat="48.76955" lon="2.13849">
        <ele>119</ele>
        <time>2020-02-16T14:14:54Z</time>
      </trkpt>
      <trkpt lat="48.76957" lon="2.13864">
        <ele>118</ele>
        <time>2020-02-16T14:15:01Z</time>
      </trkpt>
      <trkpt lat="48.7696" lon="2.13878">
        <ele>118</ele>
        <time>2020-02-16T14:15:08Z</time>
      </trkpt>
      <trkpt lat="48.76962" lon="2.13891">
        <ele>117</ele>
        <time>2020-02-16T14:15:14Z</time>
      </trkpt>
      <trkpt lat="48.76961" lon="2.13907">
        <ele>117</ele>
        <time>2020-02-16T14:15:22Z</time>
      </trkpt>
      <trkpt lat="48.7696" lon="2.1392">
        <ele>116</ele>
        <time>2020-02-16T14:15:28Z</time>
      </trkpt>
      <trkpt lat="48.76963" lon="2.13935">
        <ele>115</ele>
        <time>2020-02-16T14:15:35Z</time>
      </trkpt>
      <trkpt lat="48.76969" lon="2.13945">
        <ele>113</ele>
        <time>2020-02-16T14:15:41Z</time>
      </trkpt>
      <trkpt lat="48.76973" lon="2.1395">
        <ele>112</ele>
        <time>2020-02-16T14:15:45Z</time>
      </trkpt>
      <trkpt lat="48.76977" lon="2.13956">
        <ele>112</ele>
        <time>2020-02-16T14:15:49Z</time>
      </trkpt>
      <trkpt lat="48.76988" lon="2.13975">
        <ele>107</ele>
        <time>2020-02-16T14:16:01Z</time>
      </trkpt>
      <trkpt lat="48.76992" lon="2.13988">
        <ele>109</ele>
        <time>2020-02-16T14:16:08Z</time>
      </trkpt>
      <trkpt lat="48.77" lon="2.14">
        <ele>108</ele>
        <time>2020-02-16T14:16:16Z</time>
      </trkpt>
      <trkpt lat="48.7702" lon="2.14022">
        <ele>103</ele>
        <time>2020-02-16T14:16:32Z</time>
      </trkpt>
      <trkpt lat="48.77027" lon="2.14032">
        <ele>103</ele>
        <time>2020-02-16T14:16:38Z</time>
      </trkpt>
      <trkpt lat="48.77031" lon="2.14037">
        <ele>103</ele>
        <time>2020-02-16T14:16:42Z</time>
      </trkpt>
      <trkpt lat="48.77036" lon="2.14042">
        <ele>102</ele>
        <time>2020-02-16T14:16:47Z</time>
      </trkpt>
      <trkpt lat="48.77039" lon="2.14048">
        <ele>101</ele>
        <time>2020-02-16T14:16:51Z</time>
      </trkpt>
      <trkpt lat="48.77043" lon="2.14053">
        <ele>101</ele>
        <time>2020-02-16T14:16:55Z</time>
      </trkpt>
      <trkpt lat="48.77046" lon="2.14059">
        <ele>101</ele>
        <time>2020-02-16T14:16:59Z</time>
      </trkpt>
      <trkpt lat="48.77051" lon="2.14072">
        <ele>99</ele>
        <time>2020-02-16T14:17:08Z</time>
      </trkpt>
      <trkpt lat="48.77061" lon="2.1409">
        <ele>99</ele>
        <time>2020-02-16T14:17:21Z</time>
      </trkpt>
      <trkpt lat="48.77065" lon="2.14096">
        <ele>98</ele>
        <time>2020-02-16T14:17:25Z</time>
      </trkpt>
      <trkpt lat="48.77069" lon="2.14101">
        <ele>99</ele>
        <time>2020-02-16T14:17:29Z</time>
      </trkpt>
      <trkpt lat="48.77071" lon="2.14106">
        <ele>99</ele>
        <time>2020-02-16T14:17:33Z</time>
      </trkpt>
      <trkpt lat="48.77074" lon="2.14112">
        <ele>99</ele>
        <time>2020-02-16T14:17:37Z</time>
      </trkpt>
      <trkpt lat="48.77086" lon="2.14116">
        <ele>96</ele>
        <time>2020-02-16T14:17:50Z</time>
      </trkpt>
      <trkpt lat="48.77101" lon="2.14114">
        <ele>101</ele>
        <time>2020-02-16T14:18:00Z</time>
      </trkpt>
      <trkpt lat="48.77119" lon="2.14106">
        <ele>97</ele>
        <time>2020-02-16T14:18:14Z</time>
      </trkpt>
      <trkpt lat="48.77123" lon="2.14119">
        <ele>100</ele>
        <time>2020-02-16T14:18:30Z</time>
      </trkpt>
      <trkpt lat="48.77127" lon="2.14124">
        <ele>99</ele>
        <time>2020-02-16T14:19:12Z</time>
      </trkpt>
      <trkpt lat="48.77123" lon="2.14142">
        <ele>102</ele>
        <time>2020-02-16T14:20:56Z</time>
      </trkpt>
      <trkpt lat="48.77121" lon="2.14155">
        <ele>100</ele>
        <time>2020-02-16T14:21:03Z</time>
      </trkpt>
      <trkpt lat="48.77116" lon="2.14167">
        <ele>100</ele>
        <time>2020-02-16T14:21:11Z</time>
      </trkpt>
      <trkpt lat="48.77109" lon="2.14178">
        <ele>100</ele>
        <time>2020-02-16T14:21:19Z</time>
      </trkpt>
      <trkpt lat="48.77104" lon="2.1419">
        <ele>101</ele>
        <time>2020-02-16T14:21:29Z</time>
      </trkpt>
      <trkpt lat="48.77102" lon="2.14204">
        <ele>99</ele>
        <time>2020-02-16T14:21:37Z</time>
      </trkpt>
      <trkpt lat="48.77097" lon="2.14217">
        <ele>99</ele>
        <time>2020-02-16T14:21:45Z</time>
      </trkpt>
      <trkpt lat="48.77093" lon="2.1423">
        <ele>99</ele>
        <time>2020-02-16T14:21:53Z</time>
      </trkpt>
      <trkpt lat="48.77072" lon="2.14266">
        <ele>100</ele>
        <time>2020-02-16T14:22:16Z</time>
      </trkpt>
      <trkpt lat="48.77066" lon="2.14279">
        <ele>99</ele>
        <time>2020-02-16T14:22:23Z</time>
      </trkpt>
      <trkpt lat="48.77042" lon="2.14339">
        <ele>99</ele>
        <time>2020-02-16T14:23:01Z</time>
      </trkpt>
      <trkpt lat="48.77035" lon="2.1435">
        <ele>100</ele>
        <time>2020-02-16T14:23:08Z</time>
      </trkpt>
      <trkpt lat="48.7703" lon="2.14362">
        <ele>100</ele>
        <time>2020-02-16T14:23:15Z</time>
      </trkpt>
      <trkpt lat="48.77027" lon="2.14376">
        <ele>100</ele>
        <time>2020-02-16T14:23:23Z</time>
      </trkpt>
      <trkpt lat="48.77023" lon="2.1439">
        <ele>100</ele>
        <time>2020-02-16T14:23:30Z</time>
      </trkpt>
      <trkpt lat="48.77016" lon="2.14401">
        <ele>99</ele>
        <time>2020-02-16T14:23:37Z</time>
      </trkpt>
      <trkpt lat="48.7701" lon="2.14413">
        <ele>98</ele>
        <time>2020-02-16T14:23:44Z</time>
      </trkpt>
      <trkpt lat="48.76998" lon="2.14436">
        <ele>100</ele>
        <time>2020-02-16T14:23:56Z</time>
      </trkpt>
      <trkpt lat="48.76992" lon="2.14462">
        <ele>99</ele>
        <time>2020-02-16T14:24:09Z</time>
      </trkpt>
      <trkpt lat="48.76986" lon="2.14472">
        <ele>100</ele>
        <time>2020-02-16T14:24:17Z</time>
      </trkpt>
      <trkpt lat="48.76983" lon="2.14484">
        <ele>99</ele>
        <time>2020-02-16T14:24:23Z</time>
      </trkpt>
      <trkpt lat="48.76981" lon="2.14492">
        <ele>99</ele>
        <time>2020-02-16T14:24:27Z</time>
      </trkpt>
      <trkpt lat="48.76978" lon="2.14497">
        <ele>100</ele>
        <time>2020-02-16T14:24:31Z</time>
      </trkpt>
      <trkpt lat="48.7697" lon="2.14502">
        <ele>100</ele>
        <time>2020-02-16T14:24:47Z</time>
      </trkpt>
      <trkpt lat="48.76954" lon="2.14491">
        <ele>100</ele>
        <time>2020-02-16T14:29:19Z</time>
      </trkpt>
      <trkpt lat="48.76946" lon="2.14483">
        <ele>101</ele>
        <time>2020-02-16T14:29:28Z</time>
      </trkpt>
      <trkpt lat="48.76936" lon="2.14474">
        <ele>99</ele>
        <time>2020-02-16T14:29:37Z</time>
      </trkpt>
      <trkpt lat="48.76928" lon="2.14467">
        <ele>102</ele>
        <time>2020-02-16T14:29:44Z</time>
      </trkpt>
      <trkpt lat="48.76922" lon="2.14458">
        <ele>101</ele>
        <time>2020-02-16T14:29:52Z</time>
      </trkpt>
      <trkpt lat="48.76916" lon="2.14447">
        <ele>98</ele>
        <time>2020-02-16T14:30:00Z</time>
      </trkpt>
      <trkpt lat="48.76912" lon="2.14442">
        <ele>101</ele>
        <time>2020-02-16T14:30:04Z</time>
      </trkpt>
      <trkpt lat="48.76907" lon="2.14441">
        <ele>102</ele>
        <time>2020-02-16T14:30:08Z</time>
      </trkpt>
      <trkpt lat="48.76896" lon="2.14439">
        <ele>100</ele>
        <time>2020-02-16T14:30:16Z</time>
      </trkpt>
      <trkpt lat="48.76891" lon="2.14439">
        <ele>100</ele>
        <time>2020-02-16T14:30:20Z</time>
      </trkpt>
      <trkpt lat="48.76873" lon="2.14439">
        <ele>101</ele>
        <time>2020-02-16T14:30:38Z</time>
      </trkpt>
      <trkpt lat="48.76868" lon="2.14441">
        <ele>102</ele>
        <time>2020-02-16T14:30:42Z</time>
      </trkpt>
      <trkpt lat="48.76854" lon="2.14454">
        <ele>103</ele>
        <time>2020-02-16T14:30:53Z</time>
      </trkpt>
      <trkpt lat="48.76842" lon="2.14469">
        <ele>103</ele>
        <time>2020-02-16T14:31:05Z</time>
      </trkpt>
      <trkpt lat="48.76839" lon="2.14477">
        <ele>104</ele>
        <time>2020-02-16T14:31:09Z</time>
      </trkpt>
      <trkpt lat="48.76831" lon="2.14497">
        <ele>103</ele>
        <time>2020-02-16T14:31:21Z</time>
      </trkpt>
      <trkpt lat="48.76826" lon="2.14519">
        <ele>103</ele>
        <time>2020-02-16T14:31:32Z</time>
      </trkpt>
      <trkpt lat="48.76824" lon="2.14525">
        <ele>103</ele>
        <time>2020-02-16T14:31:36Z</time>
      </trkpt>
      <trkpt lat="48.76822" lon="2.14532">
        <ele>102</ele>
        <time>2020-02-16T14:31:40Z</time>
      </trkpt>
      <trkpt lat="48.76818" lon="2.14546">
        <ele>102</ele>
        <time>2020-02-16T14:31:48Z</time>
      </trkpt>
      <trkpt lat="48.76815" lon="2.1457">
        <ele>102</ele>
        <time>2020-02-16T14:32:01Z</time>
      </trkpt>
      <trkpt lat="48.76813" lon="2.14577">
        <ele>102</ele>
        <time>2020-02-16T14:32:06Z</time>
      </trkpt>
      <trkpt lat="48.7681" lon="2.14582">
        <ele>102</ele>
        <time>2020-02-16T14:32:10Z</time>
      </trkpt>
      <trkpt lat="48.76809" lon="2.14591">
        <ele>103</ele>
        <time>2020-02-16T14:32:14Z</time>
      </trkpt>
      <trkpt lat="48.76804" lon="2.14603">
        <ele>102</ele>
        <time>2020-02-16T14:32:21Z</time>
      </trkpt>
      <trkpt lat="48.76801" lon="2.14619">
        <ele>103</ele>
        <time>2020-02-16T14:32:28Z</time>
      </trkpt>
      <trkpt lat="48.76798" lon="2.14633">
        <ele>102</ele>
        <time>2020-02-16T14:32:35Z</time>
      </trkpt>
      <trkpt lat="48.76793" lon="2.14646">
        <ele>103</ele>
        <time>2020-02-16T14:32:41Z</time>
      </trkpt>
      <trkpt lat="48.76787" lon="2.14657">
        <ele>103</ele>
        <time>2020-02-16T14:32:47Z</time>
      </trkpt>
      <trkpt lat="48.76774" lon="2.14697">
        <ele>102</ele>
        <time>2020-02-16T14:33:09Z</time>
      </trkpt>
      <trkpt lat="48.76767" lon="2.14723">
        <ele>103</ele>
        <time>2020-02-16T14:33:21Z</time>
      </trkpt>
      <trkpt lat="48.76759" lon="2.14731">
        <ele>103</ele>
        <time>2020-02-16T14:33:26Z</time>
      </trkpt>
      <trkpt lat="48.76755" lon="2.14739">
        <ele>103</ele>
        <time>2020-02-16T14:33:30Z</time>
      </trkpt>
      <trkpt lat="48.76753" lon="2.14746">
        <ele>103</ele>
        <time>2020-02-16T14:33:33Z</time>
      </trkpt>
      <trkpt lat="48.76745" lon="2.14764">
        <ele>104</ele>
        <time>2020-02-16T14:33:43Z</time>
      </trkpt>
      <trkpt lat="48.76742" lon="2.14768">
        <ele>103</ele>
        <time>2020-02-16T14:33:47Z</time>
      </trkpt>
      <trkpt lat="48.76734" lon="2.1478">
        <ele>103</ele>
        <time>2020-02-16T14:33:56Z</time>
      </trkpt>
      <trkpt lat="48.76731" lon="2.14785">
        <ele>103</ele>
        <time>2020-02-16T14:34:00Z</time>
      </trkpt>
      <trkpt lat="48.76727" lon="2.14791">
        <ele>103</ele>
        <time>2020-02-16T14:34:04Z</time>
      </trkpt>
      <trkpt lat="48.76723" lon="2.14796">
        <ele>103</ele>
        <time>2020-02-16T14:34:07Z</time>
      </trkpt>
      <trkpt lat="48.76718" lon="2.14801">
        <ele>102</ele>
        <time>2020-02-16T14:34:11Z</time>
      </trkpt>
      <trkpt lat="48.76714" lon="2.14807">
        <ele>103</ele>
        <time>2020-02-16T14:34:15Z</time>
      </trkpt>
      <trkpt lat="48.76703" lon="2.14824">
        <ele>103</ele>
        <time>2020-02-16T14:34:27Z</time>
      </trkpt>
      <trkpt lat="48.767" lon="2.1483">
        <ele>104</ele>
        <time>2020-02-16T14:34:31Z</time>
      </trkpt>
      <trkpt lat="48.76691" lon="2.1484">
        <ele>104</ele>
        <time>2020-02-16T14:34:39Z</time>
      </trkpt>
      <trkpt lat="48.76684" lon="2.14848">
        <ele>103</ele>
        <time>2020-02-16T14:34:46Z</time>
      </trkpt>
      <trkpt lat="48.76676" lon="2.14857">
        <ele>103</ele>
        <time>2020-02-16T14:34:55Z</time>
      </trkpt>
      <trkpt lat="48.76664" lon="2.14872">
        <ele>106</ele>
        <time>2020-02-16T14:35:07Z</time>
      </trkpt>
      <trkpt lat="48.76656" lon="2.14881">
        <ele>105</ele>
        <time>2020-02-16T14:35:15Z</time>
      </trkpt>
      <trkpt lat="48.76651" lon="2.14885">
        <ele>106</ele>
        <time>2020-02-16T14:35:19Z</time>
      </trkpt>
      <trkpt lat="48.76643" lon="2.14896">
        <ele>108</ele>
        <time>2020-02-16T14:35:27Z</time>
      </trkpt>
      <trkpt lat="48.76634" lon="2.14902">
        <ele>108</ele>
        <time>2020-02-16T14:35:35Z</time>
      </trkpt>
      <trkpt lat="48.7663" lon="2.14907">
        <ele>109</ele>
        <time>2020-02-16T14:35:40Z</time>
      </trkpt>
      <trkpt lat="48.76628" lon="2.14915">
        <ele>110</ele>
        <time>2020-02-16T14:35:47Z</time>
      </trkpt>
      <trkpt lat="48.76619" lon="2.14931">
        <ele>113</ele>
        <time>2020-02-16T14:36:00Z</time>
      </trkpt>
      <trkpt lat="48.76616" lon="2.14937">
        <ele>113</ele>
        <time>2020-02-16T14:36:04Z</time>
      </trkpt>
      <trkpt lat="48.76612" lon="2.14951">
        <ele>114</ele>
        <time>2020-02-16T14:36:12Z</time>
      </trkpt>
      <trkpt lat="48.76607" lon="2.14955">
        <ele>114</ele>
        <time>2020-02-16T14:36:16Z</time>
      </trkpt>
      <trkpt lat="48.76605" lon="2.14962">
        <ele>114</ele>
        <time>2020-02-16T14:36:20Z</time>
      </trkpt>
      <trkpt lat="48.76601" lon="2.14967">
        <ele>113</ele>
        <time>2020-02-16T14:36:24Z</time>
      </trkpt>
      <trkpt lat="48.76594" lon="2.14979">
        <ele>117</ele>
        <time>2020-02-16T14:36:32Z</time>
      </trkpt>
      <trkpt lat="48.76591" lon="2.14985">
        <ele>117</ele>
        <time>2020-02-16T14:36:36Z</time>
      </trkpt>
      <trkpt lat="48.7659" lon="2.14993">
        <ele>116</ele>
        <time>2020-02-16T14:36:40Z</time>
      </trkpt>
      <trkpt lat="48.76589" lon="2.15">
        <ele>117</ele>
        <time>2020-02-16T14:36:44Z</time>
      </trkpt>
      <trkpt lat="48.76588" lon="2.15007">
        <ele>117</ele>
        <time>2020-02-16T14:36:48Z</time>
      </trkpt>
      <trkpt lat="48.76588" lon="2.15014">
        <ele>116</ele>
        <time>2020-02-16T14:36:52Z</time>
      </trkpt>
      <trkpt lat="48.7659" lon="2.1502">
        <ele>117</ele>
        <time>2020-02-16T14:36:56Z</time>
      </trkpt>
      <trkpt lat="48.76588" lon="2.15029">
        <ele>117</ele>
        <time>2020-02-16T14:37:00Z</time>
      </trkpt>
      <trkpt lat="48.76584" lon="2.15043">
        <ele>116</ele>
        <time>2020-02-16T14:37:08Z</time>
      </trkpt>
      <trkpt lat="48.76581" lon="2.15059">
        <ele>115</ele>
        <time>2020-02-16T14:37:15Z</time>
      </trkpt>
      <trkpt lat="48.76579" lon="2.15067">
        <ele>115</ele>
        <time>2020-02-16T14:37:19Z</time>
      </trkpt>
      <trkpt lat="48.76578" lon="2.15082">
        <ele>115</ele>
        <time>2020-02-16T14:37:27Z</time>
      </trkpt>
      <trkpt lat="48.76576" lon="2.15088">
        <ele>114</ele>
        <time>2020-02-16T14:37:30Z</time>
      </trkpt>
      <trkpt lat="48.76572" lon="2.15093">
        <ele>114</ele>
        <time>2020-02-16T14:37:33Z</time>
      </trkpt>
      <trkpt lat="48.7657" lon="2.15099">
        <ele>114</ele>
        <time>2020-02-16T14:37:36Z</time>
      </trkpt>
      <trkpt lat="48.76567" lon="2.15107">
        <ele>114</ele>
        <time>2020-02-16T14:37:39Z</time>
      </trkpt>
      <trkpt lat="48.76565" lon="2.15114">
        <ele>113</ele>
        <time>2020-02-16T14:37:43Z</time>
      </trkpt>
      <trkpt lat="48.76564" lon="2.15122">
        <ele>113</ele>
        <time>2020-02-16T14:37:47Z</time>
      </trkpt>
      <trkpt lat="48.7656" lon="2.15137">
        <ele>117</ele>
        <time>2020-02-16T14:37:56Z</time>
      </trkpt>
      <trkpt lat="48.76559" lon="2.15145">
        <ele>115</ele>
        <time>2020-02-16T14:38:00Z</time>
      </trkpt>
      <trkpt lat="48.76557" lon="2.15153">
        <ele>115</ele>
        <time>2020-02-16T14:38:04Z</time>
      </trkpt>
      <trkpt lat="48.76555" lon="2.1517">
        <ele>115</ele>
        <time>2020-02-16T14:38:12Z</time>
      </trkpt>
      <trkpt lat="48.76553" lon="2.15184">
        <ele>116</ele>
        <time>2020-02-16T14:38:19Z</time>
      </trkpt>
      <trkpt lat="48.76552" lon="2.15193">
        <ele>116</ele>
        <time>2020-02-16T14:38:23Z</time>
      </trkpt>
      <trkpt lat="48.76549" lon="2.15209">
        <ele>114</ele>
        <time>2020-02-16T14:38:31Z</time>
      </trkpt>
      <trkpt lat="48.76545" lon="2.15223">
        <ele>115</ele>
        <time>2020-02-16T14:38:39Z</time>
      </trkpt>
      <trkpt lat="48.76545" lon="2.15231">
        <ele>114</ele>
        <time>2020-02-16T14:38:43Z</time>
      </trkpt>
      <trkpt lat="48.76542" lon="2.15245">
        <ele>114</ele>
        <time>2020-02-16T14:38:52Z</time>
      </trkpt>
      <trkpt lat="48.76536" lon="2.15258">
        <ele>114</ele>
        <time>2020-02-16T14:39:00Z</time>
      </trkpt>
      <trkpt lat="48.76534" lon="2.15283">
        <ele>113</ele>
        <time>2020-02-16T14:39:12Z</time>
      </trkpt>
      <trkpt lat="48.76532" lon="2.15297">
        <ele>117</ele>
        <time>2020-02-16T14:39:18Z</time>
      </trkpt>
      <trkpt lat="48.76529" lon="2.15311">
        <ele>117</ele>
        <time>2020-02-16T14:39:25Z</time>
      </trkpt>
      <trkpt lat="48.76528" lon="2.15325">
        <ele>114</ele>
        <time>2020-02-16T14:39:31Z</time>
      </trkpt>
      <trkpt lat="48.76527" lon="2.15336">
        <ele>114</ele>
        <time>2020-02-16T14:39:36Z</time>
      </trkpt>
      <trkpt lat="48.76525" lon="2.1535">
        <ele>115</ele>
        <time>2020-02-16T14:39:44Z</time>
      </trkpt>
      <trkpt lat="48.76527" lon="2.15359">
        <ele>115</ele>
        <time>2020-02-16T14:39:48Z</time>
      </trkpt>
      <trkpt lat="48.76528" lon="2.15366">
        <ele>115</ele>
        <time>2020-02-16T14:39:51Z</time>
      </trkpt>
      <trkpt lat="48.76526" lon="2.15374">
        <ele>115</ele>
        <time>2020-02-16T14:39:55Z</time>
      </trkpt>
      <trkpt lat="48.76521" lon="2.15398">
        <ele>113</ele>
        <time>2020-02-16T14:40:04Z</time>
      </trkpt>
      <trkpt lat="48.76518" lon="2.15404">
        <ele>112</ele>
        <time>2020-02-16T14:40:07Z</time>
      </trkpt>
      <trkpt lat="48.76512" lon="2.15416">
        <ele>110</ele>
        <time>2020-02-16T14:40:13Z</time>
      </trkpt>
      <trkpt lat="48.7651" lon="2.15421">
        <ele>110</ele>
        <time>2020-02-16T14:40:16Z</time>
      </trkpt>
      <trkpt lat="48.7651" lon="2.15428">
        <ele>110</ele>
        <time>2020-02-16T14:40:20Z</time>
      </trkpt>
      <trkpt lat="48.76512" lon="2.15436">
        <ele>109</ele>
        <time>2020-02-16T14:40:24Z</time>
      </trkpt>
      <trkpt lat="48.76511" lon="2.15443">
        <ele>109</ele>
        <time>2020-02-16T14:40:28Z</time>
      </trkpt>
      <trkpt lat="48.76514" lon="2.15466">
        <ele>107</ele>
        <time>2020-02-16T14:40:41Z</time>
      </trkpt>
      <trkpt lat="48.76511" lon="2.15488">
        <ele>106</ele>
        <time>2020-02-16T14:40:53Z</time>
      </trkpt>
      <trkpt lat="48.76508" lon="2.15495">
        <ele>106</ele>
        <time>2020-02-16T14:40:58Z</time>
      </trkpt>
      <trkpt lat="48.76507" lon="2.15502">
        <ele>106</ele>
        <time>2020-02-16T14:41:02Z</time>
      </trkpt>
      <trkpt lat="48.76506" lon="2.15511">
        <ele>106</ele>
        <time>2020-02-16T14:41:07Z</time>
      </trkpt>
      <trkpt lat="48.76503" lon="2.15517">
        <ele>107</ele>
        <time>2020-02-16T14:41:11Z</time>
      </trkpt>
      <trkpt lat="48.76499" lon="2.15531">
        <ele>107</ele>
        <time>2020-02-16T14:41:18Z</time>
      </trkpt>
      <trkpt lat="48.76496" lon="2.15537">
        <ele>107</ele>
        <time>2020-02-16T14:41:21Z</time>
      </trkpt>
      <trkpt lat="48.76492" lon="2.15551">
        <ele>108</ele>
        <time>2020-02-16T14:41:28Z</time>
      </trkpt>
      <trkpt lat="48.76489" lon="2.15557">
        <ele>108</ele>
        <time>2020-02-16T14:41:32Z</time>
      </trkpt>
      <trkpt lat="48.76486" lon="2.15563">
        <ele>108</ele>
        <time>2020-02-16T14:41:36Z</time>
      </trkpt>
      <trkpt lat="48.76482" lon="2.15567">
        <ele>107</ele>
        <time>2020-02-16T14:41:40Z</time>
      </trkpt>
      <trkpt lat="48.76479" lon="2.15574">
        <ele>106</ele>
        <time>2020-02-16T14:41:44Z</time>
      </trkpt>
      <trkpt lat="48.7647" lon="2.15594">
        <ele>106</ele>
        <time>2020-02-16T14:41:56Z</time>
      </trkpt>
      <trkpt lat="48.76468" lon="2.15601">
        <ele>107</ele>
        <time>2020-02-16T14:42:00Z</time>
      </trkpt>
      <trkpt lat="48.76463" lon="2.15613">
        <ele>106</ele>
        <time>2020-02-16T14:42:09Z</time>
      </trkpt>
      <trkpt lat="48.7646" lon="2.15618">
        <ele>107</ele>
        <time>2020-02-16T14:42:13Z</time>
      </trkpt>
      <trkpt lat="48.76457" lon="2.15625">
        <ele>111</ele>
        <time>2020-02-16T14:42:18Z</time>
      </trkpt>
      <trkpt lat="48.76454" lon="2.15632">
        <ele>111</ele>
        <time>2020-02-16T14:42:22Z</time>
      </trkpt>
      <trkpt lat="48.76449" lon="2.15638">
        <ele>110</ele>
        <time>2020-02-16T14:42:26Z</time>
      </trkpt>
      <trkpt lat="48.76442" lon="2.15648">
        <ele>109</ele>
        <time>2020-02-16T14:42:33Z</time>
      </trkpt>
      <trkpt lat="48.76439" lon="2.15654">
        <ele>109</ele>
        <time>2020-02-16T14:42:37Z</time>
      </trkpt>
      <trkpt lat="48.76434" lon="2.15655">
        <ele>109</ele>
        <time>2020-02-16T14:42:41Z</time>
      </trkpt>
      <trkpt lat="48.76429" lon="2.15659">
        <ele>108</ele>
        <time>2020-02-16T14:42:45Z</time>
      </trkpt>
      <trkpt lat="48.76422" lon="2.15679">
        <ele>107</ele>
        <time>2020-02-16T14:42:55Z</time>
      </trkpt>
      <trkpt lat="48.76417" lon="2.15691">
        <ele>108</ele>
        <time>2020-02-16T14:43:02Z</time>
      </trkpt>
      <trkpt lat="48.76411" lon="2.15719">
        <ele>108</ele>
        <time>2020-02-16T14:43:16Z</time>
      </trkpt>
      <trkpt lat="48.76405" lon="2.15733">
        <ele>108</ele>
        <time>2020-02-16T14:43:24Z</time>
      </trkpt>
      <trkpt lat="48.76392" lon="2.15773">
        <ele>108</ele>
        <time>2020-02-16T14:43:44Z</time>
      </trkpt>
      <trkpt lat="48.76388" lon="2.15787">
        <ele>108</ele>
        <time>2020-02-16T14:43:52Z</time>
      </trkpt>
      <trkpt lat="48.7638" lon="2.15811">
        <ele>106</ele>
        <time>2020-02-16T14:44:05Z</time>
      </trkpt>
      <trkpt lat="48.76379" lon="2.15819">
        <ele>105</ele>
        <time>2020-02-16T14:44:10Z</time>
      </trkpt>
      <trkpt lat="48.7638" lon="2.15842">
        <ele>105</ele>
        <time>2020-02-16T14:44:20Z</time>
      </trkpt>
      <trkpt lat="48.76378" lon="2.15849">
        <ele>106</ele>
        <time>2020-02-16T14:44:24Z</time>
      </trkpt>
      <trkpt lat="48.76378" lon="2.15856">
        <ele>106</ele>
        <time>2020-02-16T14:44:28Z</time>
      </trkpt>
      <trkpt lat="48.76379" lon="2.1587">
        <ele>104</ele>
        <time>2020-02-16T14:44:35Z</time>
      </trkpt>
      <trkpt lat="48.76375" lon="2.1588">
        <ele>102</ele>
        <time>2020-02-16T14:44:42Z</time>
      </trkpt>
      <trkpt lat="48.76375" lon="2.15888">
        <ele>102</ele>
        <time>2020-02-16T14:44:46Z</time>
      </trkpt>
      <trkpt lat="48.76372" lon="2.15904">
        <ele>105</ele>
        <time>2020-02-16T14:44:54Z</time>
      </trkpt>
      <trkpt lat="48.76373" lon="2.15911">
        <ele>105</ele>
        <time>2020-02-16T14:44:57Z</time>
      </trkpt>
      <trkpt lat="48.76375" lon="2.1592">
        <ele>104</ele>
        <time>2020-02-16T14:45:01Z</time>
      </trkpt>
      <trkpt lat="48.76374" lon="2.15928">
        <ele>104</ele>
        <time>2020-02-16T14:45:04Z</time>
      </trkpt>
      <trkpt lat="48.76374" lon="2.15936">
        <ele>103</ele>
        <time>2020-02-16T14:45:08Z</time>
      </trkpt>
      <trkpt lat="48.76376" lon="2.15944">
        <ele>102</ele>
        <time>2020-02-16T14:45:12Z</time>
      </trkpt>
      <trkpt lat="48.76375" lon="2.15952">
        <ele>102</ele>
        <time>2020-02-16T14:45:16Z</time>
      </trkpt>
      <trkpt lat="48.76373" lon="2.1596">
        <ele>101</ele>
        <time>2020-02-16T14:45:20Z</time>
      </trkpt>
      <trkpt lat="48.76373" lon="2.15968">
        <ele>102</ele>
        <time>2020-02-16T14:45:24Z</time>
      </trkpt>
      <trkpt lat="48.76375" lon="2.15976">
        <ele>101</ele>
        <time>2020-02-16T14:45:28Z</time>
      </trkpt>
      <trkpt lat="48.76375" lon="2.16008">
        <ele>99</ele>
        <time>2020-02-16T14:45:43Z</time>
      </trkpt>
      <trkpt lat="48.76373" lon="2.16016">
        <ele>99</ele>
        <time>2020-02-16T14:45:48Z</time>
      </trkpt>
      <trkpt lat="48.76374" lon="2.16023">
        <ele>99</ele>
        <time>2020-02-16T14:45:52Z</time>
      </trkpt>
      <trkpt lat="48.76377" lon="2.16029">
        <ele>99</ele>
        <time>2020-02-16T14:45:56Z</time>
      </trkpt>
      <trkpt lat="48.76388" lon="2.1604">
        <ele>97</ele>
        <time>2020-02-16T14:46:07Z</time>
      </trkpt>
      <trkpt lat="48.76391" lon="2.16047">
        <ele>96</ele>
        <time>2020-02-16T14:46:12Z</time>
      </trkpt>
      <trkpt lat="48.76394" lon="2.16054">
        <ele>95</ele>
        <time>2020-02-16T14:46:16Z</time>
      </trkpt>
      <trkpt lat="48.76402" lon="2.16064">
        <ele>95</ele>
        <time>2020-02-16T14:46:23Z</time>
      </trkpt>
      <trkpt lat="48.76405" lon="2.16072">
        <ele>96</ele>
        <time>2020-02-16T14:46:27Z</time>
      </trkpt>
      <trkpt lat="48.76408" lon="2.16078">
        <ele>95</ele>
        <time>2020-02-16T14:46:31Z</time>
      </trkpt>
      <trkpt lat="48.76422" lon="2.16102">
        <ele>91</ele>
        <time>2020-02-16T14:46:55Z</time>
      </trkpt>
      <trkpt lat="48.76425" lon="2.16109">
        <ele>92</ele>
        <time>2020-02-16T14:47:13Z</time>
      </trkpt>
      <trkpt lat="48.76429" lon="2.16113">
        <ele>91</ele>
        <time>2020-02-16T14:48:03Z</time>
      </trkpt>
      <trkpt lat="48.76429" lon="2.16114">
        <ele>92</ele>
        <time>2020-02-16T14:50:51Z</time>
      </trkpt>
      <trkpt lat="48.76433" lon="2.1612">
        <ele>90</ele>
        <time>2020-02-16T14:51:09Z</time>
      </trkpt>
      <trkpt lat="48.76451" lon="2.16107">
        <ele>92</ele>
        <time>2020-02-16T14:51:29Z</time>
      </trkpt>
      <trkpt lat="48.76456" lon="2.16104">
        <ele>92</ele>
        <time>2020-02-16T14:51:32Z</time>
      </trkpt>
      <trkpt lat="48.76461" lon="2.161">
        <ele>91</ele>
        <time>2020-02-16T14:51:36Z</time>
      </trkpt>
      <trkpt lat="48.76465" lon="2.16096">
        <ele>90</ele>
        <time>2020-02-16T14:51:40Z</time>
      </trkpt>
      <trkpt lat="48.7647" lon="2.16094">
        <ele>91</ele>
        <time>2020-02-16T14:51:44Z</time>
      </trkpt>
      <trkpt lat="48.76478" lon="2.16086">
        <ele>91</ele>
        <time>2020-02-16T14:51:54Z</time>
      </trkpt>
      <trkpt lat="48.76486" lon="2.1609">
        <ele>90</ele>
        <time>2020-02-16T14:52:03Z</time>
      </trkpt>
      <trkpt lat="48.76495" lon="2.16096">
        <ele>90</ele>
        <time>2020-02-16T14:52:11Z</time>
      </trkpt>
      <trkpt lat="48.765" lon="2.161">
        <ele>90</ele>
        <time>2020-02-16T14:52:18Z</time>
      </trkpt>
      <trkpt lat="48.76505" lon="2.16105">
        <ele>90</ele>
        <time>2020-02-16T14:52:23Z</time>
      </trkpt>
      <trkpt lat="48.76509" lon="2.16108">
        <ele>91</ele>
        <time>2020-02-16T14:52:26Z</time>
      </trkpt>
      <trkpt lat="48.76512" lon="2.16112">
        <ele>91</ele>
        <time>2020-02-16T14:52:30Z</time>
      </trkpt>
      <trkpt lat="48.76515" lon="2.16118">
        <ele>90</ele>
        <time>2020-02-16T14:52:34Z</time>
      </trkpt>
      <trkpt lat="48.76517" lon="2.16142">
        <ele>89</ele>
        <time>2020-02-16T14:52:47Z</time>
      </trkpt>
      <trkpt lat="48.76518" lon="2.16149">
        <ele>89</ele>
        <time>2020-02-16T14:52:50Z</time>
      </trkpt>
      <trkpt lat="48.76522" lon="2.16174">
        <ele>92</ele>
        <time>2020-02-16T14:53:02Z</time>
      </trkpt>
      <trkpt lat="48.76522" lon="2.16182">
        <ele>91</ele>
        <time>2020-02-16T14:53:06Z</time>
      </trkpt>
      <trkpt lat="48.76524" lon="2.16207">
        <ele>89</ele>
        <time>2020-02-16T14:53:18Z</time>
      </trkpt>
      <trkpt lat="48.76523" lon="2.16215">
        <ele>89</ele>
        <time>2020-02-16T14:53:23Z</time>
      </trkpt>
      <trkpt lat="48.76524" lon="2.16223">
        <ele>89</ele>
        <time>2020-02-16T14:53:27Z</time>
      </trkpt>
      <trkpt lat="48.76523" lon="2.16239">
        <ele>89</ele>
        <time>2020-02-16T14:53:35Z</time>
      </trkpt>
      <trkpt lat="48.76523" lon="2.16247">
        <ele>89</ele>
        <time>2020-02-16T14:53:39Z</time>
      </trkpt>
      <trkpt lat="48.76524" lon="2.16255">
        <ele>89</ele>
        <time>2020-02-16T14:53:43Z</time>
      </trkpt>
      <trkpt lat="48.76522" lon="2.1627">
        <ele>90</ele>
        <time>2020-02-16T14:53:51Z</time>
      </trkpt>
      <trkpt lat="48.76521" lon="2.16279">
        <ele>90</ele>
        <time>2020-02-16T14:53:56Z</time>
      </trkpt>
      <trkpt lat="48.76521" lon="2.16287">
        <ele>90</ele>
        <time>2020-02-16T14:54:00Z</time>
      </trkpt>
      <trkpt lat="48.76521" lon="2.16295">
        <ele>89</ele>
        <time>2020-02-16T14:54:04Z</time>
      </trkpt>
      <trkpt lat="48.76521" lon="2.1631">
        <ele>89</ele>
        <time>2020-02-16T14:54:13Z</time>
      </trkpt>
      <trkpt lat="48.7652" lon="2.16318">
        <ele>90</ele>
        <time>2020-02-16T14:54:20Z</time>
      </trkpt>
      <trkpt lat="48.76519" lon="2.16326">
        <ele>90</ele>
        <time>2020-02-16T14:54:24Z</time>
      </trkpt>
      <trkpt lat="48.7652" lon="2.16334">
        <ele>90</ele>
        <time>2020-02-16T14:54:28Z</time>
      </trkpt>
      <trkpt lat="48.76521" lon="2.16342">
        <ele>90</ele>
        <time>2020-02-16T14:54:32Z</time>
      </trkpt>
      <trkpt lat="48.76522" lon="2.16357">
        <ele>89</ele>
        <time>2020-02-16T14:54:40Z</time>
      </trkpt>
      <trkpt lat="48.7652" lon="2.16366">
        <ele>90</ele>
        <time>2020-02-16T14:54:46Z</time>
      </trkpt>
      <trkpt lat="48.76519" lon="2.16374">
        <ele>90</ele>
        <time>2020-02-16T14:54:50Z</time>
      </trkpt>
      <trkpt lat="48.76519" lon="2.16381">
        <ele>89</ele>
        <time>2020-02-16T14:54:53Z</time>
      </trkpt>
      <trkpt lat="48.76516" lon="2.16368">
        <ele>92</ele>
        <time>2020-02-16T14:55:09Z</time>
      </trkpt>
      <trkpt lat="48.76518" lon="2.16356">
        <ele>91</ele>
        <time>2020-02-16T14:55:43Z</time>
      </trkpt>
      <trkpt lat="48.76517" lon="2.16349">
        <ele>91</ele>
        <time>2020-02-16T14:55:47Z</time>
      </trkpt>
      <trkpt lat="48.76511" lon="2.16353">
        <ele>91</ele>
        <time>2020-02-16T14:56:25Z</time>
      </trkpt>
      <trkpt lat="48.76505" lon="2.16354">
        <ele>91</ele>
        <time>2020-02-16T14:56:34Z</time>
      </trkpt>
      <trkpt lat="48.76499" lon="2.16367">
        <ele>92</ele>
        <time>2020-02-16T14:56:42Z</time>
      </trkpt>
      <trkpt lat="48.76495" lon="2.16374">
        <ele>91</ele>
        <time>2020-02-16T14:56:50Z</time>
      </trkpt>
      <trkpt lat="48.765" lon="2.16373">
        <ele>91</ele>
        <time>2020-02-16T14:58:53Z</time>
      </trkpt>
    </trkseg>
  </trk>
</gpx>